Provisional Data: West Branch Susquehanna River near Cherry Tree, PA


Please select a monitoring station.
Please select start date.
Please select start date.
Historical Station - Data Range: 11/06/2012 - 12/15/2016

Toggle Unit: C/F Toggle Unit: C/F
Sample Time Temperature (C) Temperature (F) Specific Conductivity (mS/cm) pH   Turbidity (NTU+) DO (mg/L)
11/15/2016 12:00:00 AM 6.51 43.718 0.663 7.83 38.9 11.37
11/15/2016 12:15:00 AM 6.51 43.718 0.664 7.82 38.9 11.35
11/15/2016 12:30:00 AM 6.48 43.664 0.664 7.82 38.4 11.36
11/15/2016 12:45:00 AM 6.43 43.574 0.664 7.82 39.4 11.37
11/15/2016 1:00:00 AM 6.38 43.484 0.663 7.81 39.7 11.41
11/15/2016 1:15:00 AM 6.33 43.394 0.663 7.81 39.1 11.44
11/15/2016 1:30:00 AM 6.29 43.322 0.662 7.81 38.6 11.46
11/15/2016 1:45:00 AM 6.26 43.268 0.662 7.81 39.3 11.47
11/15/2016 2:00:00 AM 6.27 43.286 0.663 7.81 39 11.43
11/15/2016 2:15:00 AM 6.3 43.34 0.664 7.81 39.2 11.4
11/15/2016 2:30:00 AM 6.3 43.34 0.665 7.8 39.9 11.39
11/15/2016 2:45:00 AM 6.26 43.268 0.665 7.8 39.7 11.43
11/15/2016 3:00:00 AM 6.21 43.178 0.664 7.8 40.8 11.42
11/15/2016 3:15:00 AM 6.16 43.088 0.664 7.79 40.6 11.49
11/15/2016 3:30:00 AM 6.11 42.998 0.663 7.79 39.1 11.52
11/15/2016 3:45:00 AM 6.09 42.962 0.663 7.8 39.2 11.53
11/15/2016 4:00:00 AM 6.1 42.98 0.664 7.8 39 11.5
11/15/2016 4:15:00 AM 6.11 42.998 0.665 7.79 39.9 11.48
11/15/2016 4:30:00 AM 6.09 42.962 0.665 7.79 39.2 11.49
11/15/2016 4:45:00 AM 6.04 42.872 0.665 7.79 39.7 11.52
11/15/2016 5:00:00 AM 5.98 42.764 0.665 7.79 39.4 11.54
11/15/2016 5:15:00 AM 5.92 42.656 0.665 7.79 39.3 11.58
11/15/2016 5:30:00 AM 5.87 42.566 0.664 7.79 39.1 11.6
11/15/2016 5:45:00 AM 5.83 42.494 0.664 7.79 39.3 11.61
11/15/2016 6:00:00 AM 5.81 42.458 0.664 7.79 39.8 11.61
11/15/2016 6:15:00 AM 5.82 42.476 0.665 7.79 39.8 11.58
11/15/2016 6:30:00 AM 5.82 42.476 0.665 7.78 39.2 11.58
11/15/2016 6:45:00 AM 5.79 42.422 0.666 7.79 40 11.55
11/15/2016 7:00:00 AM 5.76 42.368 0.665 7.78 39.8 11.61
11/15/2016 7:15:00 AM 5.72 42.296 0.665 7.78 39.3 11.63
11/15/2016 7:30:00 AM 5.68 42.224 0.665 7.78 39.4 11.68
11/15/2016 7:45:00 AM 5.66 42.188 0.665 7.79 38.4 11.74
11/15/2016 8:00:00 AM 5.65 42.17 0.665 7.79 38 11.8
11/15/2016 8:15:00 AM 5.65 42.17 0.665 7.79 37.9 11.89
11/15/2016 8:30:00 AM 5.66 42.188 0.665 7.78 38.1 11.99
11/15/2016 8:45:00 AM 5.65 42.17 0.665 7.79 37.1 12.12
11/15/2016 9:00:00 AM 5.65 42.17 0.664 7.79 36.9 12.28
11/15/2016 9:15:00 AM 5.67 42.206 0.663 7.79 36.3 12.48
11/15/2016 9:30:00 AM 5.69 42.242 0.664 7.8 35.9 12.64
11/15/2016 9:45:00 AM 5.72 42.296 0.663 7.8 36 12.8
11/15/2016 10:00:00 AM 5.76 42.368 0.662 7.81 35 12.93
11/15/2016 10:15:00 AM 5.86 42.548 0.662 7.81 34.8 13.06
11/15/2016 10:30:00 AM 5.95 42.71 0.662 7.83 35.2 13.11
11/15/2016 10:45:00 AM 6.04 42.872 0.662 7.83 34.7 13.28
11/15/2016 11:00:00 AM 6.12 43.016 0.662 7.84 35 13.38
11/15/2016 11:15:00 AM 6.19 43.142 0.662 7.84 34.8 13.45
11/15/2016 11:30:00 AM 6.25 43.25 0.661 7.85 34.3 13.5
11/15/2016 11:45:00 AM 6.36 43.448 0.661 7.86 34.4 13.56
11/15/2016 12:00:00 PM 6.48 43.664 0.661 7.86 34.6 13.59
11/15/2016 12:15:00 PM 6.59 43.862 0.661 7.87 35.2 13.61
11/15/2016 12:30:00 PM 6.69 44.042 0.662 7.87 35.5 13.6
11/15/2016 12:45:00 PM 6.78 44.204 0.661 7.88 35.7 13.57
11/15/2016 1:00:00 PM 6.87 44.366 0.661 7.89 34.8 13.56
11/15/2016 1:15:00 PM 6.96 44.528 0.661 7.9 35 13.54
11/15/2016 1:30:00 PM 7.06 44.708 0.66 7.91 34.6 13.5
11/15/2016 1:45:00 PM 7.16 44.888 0.66 7.92 35 13.45
11/15/2016 2:00:00 PM 7.3 45.14 0.66 7.92 35.1 13.42
11/15/2016 2:15:00 PM 7.43 45.374 0.661 7.94 35.7 13.31
11/15/2016 2:30:00 PM 7.55 45.59 0.662 7.94 36.4 13.29
11/15/2016 2:45:00 PM 7.63 45.734 0.662 7.95 35.5 13.2
11/15/2016 3:00:00 PM 7.69 45.842 0.662 7.95 35.7 13.09
11/15/2016 3:15:00 PM 7.73 45.914 0.662 7.96 35.5 12.98
11/15/2016 3:30:00 PM 7.76 45.968 0.662 7.97 35.8 12.86
11/15/2016 3:45:00 PM 7.79 46.022 0.662 7.97 36.1 12.74
11/15/2016 4:00:00 PM 7.84 46.112 0.663 7.97 36.8 12.6
11/15/2016 4:15:00 PM 7.88 46.184 0.664 7.98 36.3 12.42
11/15/2016 4:30:00 PM 7.89 46.202 0.664 7.98 36.5 12.22
11/15/2016 4:45:00 PM 7.88 46.184 0.664 7.98 36.3 12
11/15/2016 5:00:00 PM 7.85 46.13 0.664 7.98 36.3 11.84
11/15/2016 5:15:00 PM 7.82 46.076 0.664 7.97 36.7 11.68
11/15/2016 5:30:00 PM 7.79 46.022 0.664 7.97 37.3 11.54
11/15/2016 5:45:00 PM 7.76 45.968 0.664 7.96 38.6 11.41
11/15/2016 6:00:00 PM 7.77 45.986 0.665 7.96 40.9 11.28
11/15/2016 6:15:00 PM 7.79 46.022 0.667 7.95 36.9 11.22
11/15/2016 6:30:00 PM 7.77 45.986 0.668 7.94 37.6 11.13
11/15/2016 6:45:00 PM 7.72 45.896 0.668 7.94 37.6 11.09
11/15/2016 7:00:00 PM 7.66 45.788 0.668 7.93 37 11.06
11/15/2016 7:15:00 PM 7.6 45.68 0.667 7.92 37 11.07
11/15/2016 7:30:00 PM 7.53 45.554 0.667 7.91 39.7 11.07
11/15/2016 7:45:00 PM 7.48 45.464 0.667 7.91 37.8 11.06
11/15/2016 8:00:00 PM 7.46 45.428 0.667 7.9 38.7 11.04
11/15/2016 8:15:00 PM 7.43 45.374 0.668 7.89 38.3 11.02
11/15/2016 8:30:00 PM 7.39 45.302 0.669 7.89 39.3 11.02
11/15/2016 8:45:00 PM 7.33 45.194 0.669 7.88 38.4 11.04
11/15/2016 9:00:00 PM 7.26 45.068 0.668 7.88 38.3 11.07
11/15/2016 9:15:00 PM 7.18 44.924 0.668 7.87 41.8 11.09
11/15/2016 9:30:00 PM 7.1 44.78 0.667 7.87 40 11.14
11/15/2016 9:45:00 PM 7.03 44.654 0.667 7.87 39.6 11.11
11/15/2016 10:00:00 PM 6.98 44.564 0.667 7.87 39.9 11.16
11/15/2016 10:15:00 PM 6.96 44.528 0.668 7.86 40.3 11.14
11/15/2016 10:30:00 PM 6.92 44.456 0.669 7.85 40.3 11.15
11/15/2016 10:45:00 PM 6.85 44.33 0.669 7.85 40.1 11.16
11/15/2016 11:00:00 PM 6.76 44.168 0.669 7.85 39.4 11.2
11/15/2016 11:15:00 PM 6.68 44.024 0.669 7.84 39.8 11.25
11/15/2016 11:30:00 PM 6.6 43.88 0.668 7.84 40.1 11.28
11/15/2016 11:45:00 PM 6.53 43.754 0.668 7.84 40.2 11.29
11/16/2016 12:00:00 AM 6.5 43.7 0.668 7.84 40.3 11.29
11/16/2016 12:15:00 AM 6.48 43.664 0.669 7.84 40.8 11.28
11/16/2016 12:30:00 AM 6.45 43.61 0.669 7.83 40.4 11.29
11/16/2016 12:45:00 AM 6.39 43.502 0.67 7.83 40.5 11.33
11/16/2016 1:00:00 AM 6.32 43.376 0.669 7.83 40.2 11.36
11/16/2016 1:15:00 AM 6.26 43.268 0.669 7.82 41.3 11.39
11/16/2016 1:30:00 AM 6.19 43.142 0.669 7.83 41.1 11.37
11/16/2016 1:45:00 AM 6.15 43.07 0.668 7.83 41.3 11.44
11/16/2016 2:00:00 AM 6.14 43.052 0.669 7.82 40.8 11.42
11/16/2016 2:15:00 AM 6.15 43.07 0.67 7.82 40.3 11.39
11/16/2016 2:30:00 AM 6.13 43.034 0.67 7.82 40.2 11.37
11/16/2016 2:45:00 AM 6.1 42.98 0.671 7.82 40.5 11.38
11/16/2016 3:00:00 AM 6.04 42.872 0.671 7.81 39.9 11.43
11/16/2016 3:15:00 AM 5.98 42.764 0.67 7.81 41.2 11.47
11/16/2016 3:30:00 AM 5.92 42.656 0.67 7.81 40.4 11.51
11/16/2016 3:45:00 AM 5.88 42.584 0.67 7.8 40.9 11.52
11/16/2016 4:00:00 AM 5.87 42.566 0.67 7.8 40.9 11.53
11/16/2016 4:15:00 AM 5.88 42.584 0.67 7.8 40.9 11.51
11/16/2016 4:30:00 AM 5.88 42.584 0.671 7.8 41.2 11.5
11/16/2016 4:45:00 AM 5.85 42.53 0.671 7.8 41.5 11.53
11/16/2016 5:00:00 AM 5.82 42.476 0.671 7.8 41.2 11.56
11/16/2016 5:15:00 AM 5.79 42.422 0.67 7.81 41.1 11.53
11/16/2016 5:30:00 AM 5.77 42.386 0.67 7.8 41.2 11.6
11/16/2016 5:45:00 AM 5.76 42.368 0.67 7.8 41.9 11.61
11/16/2016 6:00:00 AM 5.77 42.386 0.669 7.8 41.2 11.6
11/16/2016 6:15:00 AM 5.8 42.44 0.67 7.8 41.4 11.58
11/16/2016 6:30:00 AM 5.83 42.494 0.67 7.8 42.1 11.56
11/16/2016 6:45:00 AM 5.83 42.494 0.671 7.79 41.2 11.56
11/16/2016 7:00:00 AM 5.82 42.476 0.671 7.79 41.4 11.58
11/16/2016 7:15:00 AM 5.79 42.422 0.671 7.8 40.9 11.61
11/16/2016 7:30:00 AM 5.75 42.35 0.67 7.79 41.8 11.64
11/16/2016 7:45:00 AM 5.73 42.314 0.67 7.8 40.9 11.69
11/16/2016 8:00:00 AM 5.75 42.35 0.67 7.8 40.5 11.75
11/16/2016 8:15:00 AM 5.77 42.386 0.67 7.79 39.7 11.82
11/16/2016 8:30:00 AM 5.82 42.476 0.67 7.8 39.2 11.97
11/16/2016 8:45:00 AM 5.85 42.53 0.67 7.79 38.4 12.14
11/16/2016 9:00:00 AM 5.87 42.566 0.669 7.8 39 12.2
11/16/2016 9:15:00 AM 5.91 42.638 0.669 7.8 37.6 12.36
11/16/2016 9:30:00 AM 5.97 42.746 0.668 7.8 37.5 12.59
11/16/2016 9:45:00 AM 6.07 42.926 0.667 7.81 36.8 12.9
11/16/2016 10:00:00 AM 6.16 43.088 0.667 7.81 36.7 13.07
11/16/2016 10:15:00 AM 6.26 43.268 0.667 7.82 36.3 13.17
11/16/2016 10:30:00 AM 6.35 43.43 0.667 7.83 36 13.14
11/16/2016 10:45:00 AM 6.42 43.556 0.667 7.84 35.9 13.04
11/16/2016 11:00:00 AM 6.5 43.7 0.666 7.84 35.7 13.01
11/16/2016 11:15:00 AM 6.6 43.88 0.666 7.85 35.6 13.17
11/16/2016 11:30:00 AM 6.7 44.06 0.665 7.85 35.9 13.36
11/16/2016 11:45:00 AM 6.79 44.222 0.665 7.86 36.2 13.49
11/16/2016 12:00:00 PM 6.93 44.474 0.664 7.87 36.4 13.64
11/16/2016 12:15:00 PM 7.04 44.672 0.665 7.88 38.3 13.76
11/16/2016 12:30:00 PM 7.15 44.87 0.665 7.88 41.6 13.81
11/16/2016 12:45:00 PM 7.28 45.104 0.665 7.9 37.2 13.8
11/16/2016 1:00:00 PM 7.35 45.23 0.665 7.91 36.8 13.87
11/16/2016 1:15:00 PM 7.38 45.284 0.665 7.92 37.3 13.73
11/16/2016 1:30:00 PM 7.44 45.392 0.664 7.93 37 13.55
11/16/2016 1:45:00 PM 7.53 45.554 0.664 7.94 36.6 13.43
11/16/2016 2:00:00 PM 7.63 45.734 0.665 7.94 37.3 13.41
11/16/2016 2:15:00 PM 7.73 45.914 0.666 7.96 38.1 13.2
11/16/2016 2:30:00 PM 7.82 46.076 0.667 7.96 37 12.97
11/16/2016 2:45:00 PM 7.9 46.22 0.667 7.96 37.4 12.7
11/16/2016 3:00:00 PM 7.96 46.328 0.667 7.96 37.1 12.57
11/16/2016 3:15:00 PM 8 46.4 0.667 7.97 37.4 12.52
11/16/2016 3:30:00 PM 8.03 46.454 0.666 7.97 37 12.36
11/16/2016 3:45:00 PM 8.06 46.508 0.666 7.97 39 12.21
11/16/2016 4:00:00 PM 8.12 46.616 0.666 7.97 37.3 12.06
11/16/2016 4:15:00 PM 8.19 46.742 0.667 7.97 37.7 11.97
11/16/2016 4:30:00 PM 8.24 46.832 0.668 7.97 39 11.79
11/16/2016 4:45:00 PM 8.26 46.868 0.668 7.96 38.4 11.65
11/16/2016 5:00:00 PM 8.27 46.886 0.668 7.96 38.8 11.52
11/16/2016 5:15:00 PM 8.29 46.922 0.668 7.95 37.6 11.39
11/16/2016 5:30:00 PM 8.29 46.922 0.668 7.95 37.7 11.25
11/16/2016 5:45:00 PM 8.31 46.958 0.668 7.94 38.3 11.15
11/16/2016 6:00:00 PM 8.35 47.03 0.668 7.94 39.2 11.07
11/16/2016 6:15:00 PM 8.43 47.174 0.67 7.93 39.1 10.96
11/16/2016 6:30:00 PM 8.48 47.264 0.671 7.92 39.2 10.87
11/16/2016 6:45:00 PM 8.49 47.282 0.672 7.91 39.5 10.83
11/16/2016 7:00:00 PM 8.49 47.282 0.672 7.9 39.5 10.81
11/16/2016 7:15:00 PM 8.48 47.264 0.672 7.89 40.7 10.82
11/16/2016 7:30:00 PM 8.47 47.246 0.671 7.89 39.5 10.8
11/16/2016 7:45:00 PM 8.45 47.21 0.671 7.89 40 10.8
11/16/2016 8:00:00 PM 8.45 47.21 0.671 7.88 39.7 10.77
11/16/2016 8:15:00 PM 8.46 47.228 0.672 7.88 39.3 10.72
11/16/2016 8:30:00 PM 8.44 47.192 0.673 7.86 39.6 10.74
11/16/2016 8:45:00 PM 8.4 47.12 0.673 7.86 39 10.75
11/16/2016 9:00:00 PM 8.35 47.03 0.673 7.86 39.2 10.76
11/16/2016 9:15:00 PM 8.29 46.922 0.673 7.85 39.4 10.8
11/16/2016 9:30:00 PM 8.23 46.814 0.672 7.85 40.2 10.8
11/16/2016 9:45:00 PM 8.18 46.724 0.672 7.85 39.7 10.82
11/16/2016 10:00:00 PM 8.15 46.67 0.672 7.84 40.7 10.82
11/16/2016 10:15:00 PM 8.13 46.634 0.672 7.84 40.8 10.82
11/16/2016 10:30:00 PM 8.1 46.58 0.673 7.84 40.7 10.78
11/16/2016 10:45:00 PM 8.06 46.508 0.674 7.84 41.4 10.81
11/16/2016 11:00:00 PM 7.99 46.382 0.673 7.83 41.8 10.85
11/16/2016 11:15:00 PM 7.92 46.256 0.673 7.83 41.6 10.86
11/16/2016 11:30:00 PM 7.84 46.112 0.672 7.83 41.2 10.91
11/16/2016 11:45:00 PM 7.78 46.004 0.672 7.83 41.4 10.93
11/17/2016 12:00:00 AM 7.74 45.932 0.672 7.83 41.7 10.88
11/17/2016 12:15:00 AM 7.72 45.896 0.672 7.83 40.8 10.93
11/17/2016 12:30:00 AM 7.68 45.824 0.673 7.82 41.6 10.94
11/17/2016 12:45:00 AM 7.63 45.734 0.672 7.82 41.6 10.95
11/17/2016 1:00:00 AM 7.55 45.59 0.672 7.82 41.9 10.98
11/17/2016 1:15:00 AM 7.48 45.464 0.672 7.81 42 11.03
11/17/2016 1:30:00 AM 7.41 45.338 0.671 7.82 42.7 11.05
11/17/2016 1:45:00 AM 7.35 45.23 0.671 7.82 42.4 11.08
11/17/2016 2:00:00 AM 7.32 45.176 0.671 7.82 41.5 11.08
11/17/2016 2:15:00 AM 7.33 45.194 0.672 7.81 41.7 11.04
11/17/2016 2:30:00 AM 7.32 45.176 0.673 7.81 41.7 11.04
11/17/2016 2:45:00 AM 7.28 45.104 0.673 7.81 42.8 11.06
11/17/2016 3:00:00 AM 7.23 45.014 0.673 7.81 42 11.1
11/17/2016 3:15:00 AM 7.17 44.906 0.673 7.81 41.8 11.14
11/17/2016 3:30:00 AM 7.12 44.816 0.672 7.81 42.8 11.16
11/17/2016 3:45:00 AM 7.08 44.744 0.672 7.81 42.3 11.15
11/17/2016 4:00:00 AM 7.07 44.726 0.672 7.8 42.7 11.18
11/17/2016 4:15:00 AM 7.07 44.726 0.672 7.8 42.1 11.16
11/17/2016 4:30:00 AM 7.06 44.708 0.673 7.8 43.7 11.18
11/17/2016 4:45:00 AM 7.03 44.654 0.673 7.79 41.9 11.18
11/17/2016 5:00:00 AM 6.99 44.582 0.673 7.79 43.3 11.2
11/17/2016 5:15:00 AM 6.96 44.528 0.673 7.8 43.6 11.25
11/17/2016 5:30:00 AM 6.92 44.456 0.672 7.8 43.2 11.27
11/17/2016 5:45:00 AM 6.89 44.402 0.672 7.79 41.8 11.29
11/17/2016 6:00:00 AM 6.88 44.384 0.672 7.8 42.9 11.3
11/17/2016 6:15:00 AM 6.89 44.402 0.671 7.8 41.7 11.28
11/17/2016 6:30:00 AM 6.9 44.42 0.672 7.79 42.2 11.25
11/17/2016 6:45:00 AM 6.9 44.42 0.672 7.79 41.7 11.26
11/17/2016 7:00:00 AM 6.88 44.384 0.673 7.79 41.9 11.27
11/17/2016 7:15:00 AM 6.86 44.348 0.673 7.79 41.8 11.28
11/17/2016 7:30:00 AM 6.84 44.312 0.672 7.79 41.7 11.3
11/17/2016 7:45:00 AM 6.82 44.276 0.672 7.79 41.2 11.39
11/17/2016 8:00:00 AM 6.83 44.294 0.672 7.79 42 11.43
11/17/2016 8:15:00 AM 6.87 44.366 0.671 7.79 40.6 11.51
11/17/2016 8:30:00 AM 6.91 44.438 0.672 7.79 40.1 11.65
11/17/2016 8:45:00 AM 6.93 44.474 0.672 7.79 39.7 11.79
11/17/2016 9:00:00 AM 6.96 44.528 0.671 7.79 39.3 11.95
11/17/2016 9:15:00 AM 6.99 44.582 0.671 7.79 39.4 12.13
11/17/2016 9:30:00 AM 7.02 44.636 0.671 7.8 38.2 12.34
11/17/2016 9:45:00 AM 7.06 44.708 0.67 7.8 37.9 12.54
11/17/2016 10:00:00 AM 7.11 44.798 0.67 7.81 37.6 12.74
11/17/2016 10:15:00 AM 7.19 44.942 0.669 7.82 38.1 12.92
11/17/2016 10:30:00 AM 7.26 45.068 0.669 7.83 39.5 13.07
11/17/2016 10:45:00 AM 7.34 45.212 0.669 7.84 38.6 13.23
11/17/2016 11:00:00 AM 7.41 45.338 0.669 7.84 37.2 13.43
11/17/2016 11:15:00 AM 7.49 45.482 0.668 7.86 38.5 13.48
11/17/2016 11:30:00 AM 7.57 45.626 0.668 7.87 38.7 13.69
11/17/2016 11:45:00 AM 7.66 45.788 0.668 7.88 37.1 13.82
11/17/2016 12:00:00 PM 7.75 45.95 0.668 7.89 37.8 13.95
11/17/2016 12:15:00 PM 7.87 46.166 0.667 7.9 37 14.02
11/17/2016 12:30:00 PM 7.96 46.328 0.668 7.91 36.9 14.04
11/17/2016 12:45:00 PM 8.04 46.472 0.668 7.92 36.8 14.01
11/17/2016 1:00:00 PM 8.09 46.562 0.668 7.94 38.4 13.99
11/17/2016 1:15:00 PM 8.11 46.598 0.668 7.95 37.3 13.91
11/17/2016 1:30:00 PM 8.19 46.742 0.667 7.96 37.2 13.88
11/17/2016 1:45:00 PM 8.27 46.886 0.667 7.97 37.1 13.79
11/17/2016 2:00:00 PM 8.36 47.048 0.667 7.98 38.8 13.66
11/17/2016 2:15:00 PM 8.47 47.246 0.668 7.99 37.7 13.53
11/17/2016 2:30:00 PM 8.58 47.444 0.668 7.99 38.4 13.44
11/17/2016 2:45:00 PM 8.69 47.642 0.669 8 40.1 13.31
11/17/2016 3:00:00 PM 8.75 47.75 0.67 8.01 37.6 13.11
11/17/2016 3:15:00 PM 8.78 47.804 0.67 8.01 38.1 13
11/17/2016 3:30:00 PM 8.8 47.84 0.67 8.02 37.8 12.83
11/17/2016 3:45:00 PM 8.82 47.876 0.67 8.02 39.2 12.68
11/17/2016 4:00:00 PM 8.86 47.948 0.67 8.02 38.9 12.53
11/17/2016 4:15:00 PM 8.9 48.02 0.671 8.02 39.9 12.33
11/17/2016 4:30:00 PM 8.89 48.002 0.672 8.02 40.6 12.09
11/17/2016 4:45:00 PM 8.87 47.966 0.672 8.02 40.2 11.86
11/17/2016 5:00:00 PM 8.83 47.894 0.673 8.01 39.8 11.67
11/17/2016 5:15:00 PM 8.8 47.84 0.672 8.01 41.3 11.48
11/17/2016 5:30:00 PM 8.76 47.768 0.672 8.01 42.3 11.33
11/17/2016 5:45:00 PM 8.73 47.714 0.672 8 40.1 11.22
11/17/2016 6:00:00 PM 8.73 47.714 0.672 8 41 11.11
11/17/2016 6:15:00 PM 8.73 47.714 0.673 7.99 42.8 11.01
11/17/2016 6:30:00 PM 8.73 47.714 0.674 7.98 44.4 10.93
11/17/2016 6:45:00 PM 8.7 47.66 0.675 7.98 43 10.83
11/17/2016 7:00:00 PM 8.66 47.588 0.675 7.97 42.7 10.83
11/17/2016 7:15:00 PM 8.59 47.462 0.675 7.96 42.1 10.82
11/17/2016 7:30:00 PM 8.53 47.354 0.674 7.95 45 10.83
11/17/2016 7:45:00 PM 8.48 47.264 0.674 7.95 42.1 10.81
11/17/2016 8:00:00 PM 8.44 47.192 0.674 7.94 42.8 10.82
11/17/2016 8:15:00 PM 8.42 47.156 0.675 7.93 41.9 10.79
11/17/2016 8:30:00 PM 8.38 47.084 0.676 7.92 40.5 10.79
11/17/2016 8:45:00 PM 8.32 46.976 0.676 7.92 41.8 10.8
11/17/2016 9:00:00 PM 8.25 46.85 0.676 7.91 42.2 10.82
11/17/2016 9:15:00 PM 8.17 46.706 0.676 7.9 41.8 10.86
11/17/2016 9:30:00 PM 8.09 46.562 0.676 7.9 43.2 10.88
11/17/2016 9:45:00 PM 8.01 46.418 0.675 7.9 42.4 10.92
11/17/2016 10:00:00 PM 7.94 46.292 0.675 7.89 43.9 10.93
11/17/2016 10:15:00 PM 7.9 46.22 0.676 7.89 41.9 10.91
11/17/2016 10:30:00 PM 7.86 46.148 0.677 7.89 44.5 10.85
11/17/2016 10:45:00 PM 7.79 46.022 0.677 7.88 44.5 10.9
11/17/2016 11:00:00 PM 7.71 45.878 0.678 7.88 45.2 10.94
11/17/2016 11:15:00 PM 7.62 45.716 0.677 7.87 43.6 11
11/17/2016 11:30:00 PM 7.53 45.554 0.677 7.86 48.9 11.03
11/17/2016 11:45:00 PM 7.45 45.41 0.676 7.87 46.8 11.07
11/18/2016 12:00:00 AM 7.4 45.32 0.677 7.86 44.3 11.08
11/18/2016 12:15:00 AM 7.36 45.248 0.677 7.86 43.1 11.07
11/18/2016 12:30:00 AM 7.32 45.176 0.677 7.86 43.7 11.07
11/18/2016 12:45:00 AM 7.25 45.05 0.678 7.86 44.5 11.09
11/18/2016 1:00:00 AM 7.18 44.924 0.677 7.85 44.5 11.12
11/18/2016 1:15:00 AM 7.1 44.78 0.677 7.85 45.9 11.17
11/18/2016 1:30:00 AM 7.02 44.636 0.677 7.85 44.2 11.21
11/18/2016 1:45:00 AM 6.95 44.51 0.676 7.84 45.5 11.25
11/18/2016 2:00:00 AM 6.91 44.438 0.676 7.84 48.3 11.24
11/18/2016 2:15:00 AM 6.9 44.42 0.677 7.85 48.7 11.14
11/18/2016 2:30:00 AM 6.88 44.384 0.678 7.84 49.2 11.18
11/18/2016 2:45:00 AM 6.83 44.294 0.678 7.84 47 11.19
11/18/2016 3:00:00 AM 6.76 44.168 0.678 7.83 46.6 11.22
11/18/2016 3:15:00 AM 6.68 44.024 0.678 7.82 46 11.28
11/18/2016 3:30:00 AM 6.61 43.898 0.678 7.83 45.6 11.32
11/18/2016 3:45:00 AM 6.54 43.772 0.677 7.83 46.3 11.38
11/18/2016 4:00:00 AM 6.5 43.7 0.677 7.82 46.2 11.36
11/18/2016 4:15:00 AM 6.49 43.682 0.677 7.82 46.7 11.34
11/18/2016 4:30:00 AM 6.46 43.628 0.678 7.82 44.6 11.34
11/18/2016 4:45:00 AM 6.41 43.538 0.678 7.82 44.6 11.37
11/18/2016 5:00:00 AM 6.34 43.412 0.678 7.81 45.6 11.41
11/18/2016 5:15:00 AM 6.28 43.304 0.678 7.81 47.6 11.45
11/18/2016 5:30:00 AM 6.21 43.178 0.678 7.81 45.3 11.47
11/18/2016 5:45:00 AM 6.15 43.07 0.678 7.82 49.1 11.51
11/18/2016 6:00:00 AM 6.11 42.998 0.677 7.82 46.4 11.48
11/18/2016 6:15:00 AM 6.09 42.962 0.678 7.81 44.4 11.51
11/18/2016 6:30:00 AM 6.08 42.944 0.678 7.81 45.2 11.49
11/18/2016 6:45:00 AM 6.05 42.89 0.679 7.81 44.3 11.5
11/18/2016 7:00:00 AM 5.99 42.782 0.679 7.81 44.5 11.51
11/18/2016 7:15:00 AM 5.94 42.692 0.679 7.81 44 11.56
11/18/2016 7:30:00 AM 5.88 42.584 0.679 7.8 44.7 11.63
11/18/2016 7:45:00 AM 5.83 42.494 0.678 7.8 43.6 11.68
11/18/2016 8:00:00 AM 5.8 42.44 0.678 7.8 42.8 11.74
11/18/2016 8:15:00 AM 5.79 42.422 0.678 7.81 43.3 11.81
11/18/2016 8:30:00 AM 5.78 42.404 0.678 7.81 164.5 11.88
11/18/2016 8:45:00 AM 5.79 42.422 0.678 7.8 44.1 12.03
11/18/2016 9:00:00 AM 5.79 42.422 0.678 7.81 46 12.19
11/18/2016 9:15:00 AM 5.81 42.458 0.677 7.81 41.3 12.36
11/18/2016 9:30:00 AM 5.83 42.494 0.677 7.81 40.6 12.52
11/18/2016 9:45:00 AM 5.86 42.548 0.676 7.82 45.7 12.58
11/18/2016 10:00:00 AM 5.91 42.638 0.676 7.82 40.3 12.81
11/18/2016 10:15:00 AM 6 42.8 0.675 7.82 40.2 12.94
11/18/2016 10:30:00 AM 6.1 42.98 0.675 7.83 39.7 13.05
11/18/2016 10:45:00 AM 6.2 43.16 0.675 7.83 39.6 13.17
11/18/2016 11:00:00 AM 6.29 43.322 0.675 7.83 38.4 13.29
11/18/2016 11:15:00 AM 6.39 43.502 0.674 7.84 38.6 13.37
11/18/2016 11:30:00 AM 6.49 43.682 0.674 7.84 38.6 13.44
11/18/2016 11:45:00 AM 6.61 43.898 0.674 7.84 38.8 13.46
11/18/2016 12:00:00 PM 6.76 44.168 0.673 7.84 38.8 13.52
11/18/2016 12:15:00 PM 6.92 44.456 0.673 7.85 38.5 13.54
11/18/2016 12:30:00 PM 7.07 44.726 0.673 7.86 38.6 13.54
11/18/2016 12:45:00 PM 7.21 44.978 0.673 7.86 38.4 13.53
11/18/2016 1:00:00 PM 7.36 45.248 0.673 7.87 38.3 13.53
11/18/2016 1:15:00 PM 7.5 45.5 0.673 7.87 40.1 13.5
11/18/2016 1:30:00 PM 7.65 45.77 0.672 7.88 38.3 13.35
11/18/2016 1:45:00 PM 7.8 46.04 0.672 7.88 38 13.34
11/18/2016 2:00:00 PM 7.97 46.346 0.672 7.89 38.8 13.31
11/18/2016 2:15:00 PM 8.17 46.706 0.672 7.89 38.7 13.27
11/18/2016 2:30:00 PM 8.37 47.066 0.673 7.89 39.1 13.17
11/18/2016 2:45:00 PM 8.51 47.318 0.674 7.9 39.2 13.06
11/18/2016 3:00:00 PM 8.62 47.516 0.674 7.9 39.5 12.94
11/18/2016 3:15:00 PM 8.72 47.696 0.674 7.91 38.6 12.83
11/18/2016 3:30:00 PM 8.79 47.822 0.674 7.91 39.2 12.7
11/18/2016 3:45:00 PM 8.86 47.948 0.674 7.91 39.3 12.55
11/18/2016 4:00:00 PM 8.95 48.11 0.674 7.92 39.3 12.41
11/18/2016 4:15:00 PM 9.03 48.254 0.675 7.92 39.4 12.19
11/18/2016 4:30:00 PM 9.09 48.362 0.676 7.92 39.8 11.94
11/18/2016 4:45:00 PM 9.11 48.398 0.677 7.91 39.6 11.72
11/18/2016 5:00:00 PM 9.13 48.434 0.677 7.92 40.2 11.52
11/18/2016 5:15:00 PM 9.13 48.434 0.677 7.92 40.8 11.3
11/18/2016 5:30:00 PM 9.14 48.452 0.677 7.91 40.5 11.17
11/18/2016 5:45:00 PM 9.15 48.47 0.677 7.9 40.1 11.03
11/18/2016 6:00:00 PM 9.18 48.524 0.677 7.9 40.8 10.9
11/18/2016 6:15:00 PM 9.22 48.596 0.678 7.9 41.2 10.82
11/18/2016 6:30:00 PM 9.25 48.65 0.679 7.89 42.9 10.71
11/18/2016 6:45:00 PM 9.26 48.668 0.679 7.88 41.1 10.64
11/18/2016 7:00:00 PM 9.24 48.632 0.68 7.88 41.8 10.61
11/18/2016 7:15:00 PM 9.21 48.578 0.68 7.87 42.6 10.58
11/18/2016 7:30:00 PM 9.18 48.524 0.68 7.87 43.5 10.58
11/18/2016 7:45:00 PM 9.16 48.488 0.679 7.86 42.5 10.55
11/18/2016 8:00:00 PM 9.16 48.488 0.679 7.85 49.8 10.5
11/18/2016 8:15:00 PM 9.17 48.506 0.679 7.85 46.3 10.5
11/18/2016 8:30:00 PM 9.17 48.506 0.68 7.85 47.1 10.48
11/18/2016 8:45:00 PM 9.14 48.452 0.681 7.84 49.2 10.48
11/18/2016 9:00:00 PM 9.1 48.38 0.68 7.85 45 10.43
11/18/2016 9:15:00 PM 9.05 48.29 0.68 7.84 46 10.52
11/18/2016 9:30:00 PM 9 48.2 0.68 7.84 49.6 10.53
11/18/2016 9:45:00 PM 8.94 48.092 0.679 7.84 46.9 10.57
11/18/2016 10:00:00 PM 8.9 48.02 0.679 7.84 48.9 10.56
11/18/2016 10:15:00 PM 8.87 47.966 0.68 7.83 47.7 10.56
11/18/2016 10:30:00 PM 8.85 47.93 0.68 7.83 49.8 10.53
11/18/2016 10:45:00 PM 8.8 47.84 0.681 7.83 50.2 10.52
11/18/2016 11:00:00 PM 8.73 47.714 0.681 7.83 45.9 10.56
11/18/2016 11:15:00 PM 8.66 47.588 0.681 7.83 48.1 10.6
11/18/2016 11:30:00 PM 8.57 47.426 0.681 7.83 46.2 10.65
11/18/2016 11:45:00 PM 8.5 47.3 0.68 7.83 47 10.66
11/19/2016 12:00:00 AM 8.45 47.21 0.68 7.83 47.3 10.66
11/19/2016 12:15:00 AM 8.42 47.156 0.68 7.82 51.1 10.64
11/19/2016 12:30:00 AM 8.38 47.084 0.681 7.82 47.4 10.61
11/19/2016 12:45:00 AM 8.31 46.958 0.681 7.83 49.8 10.61
11/19/2016 1:00:00 AM 8.25 46.85 0.681 7.82 53.3 10.68
11/19/2016 1:15:00 AM 8.17 46.706 0.681 7.82 112.2 10.72
11/19/2016 1:30:00 AM 8.09 46.562 0.68 7.82 162.1 10.75
11/19/2016 1:45:00 AM 8.02 46.436 0.68 7.81 141.5 10.78
11/19/2016 2:00:00 AM 7.97 46.346 0.68 7.82 89.5 10.79
11/19/2016 2:15:00 AM 7.94 46.292 0.68 7.81 202.9 10.77
11/19/2016 2:30:00 AM 7.91 46.238 0.681 7.81 241.8 10.76
11/19/2016 2:45:00 AM 7.86 46.148 0.681 7.81 218.1 10.77
11/19/2016 3:00:00 AM 7.8 46.04 0.681 7.81 101.7 10.77
11/19/2016 3:15:00 AM 7.72 45.896 0.682 7.81 178.1 10.82
11/19/2016 3:30:00 AM 7.65 45.77 0.681 7.81 184.9 10.87
11/19/2016 3:45:00 AM 7.58 45.644 0.681 7.81 213.4 10.89
11/19/2016 4:00:00 AM 7.53 45.554 0.681 7.81 227.7 10.9
11/19/2016 4:15:00 AM 7.5 45.5 0.681 7.81 175.3 10.88
11/19/2016 4:30:00 AM 7.47 45.446 0.681 7.82 52.3 10.89
11/19/2016 4:45:00 AM 7.41 45.338 0.682 7.81 78.7 10.9
11/19/2016 5:00:00 AM 7.35 45.23 0.682 7.81 49.4 10.94
11/19/2016 5:15:00 AM 7.28 45.104 0.681 7.81 49.5 10.98
11/19/2016 5:30:00 AM 7.21 44.978 0.681 7.81 55.5 11.01
11/19/2016 5:45:00 AM 7.15 44.87 0.681 7.81 48.2 11.02
11/19/2016 6:00:00 AM 7.1 44.78 0.681 7.81 47.2 11.03
11/19/2016 6:15:00 AM 7.07 44.726 0.681 7.81 48.3 11.03
11/19/2016 6:30:00 AM 7.05 44.69 0.681 7.81 47.8 11.01
11/19/2016 6:45:00 AM 7.02 44.636 0.682 7.81 47.6 11.01
11/19/2016 7:00:00 AM 6.97 44.546 0.682 7.81 47.6 11.02
11/19/2016 7:15:00 AM 6.91 44.438 0.682 7.81 47.3 11.06
11/19/2016 7:30:00 AM 6.86 44.348 0.682 7.81 47.6 11.12
11/19/2016 7:45:00 AM 6.82 44.276 0.681 7.81 47 11.16
11/19/2016 8:00:00 AM 6.78 44.204 0.681 7.81 46.3 11.23
11/19/2016 8:15:00 AM 6.77 44.186 0.681 7.82 45.2 11.29
11/19/2016 8:30:00 AM 6.78 44.204 0.681 7.81 44.7 11.42
11/19/2016 8:45:00 AM 6.8 44.24 0.681 7.82 44.1 11.57
11/19/2016 9:00:00 AM 6.84 44.312 0.68 7.83 43.6 11.87
11/19/2016 9:15:00 AM 6.9 44.42 0.68 7.83 43.2 12.18
11/19/2016 9:30:00 AM 6.93 44.474 0.679 7.84 42.7 12.43
11/19/2016 9:45:00 AM 7 44.6 0.678 7.85 41.7 12.66
11/19/2016 10:00:00 AM 7.07 44.726 0.678 7.86 41.7 12.89
11/19/2016 10:15:00 AM 7.19 44.942 0.677 7.87 41.4 13.08
11/19/2016 10:30:00 AM 7.32 45.176 0.677 7.89 41.7 13.23
11/19/2016 10:45:00 AM 7.48 45.464 0.677 7.9 41.5 13.41
11/19/2016 11:00:00 AM 7.61 45.698 0.677 7.92 41.8 13.5
11/19/2016 11:15:00 AM 7.66 45.788 0.677 7.93 44.4 13.4
11/19/2016 11:30:00 AM 7.74 45.932 0.676 7.95 43 13.33
11/19/2016 11:45:00 AM 7.82 46.076 0.676 7.96 41.8 13.29
11/19/2016 12:00:00 PM 7.88 46.184 0.676 7.98 42.9 13.05
11/19/2016 12:15:00 PM 7.93 46.274 0.676 7.99 41.4 12.87
11/19/2016 12:30:00 PM 7.95 46.31 0.676 7.99 42 12.62
11/19/2016 12:45:00 PM 7.93 46.274 0.677 8 41.7 12.36
11/19/2016 1:00:00 PM 7.88 46.184 0.677 8 41 12.15
11/19/2016 1:15:00 PM 7.82 46.076 0.676 8 41.9 11.99
11/19/2016 1:30:00 PM 7.71 45.878 0.676 8.01 43.2 11.88
11/19/2016 1:45:00 PM 7.58 45.644 0.675 8 43.1 11.79
11/19/2016 2:00:00 PM 7.47 45.446 0.675 8 43.6 11.74
11/19/2016 2:15:00 PM 7.42 45.356 0.674 8 44.1 11.66
11/19/2016 2:30:00 PM 7.37 45.266 0.674 7.99 44.9 11.6
11/19/2016 2:45:00 PM 7.34 45.212 0.675 7.98 44.7 11.57
11/19/2016 3:00:00 PM 7.33 45.194 0.674 7.98 44.6 11.56
11/19/2016 3:15:00 PM 7.32 45.176 0.674 7.97 47.7 11.58
11/19/2016 3:30:00 PM 7.31 45.158 0.673 7.97 44.3 11.56
11/19/2016 3:45:00 PM 7.31 45.158 0.673 7.97 45 11.52
11/19/2016 4:00:00 PM 7.35 45.23 0.673 7.96 44.4 11.47
11/19/2016 4:15:00 PM 7.39 45.302 0.673 7.95 46.6 11.41
11/19/2016 4:30:00 PM 7.41 45.338 0.673 7.95 47.2 11.37
11/19/2016 4:45:00 PM 7.4 45.32 0.674 7.94 47.5 11.34
11/19/2016 5:00:00 PM 7.38 45.284 0.673 7.93 47.9 11.28
11/19/2016 5:15:00 PM 7.35 45.23 0.673 7.93 49.3 11.24
11/19/2016 5:30:00 PM 7.32 45.176 0.673 7.92 50.9 11.21
11/19/2016 5:45:00 PM 7.31 45.158 0.674 7.91 53.7 11.13
11/19/2016 6:00:00 PM 7.31 45.158 0.675 7.9 50.7 11.06
11/19/2016 6:15:00 PM 7.28 45.104 0.676 7.89 52.1 11
11/19/2016 6:30:00 PM 7.23 45.014 0.676 7.88 51.5 10.98
11/19/2016 6:45:00 PM 7.15 44.87 0.675 7.87 52.9 11
11/19/2016 7:00:00 PM 7.06 44.708 0.672 7.86 53.8 10.99
11/19/2016 7:15:00 PM 6.97 44.546 0.669 7.86 54.6 10.99
11/19/2016 7:30:00 PM 6.92 44.456 0.667 7.86 54.1 10.93
11/19/2016 7:45:00 PM 6.91 44.438 0.665 7.85 53.7 10.93
11/19/2016 8:00:00 PM 6.9 44.42 0.663 7.84 52.6 10.91
11/19/2016 8:15:00 PM 6.87 44.366 0.663 7.83 51.7 10.94
11/19/2016 8:30:00 PM 6.82 44.276 0.663 7.82 52.2 10.97
11/19/2016 8:45:00 PM 6.75 44.15 0.663 7.81 52 10.99
11/19/2016 9:00:00 PM 6.69 44.042 0.662 7.81 51 11.04
11/19/2016 9:15:00 PM 6.63 43.934 0.662 7.81 53.1 11.08
11/19/2016 9:30:00 PM 6.56 43.808 0.661 7.81 50.9 11.12
11/19/2016 9:45:00 PM 6.53 43.754 0.661 7.81 50.7 11.13
11/19/2016 10:00:00 PM 6.55 43.79 0.661 7.8 51.8 11.11
11/19/2016 10:15:00 PM 6.55 43.79 0.663 7.8 50.2 11.08
11/19/2016 10:30:00 PM 6.52 43.736 0.663 7.79 55.1 11.09
11/19/2016 10:45:00 PM 6.45 43.61 0.663 7.79 53.8 11.12
11/19/2016 11:00:00 PM 6.37 43.466 0.663 7.79 250.2 11.17
11/19/2016 11:15:00 PM 6.29 43.322 0.662 7.8 76.7 11.18
11/19/2016 11:30:00 PM 6.23 43.214 0.661 7.79 53.7 11.25
11/19/2016 11:45:00 PM 6.19 43.142 0.661 7.79 51.6 11.26
11/20/2016 12:00:00 AM 6.18 43.124 0.661 7.79 50.6 11.27
11/20/2016 12:15:00 AM 6.16 43.088 0.662 7.78 66.3 11.25
11/20/2016 12:30:00 AM 6.11 42.998 0.663 7.78 73.5 11.27
11/20/2016 12:45:00 AM 6.05 42.89 0.663 7.78 50.2 11.3
11/20/2016 1:00:00 AM 5.98 42.764 0.663 7.78 51.5 11.36
11/20/2016 1:15:00 AM 5.92 42.656 0.663 7.79 53.2 11.38
11/20/2016 1:30:00 AM 5.87 42.566 0.662 7.78 51.1 11.4
11/20/2016 1:45:00 AM 5.82 42.476 0.662 7.79 49.2 11.44
11/20/2016 2:00:00 AM 5.8 42.44 0.663 7.79 49.9 11.44
11/20/2016 2:15:00 AM 5.83 42.494 0.664 7.79 49.9 11.41
11/20/2016 2:30:00 AM 5.81 42.458 0.665 7.78 51.1 11.41
11/20/2016 2:45:00 AM 5.77 42.386 0.665 7.79 49.2 11.44
11/20/2016 3:00:00 AM 5.71 42.278 0.665 7.79 49.2 11.42
11/20/2016 3:15:00 AM 5.65 42.17 0.665 7.79 49.8 11.49
11/20/2016 3:30:00 AM 5.59 42.062 0.665 7.79 50 11.53
11/20/2016 3:45:00 AM 5.54 41.972 0.664 7.79 50 11.53
11/20/2016 4:15:00 AM 5.49 41.882 0.665 7.79 49.7 11.52
11/20/2016 4:30:00 AM 5.45 41.81 0.666 7.79 50.4 11.54
11/20/2016 4:45:00 AM 5.4 41.72 0.666 7.79 50.5 11.58
11/20/2016 5:00:00 AM 5.33 41.594 0.666 7.79 49.8 11.62
11/20/2016 5:15:00 AM 5.27 41.486 0.666 7.79 50.1 11.65
11/20/2016 5:30:00 AM 5.22 41.396 0.665 7.8 50.4 11.66
11/20/2016 5:45:00 AM 5.18 41.324 0.665 7.8 49.7 11.68
11/20/2016 6:00:00 AM 5.16 41.288 0.665 7.8 50.1 11.68
11/20/2016 6:15:00 AM 5.17 41.306 0.665 7.8 50.2 11.66
11/20/2016 6:30:00 AM 5.14 41.252 0.666 7.8 49.6 11.65
11/20/2016 6:45:00 AM 5.02 41.036 0.667 7.8 49.1 11.66
11/20/2016 7:00:00 AM 4.91 40.838 0.667 7.81 49.8 11.66
11/20/2016 7:15:00 AM 4.85 40.73 0.666 7.8 49.6 11.72
11/20/2016 7:30:00 AM 4.81 40.658 0.666 7.8 49.6 11.75
11/20/2016 7:45:00 AM 4.77 40.586 0.665 7.8 49.3 11.77
11/20/2016 8:00:00 AM 4.75 40.55 0.665 7.8 49.3 11.83
11/20/2016 8:15:00 AM 4.73 40.514 0.665 7.81 48.5 11.85
11/20/2016 8:30:00 AM 4.71 40.478 0.665 7.81 48.9 11.91
11/20/2016 8:45:00 AM 4.66 40.388 0.665 7.81 47.3 12.02
11/20/2016 9:00:00 AM 4.62 40.316 0.665 7.82 47.6 12.14
11/20/2016 9:15:00 AM 4.57 40.226 0.665 7.82 46.6 12.25
11/20/2016 9:30:00 AM 4.54 40.172 0.664 7.82 45.9 12.4
11/20/2016 9:45:00 AM 4.5 40.1 0.664 7.83 45.7 12.51
11/20/2016 10:00:00 AM 4.5 40.1 0.663 7.84 45.9 12.62
11/20/2016 10:15:00 AM 4.52 40.136 0.663 7.84 46.1 12.7
11/20/2016 10:30:00 AM 4.53 40.154 0.663 7.85 44.7 12.78
11/20/2016 10:45:00 AM 4.53 40.154 0.663 7.86 44.7 12.79
11/20/2016 11:00:00 AM 4.53 40.154 0.663 7.85 44.4 12.91
11/20/2016 11:15:00 AM 4.53 40.154 0.663 7.86 44.6 13.02
11/20/2016 11:30:00 AM 4.53 40.154 0.663 7.87 44 13.07
11/20/2016 11:45:00 AM 4.52 40.136 0.663 7.88 45 13.12
11/20/2016 12:00:00 PM 4.54 40.172 0.663 7.89 44.4 13.2
11/20/2016 12:15:00 PM 4.56 40.208 0.663 7.9 43.1 13.25
11/20/2016 12:30:00 PM 4.58 40.244 0.663 7.9 44.2 13.29
11/20/2016 12:45:00 PM 4.59 40.262 0.664 7.91 43.1 13.35
11/20/2016 1:00:00 PM 4.59 40.262 0.664 7.92 43.8 13.42
11/20/2016 1:15:00 PM 4.59 40.262 0.663 7.93 44.3 13.49
11/20/2016 1:30:00 PM 4.6 40.28 0.663 7.94 42.9 13.55
11/20/2016 1:45:00 PM 4.61 40.298 0.663 7.95 43.9 13.64
11/20/2016 2:00:00 PM 4.65 40.37 0.663 7.96 42.4 13.68
11/20/2016 2:15:00 PM 4.69 40.442 0.664 7.97 42.5 13.7
11/20/2016 2:30:00 PM 4.72 40.496 0.664 7.98 42.7 13.59
11/20/2016 2:45:00 PM 4.73 40.514 0.665 7.98 42 13.61
11/20/2016 3:00:00 PM 4.72 40.496 0.665 7.98 41.8 13.54
11/20/2016 3:15:00 PM 4.7 40.46 0.666 7.99 42.1 13.49
11/20/2016 3:30:00 PM 4.67 40.406 0.666 7.99 42 13.43
11/20/2016 3:45:00 PM 4.66 40.388 0.666 7.99 43.6 13.33
11/20/2016 4:00:00 PM 4.69 40.442 0.666 8 42.5 13.21
11/20/2016 4:15:00 PM 4.71 40.478 0.667 8 43.4 13.08
11/20/2016 4:30:00 PM 4.72 40.496 0.668 8 44 12.93
11/20/2016 4:45:00 PM 4.69 40.442 0.669 7.99 43.5 12.79
11/20/2016 5:00:00 PM 4.65 40.37 0.67 7.99 42.6 12.63
11/20/2016 5:15:00 PM 4.62 40.316 0.67 7.99 43 12.53
11/20/2016 5:30:00 PM 4.59 40.262 0.671 7.98 45.1 12.42
11/20/2016 5:45:00 PM 4.57 40.226 0.673 7.97 45 12.32
11/20/2016 6:00:00 PM 4.59 40.262 0.674 7.97 45.6 12.21
11/20/2016 6:15:00 PM 4.64 40.352 0.677 7.97 45.4 12.07
11/20/2016 6:30:00 PM 4.65 40.37 0.68 7.95 46 12.04
11/20/2016 6:45:00 PM 4.63 40.334 0.682 7.94 46.8 11.99
11/20/2016 7:00:00 PM 4.59 40.262 0.683 7.93 45.6 11.96
11/20/2016 7:15:00 PM 4.55 40.19 0.684 7.92 46.6 12
11/20/2016 7:30:00 PM 4.5 40.1 0.684 7.92 46.4 12
11/20/2016 7:45:00 PM 4.47 40.046 0.685 7.91 46.8 11.99
11/20/2016 8:00:00 PM 4.48 40.064 0.687 7.9 46.3 11.96
11/20/2016 8:15:00 PM 4.5 40.1 0.689 7.9 48.2 11.96
11/20/2016 8:30:00 PM 4.5 40.1 0.692 7.89 47.9 11.92
11/20/2016 8:45:00 PM 4.47 40.046 0.694 7.88 51.2 11.95
11/20/2016 9:00:00 PM 4.41 39.938 0.696 7.88 52.3 11.95
11/20/2016 9:15:00 PM 4.36 39.848 0.697 7.87 55.6 11.99
11/20/2016 9:30:00 PM 4.31 39.758 0.698 7.87 53 12.04
11/20/2016 9:45:00 PM 4.27 39.686 0.699 7.86 61.4 12.05
11/20/2016 10:00:00 PM 4.26 39.668 0.7 7.87 54.1 11.99
11/20/2016 10:15:00 PM 4.28 39.704 0.7 7.86 53.5 12.01
11/20/2016 10:30:00 PM 4.29 39.722 0.701 7.85 54.7 11.95
11/20/2016 10:45:00 PM 4.27 39.686 0.701 7.85 54.8 11.91
11/20/2016 11:00:00 PM 4.23 39.614 0.701 7.84 53.6 11.9
11/20/2016 11:15:00 PM 4.18 39.524 0.7 7.84 54.2 11.95
11/20/2016 11:30:00 PM 4.13 39.434 0.699 7.83 53.5 11.97
11/20/2016 11:45:00 PM 4.1 39.38 0.699 7.84 51.9 11.98
11/21/2016 12:00:00 AM 4.09 39.362 0.698 7.84 51.4 11.95
11/21/2016 12:15:00 AM 4.1 39.38 0.697 7.83 52.3 11.99
11/21/2016 12:30:00 AM 4.09 39.362 0.698 7.82 51.9 11.98
11/21/2016 12:45:00 AM 4.05 39.29 0.698 7.82 52.1 11.97
11/21/2016 1:00:00 AM 4.01 39.218 0.696 7.82 54.7 11.98
11/21/2016 1:15:00 AM 3.95 39.11 0.696 7.82 53.5 12.01
11/21/2016 1:30:00 AM 3.9 39.02 0.695 7.82 52.8 12.04
11/21/2016 1:45:00 AM 3.86 38.948 0.694 7.83 51.2 12.03
11/21/2016 2:00:00 AM 3.88 38.984 0.692 7.82 53.8 12.04
11/21/2016 2:15:00 AM 3.89 39.002 0.692 7.81 53.8 12.02
11/21/2016 2:30:00 AM 3.9 39.02 0.693 7.81 52.7 12.01
11/21/2016 2:45:00 AM 3.88 38.984 0.693 7.81 51.9 11.97
11/21/2016 3:00:00 AM 3.84 38.912 0.692 7.81 53.2 11.99
11/21/2016 3:15:00 AM 3.76 38.768 0.692 7.81 52.5 12.03
11/21/2016 3:30:00 AM 3.7 38.66 0.692 7.81 53.8 12.1
11/21/2016 3:45:00 AM 3.68 38.624 0.69 7.81 55.6 12.08
11/21/2016 4:00:00 AM 3.64 38.552 0.69 7.8 51.8 12.17
11/21/2016 4:15:00 AM 3.67 38.606 0.689 7.8 52.4 12.2
11/21/2016 4:30:00 AM 3.68 38.624 0.689 7.81 53.1 12.25
11/21/2016 4:45:00 AM 3.65 38.57 0.689 7.81 52.1 12.27
11/21/2016 5:00:00 AM 3.6 38.48 0.689 7.81 52.6 12.28
11/21/2016 5:15:00 AM 3.55 38.39 0.689 7.81 52.5 12.3
11/21/2016 5:30:00 AM 3.51 38.318 0.688 7.81 52.1 12.28
11/21/2016 5:45:00 AM 3.48 38.264 0.687 7.8 52 12.34
11/21/2016 6:00:00 AM 3.47 38.246 0.687 7.81 52 12.35
11/21/2016 6:15:00 AM 3.48 38.264 0.687 7.8 51.7 12.33
11/21/2016 6:30:00 AM 3.5 38.3 0.687 7.8 50.8 12.31
11/21/2016 6:45:00 AM 3.5 38.3 0.687 7.81 51.4 12.31
11/21/2016 7:00:00 AM 3.47 38.246 0.687 7.8 51.5 12.33
11/21/2016 7:15:00 AM 3.44 38.192 0.687 7.81 51.1 12.37
11/21/2016 7:30:00 AM 3.4 38.12 0.687 7.81 50.6 12.39
11/21/2016 7:45:00 AM 3.36 38.048 0.686 7.81 51 12.43
11/21/2016 8:00:00 AM 3.34 38.012 0.686 7.81 52.1 12.44
11/21/2016 8:15:00 AM 3.33 37.994 0.686 7.81 54.6 12.51
11/21/2016 8:30:00 AM 3.33 37.994 0.686 7.81 58.2 12.55
11/21/2016 8:45:00 AM 3.33 37.994 0.686 7.82 54.8 12.66
11/21/2016 9:00:00 AM 3.33 37.994 0.685 7.82 53 12.75
11/21/2016 9:15:00 AM 3.33 37.994 0.685 7.83 53.3 12.86
11/21/2016 9:30:00 AM 3.34 38.012 0.684 7.83 55.2 13.1
11/21/2016 9:45:00 AM 3.34 38.012 0.684 7.83 54.3 13.24
11/21/2016 10:00:00 AM 3.37 38.066 0.683 7.84 54.4 13.49
11/21/2016 10:15:00 AM 3.41 38.138 0.683 7.84 55.2 13.68
11/21/2016 10:30:00 AM 3.46 38.228 0.682 7.85 54.2 13.81
11/21/2016 10:45:00 AM 3.5 38.3 0.683 7.87 60.3 13.97
11/21/2016 11:00:00 AM 3.52 38.336 0.682 7.87 58.5 14.11
11/21/2016 11:15:00 AM 3.54 38.372 0.682 7.88 57 14.17
11/21/2016 11:30:00 AM 3.56 38.408 0.682 7.89 53.9 14.26
11/21/2016 11:45:00 AM 3.57 38.426 0.682 7.9 55.7 14.31
11/21/2016 12:00:00 PM 3.6 38.48 0.681 7.91 55.3 14.39
11/21/2016 12:15:00 PM 3.64 38.552 0.681 7.92 51.8 14.39
11/21/2016 12:30:00 PM 3.69 38.642 0.681 7.93 48.5 14.43
11/21/2016 12:45:00 PM 3.72 38.696 0.681 7.94 47 14.49
11/21/2016 1:00:00 PM 3.76 38.768 0.681 7.95 47.7 14.52
11/21/2016 1:15:00 PM 3.78 38.804 0.681 7.96 62.7 14.68
11/21/2016 1:30:00 PM 3.8 38.84 0.681 7.96 53 14.72
11/21/2016 1:45:00 PM 3.86 38.948 0.68 7.98 58.7 14.74
11/21/2016 2:00:00 PM 3.93 39.074 0.68 7.98 64.7 14.75
11/21/2016 2:15:00 PM 3.99 39.182 0.68 7.99 57.3 14.79
11/21/2016 2:30:00 PM 4.06 39.308 0.681 8 70.3 14.75
11/21/2016 2:45:00 PM 4.1 39.38 0.681 8.01 65.1 14.67
11/21/2016 3:00:00 PM 4.11 39.398 0.682 8.02 54.7 14.58
11/21/2016 3:15:00 PM 4.11 39.398 0.683 8.03 71.9 14.5
11/21/2016 3:30:00 PM 4.12 39.416 0.683 8.03 62.2 14.42
11/21/2016 3:45:00 PM 4.13 39.434 0.683 8.03 51.2 14.32
11/21/2016 4:00:00 PM 4.16 39.488 0.683 8.04 55.1 14.16
11/21/2016 4:15:00 PM 4.19 39.542 0.685 8.05 62.5 13.95
11/21/2016 4:30:00 PM 4.2 39.56 0.686 8.04 56.1 13.73
11/21/2016 4:45:00 PM 4.19 39.542 0.687 8.05 54.8 13.45
11/21/2016 5:00:00 PM 4.15 39.47 0.689 8.05 66.2 13.27
11/21/2016 5:15:00 PM 4.12 39.416 0.689 8.04 53.2 13.06
11/21/2016 5:30:00 PM 4.08 39.344 0.69 8.04 65.7 12.89
11/21/2016 5:45:00 PM 4.07 39.326 0.691 8.03 56.9 12.75
11/21/2016 6:00:00 PM 4.07 39.326 0.692 8.02 56.7 12.62
11/21/2016 6:15:00 PM 4.11 39.398 0.692 8.01 57 12.48
11/21/2016 6:30:00 PM 4.16 39.488 0.694 8 54.1 12.39
11/21/2016 6:45:00 PM 4.16 39.488 0.696 7.99 65.3 12.35
11/21/2016 7:00:00 PM 4.14 39.452 0.697 7.98 56.8 12.31
11/21/2016 7:15:00 PM 4.11 39.398 0.697 7.97 59.6 12.28
11/21/2016 7:30:00 PM 4.09 39.362 0.697 7.96 68.9 12.21
11/21/2016 7:45:00 PM 4.08 39.344 0.697 7.96 59.2 12.18
11/21/2016 8:00:00 PM 4.1 39.38 0.697 7.95 63.8 12.15
11/21/2016 8:15:00 PM 4.14 39.452 0.697 7.94 64.1 12.07
11/21/2016 8:30:00 PM 4.16 39.488 0.697 7.94 60.3 11.99
11/21/2016 8:45:00 PM 4.14 39.452 0.698 7.93 58.2 12.02
11/21/2016 9:00:00 PM 4.1 39.38 0.698 7.92 54 12.08
11/21/2016 9:15:00 PM 4.07 39.326 0.698 7.91 58.6 12.07
11/21/2016 9:30:00 PM 4.03 39.254 0.698 7.91 56 12.09
11/21/2016 9:45:00 PM 4 39.2 0.698 7.9 54 12.07
11/21/2016 10:00:00 PM 3.99 39.182 0.697 7.9 60.1 12.15
11/21/2016 10:15:00 PM 4 39.2 0.697 7.89 59.8 12.12
11/21/2016 10:30:00 PM 4.04 39.272 0.697 7.88 60.3 12.09
11/21/2016 10:45:00 PM 4.04 39.272 0.697 7.88 58.4 12.11
11/21/2016 11:00:00 PM 4.02 39.236 0.697 7.87 56.7 12.13
11/21/2016 11:15:00 PM 3.98 39.164 0.697 7.87 64.2 12.18
11/21/2016 11:30:00 PM 3.93 39.074 0.697 7.87 56.6 12.22
11/21/2016 11:45:00 PM 3.9 39.02 0.697 7.87 57.5 12.25
11/22/2016 12:00:00 AM 3.9 39.02 0.696 7.86 60.5 12.24
11/22/2016 12:15:00 AM 3.91 39.038 0.695 7.87 59.7 12.17
11/22/2016 12:30:00 AM 3.93 39.074 0.695 7.85 64.5 12.18
11/22/2016 12:45:00 AM 3.92 39.056 0.695 7.86 65.6 12.19
11/22/2016 1:00:00 AM 3.89 39.002 0.695 7.85 67.8 12.21
11/22/2016 1:15:00 AM 3.85 38.93 0.694 7.85 71.2 12.26
11/22/2016 1:30:00 AM 3.81 38.858 0.694 7.85 67.1 12.28
11/22/2016 1:45:00 AM 3.78 38.804 0.693 7.84 75.5 12.29
11/22/2016 2:00:00 AM 3.77 38.786 0.692 7.84 70.9 12.28
11/22/2016 2:15:00 AM 3.81 38.858 0.692 7.84 64.7 12.23
11/22/2016 2:30:00 AM 3.84 38.912 0.692 7.84 71.5 12.16
11/22/2016 2:45:00 AM 3.85 38.93 0.692 7.83 70.9 12.17
11/22/2016 3:00:00 AM 3.83 38.894 0.693 7.83 71.6 12.21
11/22/2016 3:15:00 AM 3.79 38.822 0.692 7.83 70 12.24
11/22/2016 3:30:00 AM 3.74 38.732 0.692 7.82 61.7 12.28
11/22/2016 3:45:00 AM 3.71 38.678 0.692 7.82 62.4 12.3
11/22/2016 4:00:00 AM 3.71 38.678 0.691 7.83 64.8 12.23
11/22/2016 4:15:00 AM 3.74 38.732 0.691 7.83 65.8 12.25
11/22/2016 4:30:00 AM 3.77 38.786 0.691 7.82 70 12.24
11/22/2016 4:45:00 AM 3.76 38.768 0.692 7.82 67.3 12.26
11/22/2016 5:00:00 AM 3.75 38.75 0.692 7.82 65.1 12.26
11/22/2016 5:15:00 AM 3.72 38.696 0.692 7.82 64 12.31
11/22/2016 5:30:00 AM 3.67 38.606 0.692 7.82 63.5 12.35
11/22/2016 5:45:00 AM 3.65 38.57 0.692 7.82 72 12.36
11/22/2016 6:00:00 AM 3.64 38.552 0.691 7.82 68.5 12.34
11/22/2016 6:15:00 AM 3.66 38.588 0.691 7.82 77.6 12.32
11/22/2016 6:30:00 AM 3.68 38.624 0.691 7.82 72 12.28
11/22/2016 6:45:00 AM 3.7 38.66 0.691 7.82 71.1 12.25
11/22/2016 7:00:00 AM 3.7 38.66 0.691 7.82 69.8 12.29
11/22/2016 7:15:00 AM 3.69 38.642 0.691 7.82 67.4 12.31
11/22/2016 7:30:00 AM 3.65 38.57 0.691 7.82 66.8 12.36
11/22/2016 7:45:00 AM 3.64 38.552 0.691 7.83 67.7 12.35
11/22/2016 8:00:00 AM 3.64 38.552 0.691 7.82 72.4 12.45
11/22/2016 8:15:00 AM 3.66 38.588 0.691 7.82 64.6 12.55
11/22/2016 8:30:00 AM 3.69 38.642 0.69 7.83 66.2 12.64
11/22/2016 8:45:00 AM 3.72 38.696 0.69 7.82 66 12.8
11/22/2016 9:00:00 AM 3.73 38.714 0.69 7.83 67.6 12.97
11/22/2016 9:15:00 AM 3.74 38.732 0.69 7.84 65.9 13.14
11/22/2016 9:30:00 AM 3.77 38.786 0.69 7.84 62.1 13.34
11/22/2016 9:45:00 AM 3.81 38.858 0.689 7.85 59.8 13.59
11/22/2016 10:00:00 AM 3.86 38.948 0.689 7.86 61.7 13.76
11/22/2016 10:15:00 AM 3.91 39.038 0.689 7.87 62 13.93
11/22/2016 10:30:00 AM 3.98 39.164 0.688 7.88 57.3 14.09
11/22/2016 10:45:00 AM 4.04 39.272 0.688 7.89 59.9 14.2
11/22/2016 11:00:00 AM 4.1 39.38 0.688 7.9 59 14.36
11/22/2016 11:15:00 AM 4.17 39.506 0.688 7.92 59.8 14.49
11/22/2016 11:30:00 AM 4.24 39.632 0.687 7.94 60.5 14.52
11/22/2016 11:45:00 AM 4.31 39.758 0.687 7.94 58 14.66
11/22/2016 12:00:00 PM 4.39 39.902 0.687 7.96 60.7 14.76
11/22/2016 12:15:00 PM 4.49 40.082 0.686 7.97 57.7 14.9
11/22/2016 12:30:00 PM 4.57 40.226 0.686 7.99 61.8 14.85
11/22/2016 12:45:00 PM 4.6 40.28 0.686 8.01 59 14.87
11/22/2016 1:00:00 PM 4.61 40.298 0.686 8.02 61.4 14.7
11/22/2016 1:15:00 PM 4.64 40.352 0.685 8.04 59.3 14.58
11/22/2016 1:30:00 PM 4.69 40.442 0.685 8.05 63.7 14.48
11/22/2016 1:45:00 PM 4.75 40.55 0.685 8.06 63 14.38
11/22/2016 2:00:00 PM 4.82 40.676 0.685 8.07 66 14.29
11/22/2016 2:15:00 PM 4.93 40.874 0.684 8.07 65.1 14.2
11/22/2016 2:30:00 PM 5.02 41.036 0.684 8.09 59.5 14.06
11/22/2016 2:45:00 PM 5.09 41.162 0.685 8.09 64.6 13.99
11/22/2016 3:00:00 PM 5.16 41.288 0.685 8.1 64.1 13.86
11/22/2016 3:15:00 PM 5.21 41.378 0.685 8.11 64.5 13.69
11/22/2016 3:30:00 PM 5.24 41.432 0.686 8.11 74.5 13.61
11/22/2016 3:45:00 PM 5.26 41.468 0.686 8.11 61.8 13.47
11/22/2016 4:00:00 PM 5.28 41.504 0.686 8.11 67.6 13.35
11/22/2016 4:15:00 PM 5.32 41.576 0.687 8.11 68.8 13.17
11/22/2016 4:30:00 PM 5.33 41.594 0.687 8.11 69.5 12.99
11/22/2016 4:45:00 PM 5.31 41.558 0.688 8.1 68 12.81
11/22/2016 5:00:00 PM 5.27 41.486 0.688 8.09 66.5 12.66
11/22/2016 5:15:00 PM 5.23 41.414 0.689 8.08 66.2 12.51
11/22/2016 5:30:00 PM 5.19 41.342 0.689 8.08 69.5 12.39
11/22/2016 5:45:00 PM 5.15 41.27 0.689 8.07 68.4 12.29
11/22/2016 6:00:00 PM 5.12 41.216 0.688 8.06 65.4 12.18
11/22/2016 6:15:00 PM 5.12 41.216 0.689 8.05 69.7 12.05
11/22/2016 6:30:00 PM 5.13 41.234 0.689 8.04 66.2 11.93
11/22/2016 6:45:00 PM 5.11 41.198 0.69 8.02 71.5 11.86
11/22/2016 7:00:00 PM 5.07 41.126 0.69 8.01 67.6 11.79
11/22/2016 7:15:00 PM 5.01 41.018 0.691 8 76.6 11.81
11/22/2016 7:30:00 PM 4.94 40.892 0.691 7.99 68.1 11.81
11/22/2016 7:45:00 PM 4.88 40.784 0.691 7.98 74.6 11.85
11/22/2016 8:00:00 PM 4.85 40.73 0.691 7.97 74.5 11.87
11/22/2016 8:15:00 PM 4.84 40.712 0.691 7.96 78.8 11.86
11/22/2016 8:30:00 PM 4.83 40.694 0.691 7.95 69.6 11.85
11/22/2016 8:45:00 PM 4.79 40.622 0.692 7.94 82.5 11.83
11/22/2016 9:00:00 PM 4.74 40.532 0.693 7.93 77.4 11.85
11/22/2016 9:15:00 PM 4.67 40.406 0.693 7.93 77.2 11.83
11/22/2016 9:30:00 PM 4.61 40.298 0.692 7.92 79.1 11.89
11/22/2016 9:45:00 PM 4.54 40.172 0.692 7.92 74.4 11.91
11/22/2016 10:00:00 PM 4.49 40.082 0.692 7.92 74.1 11.93
11/22/2016 10:15:00 PM 4.47 40.046 0.692 7.91 79.8 11.92
11/22/2016 10:30:00 PM 4.47 40.046 0.692 7.9 70.5 11.86
11/22/2016 10:45:00 PM 4.45 40.01 0.692 7.9 70.7 11.84
11/22/2016 11:00:00 PM 4.39 39.902 0.693 7.89 72.4 11.88
11/22/2016 11:15:00 PM 4.33 39.794 0.693 7.89 71.2 11.91
11/22/2016 11:30:00 PM 4.26 39.668 0.693 7.89 76.8 11.97
11/22/2016 11:45:00 PM 4.19 39.542 0.693 7.88 70.8 12.01
11/23/2016 12:00:00 AM 4.14 39.452 0.693 7.88 77.7 12.04
11/23/2016 12:15:00 AM 4.13 39.434 0.692 7.88 76.6 12.01
11/23/2016 12:30:00 AM 4.11 39.398 0.692 7.87 79.7 12.02
11/23/2016 12:45:00 AM 4.06 39.308 0.693 7.86 72.1 12.03
11/23/2016 1:00:00 AM 4 39.2 0.693 7.86 78.1 12.15
11/23/2016 1:15:00 AM 3.93 39.074 0.692 7.86 72.3 12.23
11/23/2016 1:30:00 AM 3.86 38.948 0.692 7.85 68.3 12.27
11/23/2016 1:45:00 AM 3.8 38.84 0.692 7.86 70.5 12.22
11/23/2016 2:00:00 AM 3.76 38.768 0.691 7.85 74.7 12.29
11/23/2016 2:15:00 AM 3.75 38.75 0.691 7.84 82.7 12.3
11/23/2016 2:30:00 AM 3.76 38.768 0.692 7.85 74.5 12.18
11/23/2016 2:45:00 AM 3.74 38.732 0.692 7.84 71.5 12.16
11/23/2016 3:00:00 AM 3.69 38.642 0.693 7.83 78.8 12.17
11/23/2016 3:15:00 AM 3.64 38.552 0.693 7.83 76.1 12.2
11/23/2016 3:30:00 AM 3.58 38.444 0.693 7.84 80.8 12.23
11/23/2016 3:45:00 AM 3.53 38.354 0.693 7.83 78.1 12.26
11/23/2016 4:00:00 AM 3.5 38.3 0.692 7.83 78.8 12.29
11/23/2016 4:15:00 AM 3.51 38.318 0.692 7.83 76.3 12.27
11/23/2016 4:30:00 AM 3.51 38.318 0.692 7.83 77.5 12.26
11/23/2016 4:45:00 AM 3.5 38.3 0.693 7.82 78.9 12.28
11/23/2016 5:00:00 AM 3.44 38.192 0.693 7.83 88.4 12.3
11/23/2016 5:15:00 AM 3.38 38.084 0.693 7.82 88.8 12.34
11/23/2016 5:30:00 AM 3.32 37.976 0.693 7.82 89.7 12.38
11/23/2016 5:45:00 AM 3.27 37.886 0.693 7.82 86.6 12.4
11/23/2016 6:00:00 AM 3.22 37.796 0.693 7.82 85.2 12.41
11/23/2016 6:15:00 AM 3.21 37.778 0.692 7.83 103.5 12.36
11/23/2016 6:30:00 AM 3.21 37.778 0.693 7.82 88.6 12.39
11/23/2016 6:45:00 AM 3.2 37.76 0.693 7.82 90.5 12.36
11/23/2016 7:00:00 AM 3.15 37.67 0.694 7.82 86.5 12.38
11/23/2016 7:15:00 AM 3.1 37.58 0.694 7.81 82.3 12.41
11/23/2016 7:30:00 AM 3.04 37.472 0.694 7.82 80.9 12.45
11/23/2016 7:45:00 AM 2.99 37.382 0.694 7.82 86.4 12.54
11/23/2016 8:00:00 AM 2.95 37.31 0.694 7.82 93.4 12.6
11/23/2016 8:15:00 AM 2.94 37.292 0.693 7.81 71 12.65
11/23/2016 8:30:00 AM 2.94 37.292 0.693 7.82 82.9 12.69
11/23/2016 8:45:00 AM 2.96 37.328 0.693 7.82 80.9 12.78
11/23/2016 9:00:00 AM 2.97 37.346 0.693 7.82 76.1 12.91
11/23/2016 9:15:00 AM 2.99 37.382 0.693 7.82 73.2 13.08
11/23/2016 9:30:00 AM 3.02 37.436 0.692 7.82 79.1 13.2
11/23/2016 9:45:00 AM 3.05 37.49 0.692 7.83 79.6 13.33
11/23/2016 10:00:00 AM 3.1 37.58 0.691 7.84 93.1 13.39
11/23/2016 10:15:00 AM 3.18 37.724 0.691 7.84 91.3 13.59
11/23/2016 10:30:00 AM 3.28 37.904 0.69 7.84 90.2 13.66
11/23/2016 10:45:00 AM 3.38 38.084 0.69 7.85 93.7 13.79
11/23/2016 11:00:00 AM 3.47 38.246 0.69 7.85 97 13.87
11/23/2016 11:15:00 AM 3.55 38.39 0.69 7.86 81.9 13.95
11/23/2016 11:30:00 AM 3.63 38.534 0.689 7.86 80.4 14.01
11/23/2016 11:45:00 AM 3.72 38.696 0.689 7.87 86.4 14.04
11/23/2016 12:00:00 PM 3.81 38.858 0.688 7.88 87.4 14.09
11/23/2016 12:15:00 PM 3.93 39.074 0.688 7.88 91.7 14.13
11/23/2016 12:30:00 PM 4.07 39.326 0.688 7.89 92.2 14.22
11/23/2016 12:45:00 PM 4.23 39.614 0.687 7.9 87.6 14.36
11/23/2016 1:00:00 PM 4.35 39.83 0.688 7.91 89.2 14.46
11/23/2016 1:15:00 PM 4.45 40.01 0.687 7.92 88.7 14.51
11/23/2016 1:30:00 PM 4.54 40.172 0.687 7.93 74 14.51
11/23/2016 1:45:00 PM 4.65 40.37 0.687 7.95 71.1 14.37
11/23/2016 2:00:00 PM 4.75 40.55 0.687 7.95 68.9 14.35
11/23/2016 2:15:00 PM 4.89 40.802 0.686 7.96 86.2 14.3
11/23/2016 2:30:00 PM 5.02 41.036 0.687 7.98 76.4 14.24
11/23/2016 2:45:00 PM 5.13 41.234 0.687 7.98 85.5 14.14
11/23/2016 3:00:00 PM 5.19 41.342 0.687 7.99 66.9 14.05
11/23/2016 3:15:00 PM 5.25 41.45 0.688 8 72.4 13.93
11/23/2016 3:30:00 PM 5.29 41.522 0.688 8.01 78.1 13.84
11/23/2016 3:45:00 PM 5.33 41.594 0.688 8.01 84.6 13.62
11/23/2016 4:00:00 PM 5.4 41.72 0.688 8.02 92.9 13.45
11/23/2016 4:15:00 PM 5.51 41.918 0.688 8.02 100.7 13.32
11/23/2016 4:30:00 PM 5.59 42.062 0.689 8.02 101.6 13.11
11/23/2016 4:45:00 PM 5.64 42.152 0.69 8.02 111.1 12.87
11/23/2016 5:00:00 PM 5.67 42.206 0.69 8.02 118.1 12.63
11/23/2016 5:15:00 PM 5.69 42.242 0.691 8.02 119.6 12.42
11/23/2016 5:30:00 PM 5.7 42.26 0.691 8.01 108.1 12.23
11/23/2016 5:45:00 PM 5.72 42.296 0.691 8.01 124.7 12.1
11/23/2016 6:00:00 PM 5.76 42.368 0.69 7.99 130.6 11.96
11/23/2016 6:15:00 PM 5.85 42.53 0.69 7.99 130.4 11.82
11/23/2016 6:30:00 PM 5.93 42.674 0.692 7.98 107.7 11.7
11/23/2016 6:45:00 PM 5.98 42.764 0.692 7.96 142.3 11.61
11/23/2016 7:00:00 PM 5.99 42.782 0.693 7.96 141.8 11.56
11/23/2016 7:15:00 PM 5.99 42.782 0.693 7.94 143.9 11.5
11/23/2016 7:30:00 PM 5.98 42.764 0.693 7.94 115.3 11.49
11/23/2016 7:45:00 PM 5.98 42.764 0.692 7.93 96.6 11.53
11/23/2016 8:00:00 PM 6 42.8 0.692 7.92 98.4 11.5
11/23/2016 8:15:00 PM 6.04 42.872 0.692 7.91 78 11.33
11/23/2016 8:30:00 PM 6.1 42.98 0.692 7.9 66.6 11.21
11/23/2016 8:45:00 PM 6.12 43.016 0.692 7.89 145 11.07
11/23/2016 9:00:00 PM 6.13 43.034 0.693 7.88 70.8 11.12
11/23/2016 9:15:00 PM 6.12 43.016 0.693 7.88 97.2 11.2
11/23/2016 9:30:00 PM 6.11 42.998 0.693 7.88 78.5 11.2
11/23/2016 9:45:00 PM 6.1 42.98 0.693 7.87 61.1 11.15
11/23/2016 10:00:00 PM 6.1 42.98 0.692 7.87 65 11.16
11/23/2016 10:15:00 PM 6.12 43.016 0.692 7.86 79.6 11.09
11/23/2016 10:30:00 PM 6.16 43.088 0.692 7.85 64.3 11.07
11/23/2016 10:45:00 PM 6.18 43.124 0.693 7.85 69.5 11.07
11/23/2016 11:00:00 PM 6.17 43.106 0.693 7.85 75.1 11.04
11/23/2016 11:15:00 PM 6.14 43.052 0.693 7.85 63.7 11.07
11/23/2016 11:30:00 PM 6.11 42.998 0.693 7.84 62.9 11.06
11/23/2016 11:45:00 PM 6.08 42.944 0.693 7.84 63.1 11.14
11/24/2016 12:00:00 AM 6.07 42.926 0.693 7.84 64.1 11.13
11/24/2016 12:15:00 AM 6.09 42.962 0.692 7.84 63.7 11.07
11/24/2016 12:30:00 AM 6.1 42.98 0.692 7.83 66.7 11.07
11/24/2016 12:45:00 AM 6.1 42.98 0.693 7.83 72.4 11.2
11/24/2016 1:00:00 AM 6.08 42.944 0.693 7.83 62.1 11.1
11/24/2016 1:15:00 AM 6.06 42.908 0.693 7.83 63.5 11.07
11/24/2016 1:30:00 AM 6.04 42.872 0.693 7.83 62.5 11.13
11/24/2016 1:45:00 AM 6.02 42.836 0.693 7.82 60.7 11.15
11/24/2016 2:00:00 AM 6.02 42.836 0.693 7.83 60.7 11.12
11/24/2016 2:15:00 AM 6.05 42.89 0.692 7.82 62.7 11.06
11/24/2016 2:30:00 AM 6.1 42.98 0.693 7.82 63.4 11.02
11/24/2016 2:45:00 AM 6.11 42.998 0.693 7.81 60.4 11.02
11/24/2016 3:00:00 AM 6.12 43.016 0.693 7.81 63.4 11.05
11/24/2016 3:15:00 AM 6.1 42.98 0.693 7.81 64 11.04
11/24/2016 3:30:00 AM 6.08 42.944 0.693 7.81 64.8 11.05
11/24/2016 3:45:00 AM 6.06 42.908 0.692 7.81 67.7 11.19
11/24/2016 4:00:00 AM 6.06 42.908 0.692 7.81 71.4 11.15
11/24/2016 4:15:00 AM 6.08 42.944 0.692 7.8 68.2 11.03
11/24/2016 4:30:00 AM 6.11 42.998 0.692 7.8 74 11.15
11/24/2016 4:45:00 AM 6.11 42.998 0.692 7.8 68.9 11.19
11/24/2016 5:00:00 AM 6.1 42.98 0.692 7.8 68.8 11.27
11/24/2016 5:15:00 AM 6.08 42.944 0.692 7.79 67.9 11.29
11/24/2016 5:30:00 AM 6.06 42.908 0.692 7.79 70.5 11.32
11/24/2016 5:45:00 AM 6.04 42.872 0.692 7.79 76.2 11.35
11/24/2016 6:00:00 AM 6.03 42.854 0.692 7.79 66.8 11.37
11/24/2016 6:15:00 AM 6.06 42.908 0.691 7.78 67.5 11.3
11/24/2016 6:30:00 AM 6.1 42.98 0.691 7.78 74.1 11.28
11/24/2016 6:45:00 AM 6.12 43.016 0.691 7.78 72.9 11.21
11/24/2016 7:00:00 AM 6.12 43.016 0.691 7.78 68 11.18
11/24/2016 7:15:00 AM 6.11 42.998 0.691 7.78 70.6 11.14
11/24/2016 7:30:00 AM 6.1 42.98 0.691 7.77 70.4 11.17
11/24/2016 7:45:00 AM 6.09 42.962 0.691 7.78 69.6 11.21
11/24/2016 8:00:00 AM 6.1 42.98 0.691 7.78 70.9 11.23
11/24/2016 8:15:00 AM 6.13 43.034 0.691 7.77 66.2 11.22
11/24/2016 8:30:00 AM 6.18 43.124 0.691 7.78 72 11.23
11/24/2016 8:45:00 AM 6.2 43.16 0.691 7.78 67.7 11.31
11/24/2016 9:00:00 AM 6.22 43.196 0.691 7.77 69.4 11.37
11/24/2016 9:15:00 AM 6.23 43.214 0.691 7.77 65.6 11.47
11/24/2016 9:30:00 AM 6.24 43.232 0.69 7.78 65.1 11.56
11/24/2016 9:45:00 AM 6.26 43.268 0.69 7.78 67.5 11.54
11/24/2016 10:00:00 AM 6.29 43.322 0.689 7.78 68.2 11.57
11/24/2016 10:15:00 AM 6.33 43.394 0.689 7.78 64.8 11.59
11/24/2016 10:30:00 AM 6.38 43.484 0.689 7.78 66.7 11.68
11/24/2016 10:45:00 AM 6.43 43.574 0.688 7.78 82.1 11.71
11/24/2016 11:00:00 AM 6.46 43.628 0.688 7.78 62.8 11.74
11/24/2016 11:15:00 AM 6.49 43.682 0.687 7.78 66.8 11.8
11/24/2016 11:30:00 AM 6.52 43.736 0.687 7.79 66.3 11.81
11/24/2016 11:45:00 AM 6.56 43.808 0.687 7.79 65 11.82
11/24/2016 12:00:00 PM 6.6 43.88 0.687 7.78 69.4 11.85
11/24/2016 12:15:00 PM 6.67 44.006 0.688 7.79 63 11.87
11/24/2016 12:30:00 PM 6.71 44.078 0.691 7.79 63.1 11.95
11/24/2016 12:45:00 PM 6.75 44.15 0.695 7.79 61.5 11.87
11/24/2016 1:00:00 PM 6.78 44.204 0.7 7.79 60.8 11.77
11/24/2016 1:15:00 PM 6.8 44.24 0.705 7.79 62.2 11.76
11/24/2016 1:30:00 PM 6.83 44.294 0.71 7.79 60.8 11.64
11/24/2016 1:45:00 PM 6.86 44.348 0.713 7.79 62.8 11.59
11/24/2016 2:00:00 PM 6.92 44.456 0.715 7.79 63.4 11.73
11/24/2016 2:15:00 PM 7 44.6 0.715 7.8 61.3 11.69
11/24/2016 2:30:00 PM 7.08 44.744 0.715 7.8 61 11.71
11/24/2016 2:45:00 PM 7.14 44.852 0.715 7.79 65.8 11.68
11/24/2016 3:00:00 PM 7.17 44.906 0.714 7.8 65.8 11.67
11/24/2016 3:15:00 PM 7.19 44.942 0.714 7.8 63.9 11.65
11/24/2016 3:30:00 PM 7.21 44.978 0.713 7.8 71.2 11.63
11/24/2016 3:45:00 PM 7.25 45.05 0.712 7.79 67.9 11.56
11/24/2016 4:00:00 PM 7.32 45.176 0.711 7.8 70.8 11.44
11/24/2016 4:15:00 PM 7.4 45.32 0.711 7.79 64.7 11.44
11/24/2016 4:30:00 PM 7.45 45.41 0.711 7.79 76.9 11.39
11/24/2016 4:45:00 PM 7.47 45.446 0.712 7.79 69.4 11.34
11/24/2016 5:00:00 PM 7.48 45.464 0.712 7.78 67.5 11.32
11/24/2016 5:15:00 PM 7.49 45.482 0.711 7.78 81.9 11.25
11/24/2016 5:30:00 PM 7.49 45.482 0.711 7.79 77.8 11.21
11/24/2016 5:45:00 PM 7.52 45.536 0.71 7.78 67.7 11.14
11/24/2016 6:00:00 PM 7.57 45.626 0.709 7.78 73.7 11.04
11/24/2016 6:15:00 PM 7.66 45.788 0.709 7.77 70 10.89
11/24/2016 6:30:00 PM 7.72 45.896 0.709 7.76 78.2 10.79
11/24/2016 6:45:00 PM 7.74 45.932 0.708 7.76 87.4 10.78
11/24/2016 7:00:00 PM 7.73 45.914 0.707 7.76 87.5 10.78
11/24/2016 7:15:00 PM 7.72 45.896 0.706 7.76 71.2 10.64
11/24/2016 7:30:00 PM 7.72 45.896 0.705 7.76 88.9 10.56
11/24/2016 7:45:00 PM 7.73 45.914 0.704 7.76 71.6 10.65
11/24/2016 8:00:00 PM 7.77 45.986 0.703 7.75 86.9 10.53
11/24/2016 8:15:00 PM 7.83 46.094 0.702 7.75 89.7 10.46
11/24/2016 8:30:00 PM 7.86 46.148 0.701 7.74 88.3 10.31
11/24/2016 8:45:00 PM 7.86 46.148 0.701 7.74 181.3 10.2
11/24/2016 9:00:00 PM 7.85 46.13 0.7 7.74 89.2 10.18
11/24/2016 9:15:00 PM 7.84 46.112 0.7 7.74 72.8 10.5
11/24/2016 9:30:00 PM 7.83 46.094 0.699 7.74 69.7 10.79
11/24/2016 9:45:00 PM 7.83 46.094 0.698 7.74 70.1 10.76
11/24/2016 10:00:00 PM 7.86 46.148 0.697 7.74 70.9 10.7
11/24/2016 10:15:00 PM 7.91 46.238 0.697 7.74 72.5 10.65
11/24/2016 10:30:00 PM 7.95 46.31 0.697 7.73 71.2 10.62
11/24/2016 10:45:00 PM 7.96 46.328 0.697 7.73 71.8 10.59
11/24/2016 11:00:00 PM 7.95 46.31 0.698 7.73 71 10.56
11/24/2016 11:15:00 PM 7.94 46.292 0.698 7.73 85.7 10.7
11/24/2016 11:30:00 PM 7.92 46.256 0.698 7.73 61.1 10.95
11/24/2016 11:45:00 PM 7.92 46.256 0.698 7.73 62 10.93
11/25/2016 12:00:00 AM 7.95 46.31 0.697 7.73 63.8 10.88
11/25/2016 12:15:00 AM 7.99 46.382 0.697 7.72 63.6 10.82
11/25/2016 12:30:00 AM 8 46.4 0.697 7.72 62.8 10.9
11/25/2016 12:45:00 AM 8 46.4 0.697 7.72 63.2 10.94
11/25/2016 1:00:00 AM 7.99 46.382 0.697 7.72 63.8 10.95
11/25/2016 1:15:00 AM 7.98 46.364 0.697 7.72 64.1 10.97
11/25/2016 1:30:00 AM 7.96 46.328 0.696 7.72 63.8 10.97
11/25/2016 1:45:00 AM 7.96 46.328 0.696 7.73 65.2 10.99
11/25/2016 2:00:00 AM 7.98 46.364 0.696 7.72 66.7 10.97
11/25/2016 2:15:00 AM 8.01 46.418 0.696 7.72 66 10.93
11/25/2016 2:30:00 AM 8.03 46.454 0.696 7.72 66.3 10.92
11/25/2016 2:45:00 AM 8.03 46.454 0.696 7.72 65.5 10.93
11/25/2016 3:00:00 AM 8.01 46.418 0.695 7.73 68.4 10.86
11/25/2016 3:15:00 AM 7.98 46.364 0.694 7.72 68.3 10.97
11/25/2016 3:30:00 AM 7.95 46.31 0.693 7.72 67.9 10.95
11/25/2016 3:45:00 AM 7.92 46.256 0.692 7.73 67.6 11
11/25/2016 4:00:00 AM 7.91 46.238 0.692 7.73 68.2 10.99
11/25/2016 4:15:00 AM 7.91 46.238 0.692 7.73 69.6 10.97
11/25/2016 4:30:00 AM 7.91 46.238 0.692 7.73 71.1 10.97
11/25/2016 4:45:00 AM 7.88 46.184 0.693 7.73 71.8 10.99
11/25/2016 5:00:00 AM 7.83 46.094 0.693 7.73 75.4 11.01
11/25/2016 5:15:00 AM 7.8 46.04 0.693 7.74 73.8 11.06
11/25/2016 5:30:00 AM 7.77 45.986 0.693 7.74 76.1 11.08
11/25/2016 5:45:00 AM 7.75 45.95 0.692 7.75 74.2 11.08
11/25/2016 6:00:00 AM 7.74 45.932 0.692 7.75 76.8 11.07
11/25/2016 6:15:00 AM 7.75 45.95 0.692 7.75 77.5 11.06
11/25/2016 6:30:00 AM 7.76 45.968 0.692 7.74 75.8 11.06
11/25/2016 6:45:00 AM 7.75 45.95 0.691 7.75 78.1 11.01
11/25/2016 7:00:00 AM 7.74 45.932 0.692 7.75 81.2 11.01
11/25/2016 7:15:00 AM 7.71 45.878 0.691 7.75 78.8 11.02
11/25/2016 7:30:00 AM 7.7 45.86 0.691 7.75 77.6 11.06
11/25/2016 7:45:00 AM 7.68 45.824 0.691 7.75 76.1 11.08
11/25/2016 8:00:00 AM 7.69 45.842 0.69 7.75 77.3 11.09
11/25/2016 8:15:00 AM 7.71 45.878 0.69 7.75 75.2 11.1
11/25/2016 8:30:00 AM 7.72 45.896 0.69 7.75 74.4 11.13
11/25/2016 8:45:00 AM 7.72 45.896 0.689 7.75 75.4 11.14
11/25/2016 9:00:00 AM 7.71 45.878 0.689 7.76 74.2 11.17
11/25/2016 9:15:00 AM 7.7 45.86 0.689 7.76 72.8 11.17
11/25/2016 9:30:00 AM 7.7 45.86 0.688 7.76 72.5 11.24
11/25/2016 9:45:00 AM 7.69 45.842 0.688 7.77 76.3 11.27
11/25/2016 10:00:00 AM 7.7 45.86 0.687 7.77 74.1 11.38
11/25/2016 10:15:00 AM 7.72 45.896 0.687 7.78 70.6 11.47
11/25/2016 10:30:00 AM 7.74 45.932 0.687 7.79 70.3 11.54
11/25/2016 10:45:00 AM 7.75 45.95 0.686 7.78 66.8 11.65
11/25/2016 11:00:00 AM 7.76 45.968 0.686 7.79 68.3 11.73
11/25/2016 11:15:00 AM 7.76 45.968 0.686 7.8 66.5 11.85
11/25/2016 11:30:00 AM 7.76 45.968 0.685 7.81 67.1 11.88
11/25/2016 11:45:00 AM 7.77 45.986 0.685 7.82 80.9 12.02
11/25/2016 12:00:00 PM 7.8 46.04 0.685 7.82 66.6 12.19
11/25/2016 12:15:00 PM 7.83 46.094 0.684 7.84 69.5 12.26
11/25/2016 12:30:00 PM 7.88 46.184 0.684 7.85 66.7 12.43
11/25/2016 12:45:00 PM 7.9 46.22 0.684 7.86 66.8 12.57
11/25/2016 1:00:00 PM 7.92 46.256 0.684 7.88 67 12.6
11/25/2016 1:15:00 PM 7.93 46.274 0.683 7.89 66.7 12.65
11/25/2016 1:30:00 PM 7.93 46.274 0.683 7.9 66.5 12.61
11/25/2016 1:45:00 PM 7.94 46.292 0.683 7.92 67.1 12.62
11/25/2016 2:00:00 PM 7.96 46.328 0.682 7.93 67.6 12.59
11/25/2016 2:15:00 PM 7.99 46.382 0.682 7.94 65.6 12.6
11/25/2016 2:30:00 PM 8.02 46.436 0.682 7.95 63.1 12.53
11/25/2016 2:45:00 PM 8.04 46.472 0.682 7.96 66 12.47
11/25/2016 3:00:00 PM 8.04 46.472 0.682 7.97 63.3 12.38
11/25/2016 3:15:00 PM 8.02 46.436 0.682 7.98 63.7 12.24
11/25/2016 3:30:00 PM 8 46.4 0.682 7.98 63.9 12.11
11/25/2016 3:45:00 PM 7.98 46.364 0.682 7.98 64.2 12.03
11/25/2016 4:00:00 PM 7.99 46.382 0.682 7.98 64.4 11.93
11/25/2016 4:15:00 PM 8.01 46.418 0.682 7.98 63.5 11.8
11/25/2016 4:30:00 PM 8.02 46.436 0.683 7.98 63.9 11.65
11/25/2016 4:45:00 PM 8 46.4 0.683 7.98 65.2 11.48
11/25/2016 5:00:00 PM 7.98 46.364 0.683 7.97 72.9 11.36
11/25/2016 5:15:00 PM 7.95 46.31 0.683 7.97 67.4 11.25
11/25/2016 5:30:00 PM 7.92 46.256 0.683 7.96 66 11.16
11/25/2016 5:45:00 PM 7.9 46.22 0.683 7.95 66.2 11.07
11/25/2016 6:00:00 PM 7.9 46.22 0.683 7.95 73.7 11.01
11/25/2016 6:15:00 PM 7.93 46.274 0.683 7.93 70 10.95
11/25/2016 6:30:00 PM 7.95 46.31 0.683 7.92 70.4 10.87
11/25/2016 6:45:00 PM 7.95 46.31 0.684 7.91 73.3 10.81
11/25/2016 7:00:00 PM 7.93 46.274 0.684 7.9 72.8 10.81
11/25/2016 7:15:00 PM 7.89 46.202 0.685 7.89 69.5 10.82
11/25/2016 7:30:00 PM 7.86 46.148 0.684 7.89 72.1 10.83
11/25/2016 7:45:00 PM 7.83 46.094 0.685 7.88 69.8 10.77
11/25/2016 8:00:00 PM 7.83 46.094 0.685 7.87 70.3 10.73
11/25/2016 8:15:00 PM 7.84 46.112 0.685 7.86 69.3 10.83
11/25/2016 8:30:00 PM 7.85 46.13 0.685 7.85 71 10.81
11/25/2016 8:45:00 PM 7.83 46.094 0.685 7.85 71.4 10.78
11/25/2016 9:00:00 PM 7.8 46.04 0.685 7.84 76 10.75
11/25/2016 9:15:00 PM 7.76 45.968 0.686 7.84 70.4 10.67
11/25/2016 9:30:00 PM 7.73 45.914 0.685 7.84 73.7 10.77
11/25/2016 9:45:00 PM 7.69 45.842 0.685 7.85 81.6 10.75
11/25/2016 10:00:00 PM 7.67 45.806 0.685 7.84 73 10.75
11/25/2016 10:15:00 PM 7.68 45.824 0.685 7.83 74.9 10.85
11/25/2016 10:30:00 PM 7.7 45.86 0.685 7.83 74.3 10.73
11/25/2016 10:45:00 PM 7.69 45.842 0.685 7.82 75.7 10.86
11/25/2016 11:00:00 PM 7.66 45.788 0.685 7.83 81.1 10.77
11/25/2016 11:15:00 PM 7.62 45.716 0.685 7.82 72.7 10.87
11/25/2016 11:30:00 PM 7.58 45.644 0.685 7.82 73.7 10.77
11/25/2016 11:45:00 PM 7.54 45.572 0.685 7.82 74.6 10.79
11/26/2016 12:00:00 AM 7.53 45.554 0.685 7.82 74.2 10.86
11/26/2016 12:15:00 AM 7.54 45.572 0.685 7.82 75.7 10.93
11/26/2016 12:30:00 AM 7.55 45.59 0.685 7.81 73.9 10.83
11/26/2016 12:45:00 AM 7.53 45.554 0.686 7.81 88 10.81
11/26/2016 1:00:00 AM 7.49 45.482 0.685 7.81 74.6 10.83
11/26/2016 1:15:00 AM 7.44 45.392 0.685 7.81 73.3 10.92
11/26/2016 1:30:00 AM 7.4 45.32 0.685 7.82 75.1 10.95
11/26/2016 1:45:00 AM 7.36 45.248 0.685 7.81 74 10.97
11/26/2016 2:00:00 AM 7.34 45.212 0.685 7.81 83.9 11.09
11/26/2016 2:15:00 AM 7.36 45.248 0.685 7.81 77.5 11.04
11/26/2016 2:30:00 AM 7.37 45.266 0.685 7.8 74.2 11.06
11/26/2016 2:45:00 AM 7.36 45.248 0.685 7.8 76.2 11.06
11/26/2016 3:00:00 AM 7.32 45.176 0.685 7.8 74.8 11.05
11/26/2016 3:15:00 AM 7.27 45.086 0.685 7.8 82.4 11.11
11/26/2016 3:30:00 AM 7.23 45.014 0.685 7.8 78.1 11.12
11/26/2016 3:45:00 AM 7.18 44.924 0.684 7.81 77.4 11.16
11/26/2016 4:00:00 AM 7.17 44.906 0.684 7.8 112.1 11.17
11/26/2016 4:15:00 AM 7.16 44.888 0.684 7.8 90.6 11.17
11/26/2016 4:30:00 AM 7.16 44.888 0.684 7.8 90.7 11.14
11/26/2016 4:45:00 AM 7.14 44.852 0.685 7.79 87.6 11.1
11/26/2016 5:00:00 AM 7.1 44.78 0.685 7.79 94.9 11.15
11/26/2016 5:15:00 AM 7.05 44.69 0.685 7.79 89.3 11.1
11/26/2016 5:30:00 AM 7.01 44.618 0.684 7.78 90.7 11.04
11/26/2016 5:45:00 AM 6.96 44.528 0.684 7.78 89.6 11.11
11/26/2016 6:00:00 AM 6.93 44.474 0.684 7.77 91.2 11.11
11/26/2016 6:15:00 AM 6.93 44.474 0.684 7.78 91.9 11.13
11/26/2016 6:30:00 AM 6.94 44.492 0.684 7.77 90 11.09
11/26/2016 6:45:00 AM 6.93 44.474 0.684 7.77 90.1 11.08
11/26/2016 7:00:00 AM 6.9 44.42 0.684 7.77 89.9 11.06
11/26/2016 7:15:00 AM 6.86 44.348 0.684 7.76 89.5 11.05
11/26/2016 7:30:00 AM 6.82 44.276 0.684 7.76 89.5 11.17
11/26/2016 7:45:00 AM 6.79 44.222 0.684 7.76 88.3 11.13
11/26/2016 8:00:00 AM 6.77 44.186 0.684 7.76 89.3 11.17
11/26/2016 8:15:00 AM 6.76 44.168 0.684 7.76 86.9 11.22
11/26/2016 8:30:00 AM 6.76 44.168 0.684 7.76 86.1 11.25
11/26/2016 8:45:00 AM 6.74 44.132 0.684 7.76 85.4 11.24
11/26/2016 9:00:00 AM 6.72 44.096 0.684 7.76 87.4 11.28
11/26/2016 9:15:00 AM 6.7 44.06 0.684 7.75 82.4 11.37
11/26/2016 9:30:00 AM 6.68 44.024 0.683 7.75 84.3 11.29
11/26/2016 9:45:00 AM 6.65 43.97 0.683 7.75 82.3 11.44
11/26/2016 10:00:00 AM 6.64 43.952 0.683 7.75 83.1 11.43
11/26/2016 10:15:00 AM 6.65 43.97 0.683 7.75 80 11.49
11/26/2016 10:30:00 AM 6.67 44.006 0.683 7.75 80.9 11.63
11/26/2016 10:45:00 AM 6.67 44.006 0.683 7.75 79.4 11.57
11/26/2016 11:00:00 AM 6.67 44.006 0.683 7.75 77 11.69
11/26/2016 11:15:00 AM 6.67 44.006 0.683 7.75 77.5 11.65
11/26/2016 11:30:00 AM 6.66 43.988 0.683 7.76 77.4 11.76
11/26/2016 11:45:00 AM 6.68 44.024 0.683 7.76 77 11.85
11/26/2016 12:00:00 PM 6.7 44.06 0.683 7.76 77.2 11.95
11/26/2016 12:15:00 PM 6.72 44.096 0.683 7.76 77.2 11.99
11/26/2016 12:30:00 PM 6.75 44.15 0.683 7.76 76.3 12.3
11/26/2016 12:45:00 PM 6.76 44.168 0.683 7.77 83.1 12.38
11/26/2016 1:00:00 PM 6.76 44.168 0.682 7.76 98.8 12.26
11/26/2016 1:15:00 PM 6.76 44.168 0.682 7.77 76.6 12.22
11/26/2016 1:30:00 PM 6.76 44.168 0.682 7.77 79.4 12.22
11/26/2016 1:45:00 PM 6.76 44.168 0.682 7.77 76.2 12.18
11/26/2016 2:00:00 PM 6.77 44.186 0.682 7.78 76.1 12.23
11/26/2016 2:15:00 PM 6.8 44.24 0.682 7.78 77.4 12.27
11/26/2016 2:30:00 PM 6.83 44.294 0.682 7.79 76.2 12.2
11/26/2016 2:45:00 PM 6.85 44.33 0.682 7.78 76.4 12.13
11/26/2016 3:00:00 PM 6.85 44.33 0.682 7.79 77.1 11.99
11/26/2016 3:15:00 PM 6.84 44.312 0.682 7.79 77.4 11.96
11/26/2016 3:30:00 PM 6.82 44.276 0.682 7.79 77 11.87
11/26/2016 3:45:00 PM 6.82 44.276 0.682 7.8 77 11.86
11/26/2016 4:00:00 PM 6.83 44.294 0.682 7.8 78.6 11.75
11/26/2016 4:15:00 PM 6.87 44.366 0.682 7.8 78.7 11.67
11/26/2016 4:30:00 PM 6.89 44.402 0.682 7.81 81.3 11.63
11/26/2016 4:45:00 PM 6.88 44.384 0.683 7.8 88.3 11.37
11/26/2016 5:00:00 PM 6.85 44.33 0.683 7.8 80.6 11.19
11/26/2016 5:15:00 PM 6.82 44.276 0.683 7.8 79 11.13
11/26/2016 5:30:00 PM 6.79 44.222 0.683 7.8 84.3 11.12
11/26/2016 5:45:00 PM 6.76 44.168 0.683 7.8 80.2 11.13
11/26/2016 6:00:00 PM 6.76 44.168 0.683 7.8 81.8 11.1
11/26/2016 6:15:00 PM 6.81 44.258 0.683 7.79 82.2 11.03
11/26/2016 6:30:00 PM 6.83 44.294 0.684 7.79 83.4 10.92
11/26/2016 6:45:00 PM 6.83 44.294 0.684 7.79 84.5 10.89
11/26/2016 7:00:00 PM 6.8 44.24 0.685 7.79 81.9 10.83
11/26/2016 7:15:00 PM 6.76 44.168 0.685 7.79 82.3 10.82
11/26/2016 7:30:00 PM 6.72 44.096 0.685 7.79 82.7 10.86
11/26/2016 7:45:00 PM 6.7 44.06 0.685 7.79 83 10.85
11/26/2016 8:00:00 PM 6.7 44.06 0.685 7.79 83.5 10.79
11/26/2016 8:15:00 PM 6.73 44.114 0.685 7.79 88.4 10.73
11/26/2016 8:30:00 PM 6.74 44.132 0.686 7.78 85.3 10.76
11/26/2016 8:45:00 PM 6.72 44.096 0.686 7.77 86.4 10.76
11/26/2016 9:00:00 PM 6.68 44.024 0.686 7.77 86 10.77
11/26/2016 9:15:00 PM 6.64 43.952 0.686 7.77 86.8 10.74
11/26/2016 9:30:00 PM 6.61 43.898 0.686 7.77 85.3 10.72
11/26/2016 9:45:00 PM 6.57 43.826 0.686 7.77 96.9 10.91
11/26/2016 10:00:00 PM 6.57 43.826 0.685 7.77 87.7 11.16
11/26/2016 10:15:00 PM 6.6 43.88 0.685 7.77 88.5 11.14
11/26/2016 10:30:00 PM 6.62 43.916 0.686 7.76 93.8 11.11
11/26/2016 10:45:00 PM 6.61 43.898 0.686 7.76 89.9 11.11
11/26/2016 11:00:00 PM 6.58 43.844 0.686 7.76 103.9 11.09
11/26/2016 11:15:00 PM 6.53 43.754 0.686 7.76 95.3 11.17
11/26/2016 11:30:00 PM 6.49 43.682 0.686 7.77 90.5 11.19
11/26/2016 11:45:00 PM 6.46 43.628 0.686 7.77 91.7 11.21
11/27/2016 12:00:00 AM 6.45 43.61 0.685 7.77 99.7 11.17
11/27/2016 12:15:00 AM 6.47 43.646 0.686 7.77 92.2 11.27
11/27/2016 12:30:00 AM 6.46 43.628 0.686 7.76 91.4 11.29
11/27/2016 12:45:00 AM 6.44 43.592 0.686 7.76 90.1 11.31
11/27/2016 1:00:00 AM 6.39 43.502 0.686 7.76 89.5 11.31
11/27/2016 1:15:00 AM 6.35 43.43 0.686 7.76 91.2 11.26
11/27/2016 1:30:00 AM 6.29 43.322 0.686 7.77 91.3 11.3
11/27/2016 1:45:00 AM 6.26 43.268 0.686 7.76 94.5 11.33
11/27/2016 2:00:00 AM 6.26 43.268 0.685 7.76 92.8 11.3
11/27/2016 2:15:00 AM 6.28 43.304 0.685 7.76 93.9 11.31
11/27/2016 2:30:00 AM 6.31 43.358 0.685 7.76 94.8 11.28
11/27/2016 2:45:00 AM 6.31 43.358 0.685 7.76 154 11.21
11/27/2016 3:00:00 AM 6.29 43.322 0.686 7.76 112.5 11.16
11/27/2016 3:15:00 AM 6.25 43.25 0.686 7.76 93.5 11.15
11/27/2016 3:30:00 AM 6.22 43.196 0.686 7.76 94.6 11.22
11/27/2016 3:45:00 AM 6.19 43.142 0.685 7.77 98.8 11.22
11/27/2016 4:15:00 AM 6.21 43.178 0.685 7.76 103.1 11.3
11/27/2016 4:30:00 AM 6.22 43.196 0.686 7.76 97.3 11.25
11/27/2016 4:45:00 AM 6.21 43.178 0.686 7.75 98.2 11.23
11/27/2016 5:00:00 AM 6.18 43.124 0.686 7.76 101.2 11.23
11/27/2016 5:15:00 AM 6.14 43.052 0.686 7.76 104.4 11.3
11/27/2016 5:30:00 AM 6.11 42.998 0.686 7.76 102 11.34
11/27/2016 5:45:00 AM 6.08 42.944 0.686 7.76 106.4 11.35
11/27/2016 6:00:00 AM 6.06 42.908 0.685 7.76 99 11.34
11/27/2016 6:15:00 AM 6.07 42.926 0.685 7.76 97.7 11.33
11/27/2016 6:30:00 AM 6.09 42.962 0.685 7.76 97.3 11.3
11/27/2016 6:45:00 AM 6.09 42.962 0.685 7.76 99.6 11.26
11/27/2016 7:00:00 AM 6.07 42.926 0.686 7.76 100.8 11.32
11/27/2016 7:15:00 AM 6.03 42.854 0.686 7.76 97.2 11.29
11/27/2016 7:30:00 AM 5.98 42.764 0.686 7.76 97.3 11.33
11/27/2016 7:45:00 AM 5.93 42.674 0.686 7.77 101.1 11.4
11/27/2016 8:00:00 AM 5.9 42.62 0.685 7.77 97.2 11.49
11/27/2016 8:15:00 AM 5.88 42.584 0.685 7.77 97.8 11.58
11/27/2016 8:30:00 AM 5.88 42.584 0.685 7.77 95.3 11.63
11/27/2016 8:45:00 AM 5.87 42.566 0.685 7.77 98.5 11.79
11/27/2016 9:00:00 AM 5.85 42.53 0.685 7.78 99.3 11.83
11/27/2016 9:15:00 AM 5.84 42.512 0.685 7.78 97.9 11.97
11/27/2016 9:30:00 AM 5.83 42.494 0.685 7.78 100.4 12.16
11/27/2016 9:45:00 AM 5.83 42.494 0.685 7.79 94.6 12.25
11/27/2016 10:00:00 AM 5.83 42.494 0.685 7.79 98.7 12.42
11/27/2016 10:15:00 AM 5.85 42.53 0.684 7.8 105 12.44
11/27/2016 10:30:00 AM 5.89 42.602 0.684 7.81 94.3 12.7
11/27/2016 10:45:00 AM 5.98 42.764 0.684 7.81 94.1 12.86
11/27/2016 11:00:00 AM 6.03 42.854 0.684 7.82 173 13.02
11/27/2016 11:15:00 AM 6.08 42.944 0.683 7.82 91.1 13.13
11/27/2016 11:30:00 AM 6.12 43.016 0.683 7.84 91 13.17
11/27/2016 11:45:00 AM 6.16 43.088 0.683 7.84 92.1 13.35
11/27/2016 12:00:00 PM 6.22 43.196 0.683 7.85 92.3 13.32
11/27/2016 12:15:00 PM 6.31 43.358 0.682 7.85 92.8 13.42
11/27/2016 12:30:00 PM 6.4 43.52 0.682 7.86 99.2 13.52
11/27/2016 12:45:00 PM 6.48 43.664 0.682 7.86 88.7 13.51
11/27/2016 1:00:00 PM 6.54 43.772 0.682 7.88 99.7 13.58
11/27/2016 1:15:00 PM 6.58 43.844 0.682 7.89 89.7 13.51
11/27/2016 1:30:00 PM 6.64 43.952 0.681 7.89 89.2 13.44
11/27/2016 1:45:00 PM 6.71 44.078 0.681 7.9 89.6 13.6
11/27/2016 2:00:00 PM 6.78 44.204 0.681 7.91 89.4 13.64
11/27/2016 2:15:00 PM 6.83 44.294 0.681 7.92 90.3 13.65
11/27/2016 2:30:00 PM 6.91 44.438 0.681 7.92 90.7 13.5
11/27/2016 2:45:00 PM 6.97 44.546 0.681 7.93 89.5 13.42
11/27/2016 3:00:00 PM 6.98 44.564 0.682 7.93 144.8 13.28
11/27/2016 3:15:00 PM 6.96 44.528 0.681 7.94 97.8 13.04
11/27/2016 3:30:00 PM 6.94 44.492 0.681 7.95 90.8 12.86
11/27/2016 3:45:00 PM 6.92 44.456 0.681 7.95 106.2 12.68
11/27/2016 4:00:00 PM 6.93 44.474 0.681 7.95 91.5 12.61
11/27/2016 4:15:00 PM 6.96 44.528 0.681 7.95 90.8 12.44
11/27/2016 4:30:00 PM 6.97 44.546 0.682 7.95 91.8 12.32
11/27/2016 4:45:00 PM 6.95 44.51 0.682 7.96 91.8 12.1
11/27/2016 5:00:00 PM 6.91 44.438 0.682 7.96 93.1 11.92
11/27/2016 5:15:00 PM 6.85 44.33 0.682 7.96 91.3 11.73
11/27/2016 5:30:00 PM 6.79 44.222 0.682 7.95 91.5 11.64
11/27/2016 5:45:00 PM 6.74 44.132 0.682 7.95 92.2 11.56
11/27/2016 6:00:00 PM 6.71 44.078 0.682 7.94 105.2 11.5
11/27/2016 6:15:00 PM 6.71 44.078 0.682 7.94 101.7 11.43
11/27/2016 6:30:00 PM 6.72 44.096 0.683 7.93 96.7 11.32
11/27/2016 6:45:00 PM 6.69 44.042 0.683 7.93 97.9 11.25
11/27/2016 7:00:00 PM 6.63 43.934 0.684 7.93 99 11.22
11/27/2016 7:15:00 PM 6.57 43.826 0.684 7.92 96.6 11.25
11/27/2016 7:30:00 PM 6.5 43.7 0.684 7.92 100.9 11.28
11/27/2016 7:45:00 PM 6.45 43.61 0.684 7.91 97.7 11.28
11/27/2016 8:00:00 PM 6.42 43.556 0.684 7.9 128.3 11.27
11/27/2016 8:15:00 PM 6.41 43.538 0.684 7.89 100 11.22
11/27/2016 8:30:00 PM 6.4 43.52 0.685 7.89 95.6 11.21
11/27/2016 8:45:00 PM 6.35 43.43 0.685 7.88 95.1 11.16
11/27/2016 9:00:00 PM 6.29 43.322 0.685 7.88 145.1 11.16
11/27/2016 9:15:00 PM 6.21 43.178 0.685 7.87 97.8 11.18
11/27/2016 9:30:00 PM 6.13 43.034 0.685 7.87 245.2 11.22
11/27/2016 9:45:00 PM 6.07 42.926 0.685 7.87 150.2 11.28
11/27/2016 10:00:00 PM 6.01 42.818 0.685 7.86 101.3 11.29
11/27/2016 10:15:00 PM 6 42.8 0.685 7.86 125.5 11.3
11/27/2016 10:30:00 PM 5.99 42.782 0.686 7.85 98.5 11.26
11/27/2016 10:45:00 PM 5.95 42.71 0.686 7.85 122.2 11.23
11/27/2016 11:00:00 PM 5.89 42.602 0.686 7.84 105.5 10.89
11/27/2016 11:15:00 PM 5.81 42.458 0.686 7.84 103.7 10.86
11/27/2016 11:30:00 PM 5.72 42.296 0.686 7.84 149.4 10.92
11/27/2016 11:45:00 PM 5.65 42.17 0.686 7.83 114 10.85
11/28/2016 12:00:00 AM 5.61 42.098 0.686 7.83 112.6 10.97
11/28/2016 12:15:00 AM 5.59 42.062 0.686 7.83 123.5 11.11
11/28/2016 12:30:00 AM 5.57 42.026 0.687 7.82 130.9 11.13
11/28/2016 12:45:00 AM 5.52 41.936 0.687 7.82 108.9 11.02
11/28/2016 1:00:00 AM 5.45 41.81 0.687 7.82 174.8 10.91
11/28/2016 1:15:00 AM 5.37 41.666 0.687 7.82 110.2 10.95
11/28/2016 1:30:00 AM 5.3 41.54 0.687 7.82 105.4 11.02
11/28/2016 1:45:00 AM 5.23 41.414 0.687 7.81 103.8 11.18
11/28/2016 2:00:00 AM 5.18 41.324 0.687 7.82 105.9 11.09
11/28/2016 2:15:00 AM 5.16 41.288 0.686 7.81 110.2 11.22
11/28/2016 2:30:00 AM 5.15 41.27 0.687 7.82 115.3 11.13
11/28/2016 2:45:00 AM 5.11 41.198 0.687 7.81 134.4 11.07
11/28/2016 3:00:00 AM 5.04 41.072 0.687 7.8 106 11.1
11/28/2016 3:15:00 AM 4.96 40.928 0.687 7.81 111.6 11.06
11/28/2016 3:30:00 AM 4.88 40.784 0.687 7.8 166.5 11.15
11/28/2016 3:45:00 AM 4.8 40.64 0.687 7.81 117 11.04
11/28/2016 4:00:00 AM 4.73 40.514 0.687 7.8 168.7 11.17
11/28/2016 4:15:00 AM 4.71 40.478 0.687 7.81 105.6 11.22
11/28/2016 4:30:00 AM 4.68 40.424 0.687 7.81 105.6 11.25
11/28/2016 4:45:00 AM 4.63 40.334 0.687 7.8 159.2 11.24
11/28/2016 5:00:00 AM 4.56 40.208 0.688 7.8 109.6 11.34
11/28/2016 5:15:00 AM 4.49 40.082 0.688 7.8 110.3 11.41
11/28/2016 5:30:00 AM 4.41 39.938 0.688 7.8 122.9 11.48
11/28/2016 5:45:00 AM 4.33 39.794 0.688 7.8 108 11.39
11/28/2016 6:00:00 AM 4.27 39.686 0.688 7.8 108.6 11.45
11/28/2016 6:15:00 AM 4.24 39.632 0.687 7.81 124.4 11.49
11/28/2016 6:30:00 AM 4.23 39.614 0.687 7.8 138.4 11.45
11/28/2016 6:45:00 AM 4.2 39.56 0.687 7.8 121.6 11.5
11/28/2016 7:00:00 AM 4.15 39.47 0.688 7.79 156.3 11.42
11/28/2016 7:15:00 AM 4.1 39.38 0.688 7.8 147.7 11.54
11/28/2016 7:30:00 AM 4.04 39.272 0.688 7.8 121 11.56
11/28/2016 7:45:00 AM 4.01 39.218 0.688 7.8 121.2 11.58
11/28/2016 8:00:00 AM 3.99 39.182 0.688 7.8 119.2 11.65
11/28/2016 8:15:00 AM 3.99 39.182 0.687 7.8 118.2 11.77
11/28/2016 8:30:00 AM 4.02 39.236 0.687 7.8 151 11.66
11/28/2016 8:45:00 AM 4.03 39.254 0.688 7.8 120.1 11.66
11/28/2016 9:00:00 AM 4.05 39.29 0.687 7.8 114.6 11.84
11/28/2016 9:15:00 AM 4.07 39.326 0.687 7.8 140.9 11.93
11/28/2016 9:30:00 AM 4.09 39.362 0.687 7.8 109.7 12.09
11/28/2016 9:45:00 AM 4.12 39.416 0.687 7.8 143.6 12.26
11/28/2016 10:00:00 AM 4.16 39.488 0.687 7.82 174.2 12.45
11/28/2016 10:15:00 AM 4.24 39.632 0.686 7.81 108.3 12.99
11/28/2016 10:30:00 AM 4.35 39.83 0.686 7.82 120.3 13.11
11/28/2016 10:45:00 AM 4.43 39.974 0.686 7.82 155.6 13.32
11/28/2016 11:00:00 AM 4.51 40.118 0.686 7.83 120.8 13.36
11/28/2016 11:15:00 AM 4.59 40.262 0.686 7.84 148.8 13.39
11/28/2016 11:30:00 AM 4.68 40.424 0.685 7.84 224.1 13.47
11/28/2016 11:45:00 AM 4.77 40.586 0.685 7.84 118.4 13.46
11/28/2016 12:00:00 PM 4.87 40.766 0.685 7.85 108.7 13.59
11/28/2016 12:15:00 PM 5.02 41.036 0.684 7.85 112.5 13.69
11/28/2016 12:30:00 PM 5.16 41.288 0.684 7.86 110.8 13.71
11/28/2016 12:45:00 PM 5.28 41.504 0.684 7.86 197.3 13.6
11/28/2016 1:00:00 PM 5.37 41.666 0.684 7.87 109.7 13.71
11/28/2016 1:15:00 PM 5.45 41.81 0.684 7.88 162.8 13.64
11/28/2016 1:30:00 PM 5.55 41.99 0.684 7.89 181.2 13.53
11/28/2016 1:45:00 PM 5.63 42.134 0.684 7.9 120.8 13.42
11/28/2016 2:00:00 PM 5.7 42.26 0.683 7.9 113 13.2
11/28/2016 2:15:00 PM 5.81 42.458 0.683 7.91 133.5 13.1
11/28/2016 2:30:00 PM 5.91 42.638 0.683 7.91 277.8 13.04
11/28/2016 2:45:00 PM 5.98 42.764 0.683 7.92 187.7 13.01
11/28/2016 3:00:00 PM 6.03 42.854 0.683 7.92 146 12.9
11/28/2016 3:15:00 PM 6.06 42.908 0.684 7.93 137.9 12.75
11/28/2016 3:30:00 PM 6.08 42.944 0.684 7.93 113.1 12.61
11/28/2016 3:45:00 PM 6.1 42.98 0.684 7.93 116.2 12.4
11/28/2016 4:00:00 PM 6.13 43.034 0.684 7.94 116 12.18
11/28/2016 4:15:00 PM 6.2 43.16 0.684 7.94 120.7 12.12
11/28/2016 4:30:00 PM 6.27 43.286 0.684 7.94 112.1 11.96
11/28/2016 4:45:00 PM 6.31 43.358 0.684 7.94 129.2 11.73
11/28/2016 5:00:00 PM 6.33 43.394 0.685 7.93 116 11.62
11/28/2016 5:15:00 PM 6.34 43.412 0.685 7.93 127.5 11.42
11/28/2016 5:30:00 PM 6.35 43.43 0.685 7.94 117.3 11.39
11/28/2016 5:45:00 PM 6.36 43.448 0.685 7.93 113 11.35
11/28/2016 6:00:00 PM 6.38 43.484 0.685 7.92 125.7 11.16
11/28/2016 6:15:00 PM 6.43 43.574 0.685 7.92 115.7 11.04
11/28/2016 6:30:00 PM 6.5 43.7 0.685 7.91 113.9 10.94
11/28/2016 6:45:00 PM 6.54 43.772 0.686 7.9 129.5 10.83
11/28/2016 7:00:00 PM 6.54 43.772 0.686 7.9 127.9 10.74
11/28/2016 7:15:00 PM 6.54 43.772 0.686 7.89 138 10.71
11/28/2016 7:30:00 PM 6.52 43.736 0.687 7.89 185.5 10.76
11/28/2016 7:45:00 PM 6.5 43.7 0.687 7.89 137 10.86
11/28/2016 8:00:00 PM 6.49 43.682 0.687 7.88 116.4 10.7
11/28/2016 8:15:00 PM 6.52 43.736 0.687 7.88 115.6 10.79
11/28/2016 8:30:00 PM 6.55 43.79 0.687 7.87 119.5 10.77
11/28/2016 8:45:00 PM 6.57 43.826 0.687 7.87 118.3 10.8
11/28/2016 9:00:00 PM 6.56 43.808 0.687 7.86 124.7 10.67
11/28/2016 9:15:00 PM 6.55 43.79 0.687 7.87 121.7 10.85
11/28/2016 9:30:00 PM 6.54 43.772 0.688 7.86 127.1 10.91
11/28/2016 9:45:00 PM 6.53 43.754 0.687 7.86 118.8 10.85
11/28/2016 10:00:00 PM 6.53 43.754 0.687 7.85 192.4 10.74
11/28/2016 10:15:00 PM 6.56 43.808 0.687 7.85 185.5 10.73
11/28/2016 10:30:00 PM 6.6 43.88 0.687 7.85 128.6 10.66
11/28/2016 10:45:00 PM 6.63 43.934 0.687 7.85 172.6 10.74
11/28/2016 11:00:00 PM 6.64 43.952 0.688 7.84 125.5 10.76
11/28/2016 11:15:00 PM 6.64 43.952 0.688 7.84 124 10.72
11/28/2016 11:30:00 PM 6.62 43.916 0.688 7.84 125.2 10.81
11/28/2016 11:45:00 PM 6.62 43.916 0.688 7.84 163.7 10.68
11/29/2016 12:00:00 AM 6.63 43.934 0.688 7.84 126.7 10.69
11/29/2016 12:15:00 AM 6.67 44.006 0.688 7.83 125.7 10.65
11/29/2016 12:30:00 AM 6.71 44.078 0.688 7.83 124.3 10.7
11/29/2016 12:45:00 AM 6.73 44.114 0.688 7.82 162.6 10.62
11/29/2016 1:00:00 AM 6.73 44.114 0.688 7.83 176.1 10.69
11/29/2016 1:15:00 AM 6.72 44.096 0.688 7.83 127.1 10.78
11/29/2016 1:30:00 AM 6.7 44.06 0.688 7.83 126.2 10.72
11/29/2016 1:45:00 AM 6.69 44.042 0.688 7.82 125.4 10.83
11/29/2016 2:00:00 AM 6.69 44.042 0.687 7.82 138.4 10.99
11/29/2016 2:15:00 AM 6.73 44.114 0.687 7.82 129.8 10.77
11/29/2016 2:30:00 AM 6.78 44.204 0.687 7.82 134.5 10.77
11/29/2016 2:45:00 AM 6.81 44.258 0.687 7.82 130.6 10.87
11/29/2016 3:00:00 AM 6.81 44.258 0.687 7.81 179.5 10.87
11/29/2016 3:15:00 AM 6.8 44.24 0.687 7.82 176.9 10.83
11/29/2016 3:30:00 AM 6.79 44.222 0.687 7.81 133.6 10.91
11/29/2016 3:45:00 AM 6.78 44.204 0.686 7.81 238.7 10.92
11/29/2016 4:00:00 AM 6.8 44.24 0.686 7.81 229.3 10.92
11/29/2016 4:15:00 AM 6.85 44.33 0.686 7.81 135.5 10.83
11/29/2016 4:30:00 AM 6.89 44.402 0.686 7.8 143.1 10.79
11/29/2016 4:45:00 AM 6.92 44.456 0.686 7.81 136.3 10.74
11/29/2016 5:00:00 AM 6.92 44.456 0.686 7.81 136.1 10.6
11/29/2016 5:15:00 AM 6.92 44.456 0.685 7.81 232.5 10.67
11/29/2016 5:30:00 AM 6.93 44.474 0.685 7.81 162.5 10.67
11/29/2016 5:45:00 AM 6.94 44.492 0.685 7.81 233.9 10.66
11/29/2016 6:00:00 AM 6.97 44.546 0.685 7.8 141.6 10.63
11/29/2016 6:15:00 AM 7.03 44.654 0.685 7.8 147 10.41
11/29/2016 6:30:00 AM 7.08 44.744 0.685 7.8 144.6 10.43
11/29/2016 6:45:00 AM 7.11 44.798 0.685 7.8 147.4 10.55
11/29/2016 7:00:00 AM 7.12 44.816 0.685 7.8 226.6 10.71
11/29/2016 7:15:00 AM 7.13 44.834 0.685 7.8 235.4 10.7
11/29/2016 7:30:00 AM 7.14 44.852 0.685 7.8 177.3 10.61
11/29/2016 7:45:00 AM 7.16 44.888 0.685 7.79 150.4 10.71
11/29/2016 8:00:00 AM 7.2 44.96 0.685 7.79 209.1 10.59
11/29/2016 8:15:00 AM 7.25 45.05 0.686 7.79 146.8 10.57
11/29/2016 8:30:00 AM 7.29 45.122 0.688 7.79 140.8 10.62
11/29/2016 8:45:00 AM 7.33 45.194 0.689 7.79 141.1 10.58
11/29/2016 9:00:00 AM 7.36 45.248 0.691 7.79 146 10.66
11/29/2016 9:15:00 AM 7.39 45.302 0.693 7.79 148.3 10.65
11/29/2016 9:30:00 AM 7.42 45.356 0.694 7.79 338.7 10.79
11/29/2016 9:45:00 AM 7.46 45.428 0.696 7.79 153.6 10.9
11/29/2016 10:00:00 AM 7.52 45.536 0.697 7.79 152.7 11.1
11/29/2016 10:15:00 AM 7.6 45.68 0.698 7.8 161.7 11.05
11/29/2016 10:30:00 AM 7.69 45.842 0.698 7.8 236.7 11.23
11/29/2016 10:45:00 AM 7.76 45.968 0.699 7.8 134.8 11.24
11/29/2016 11:00:00 AM 7.81 46.058 0.699 7.81 132 11.41
11/29/2016 11:15:00 AM 7.86 46.148 0.699 7.81 131.2 11.56
11/29/2016 11:30:00 AM 7.91 46.238 0.698 7.81 130.6 11.64
11/29/2016 11:45:00 AM 7.97 46.346 0.698 7.82 128.9 11.69
11/29/2016 12:00:00 PM 8.05 46.49 0.697 7.82 138.3 11.79
11/29/2016 12:15:00 PM 8.13 46.634 0.697 7.83 156 11.8
11/29/2016 12:30:00 PM 8.2 46.76 0.696 7.84 133.8 11.77
11/29/2016 12:45:00 PM 8.27 46.886 0.696 7.84 135.2 11.89
11/29/2016 1:00:00 PM 8.32 46.976 0.695 7.85 133.9 11.94
11/29/2016 1:15:00 PM 8.38 47.084 0.695 7.86 132.4 12
11/29/2016 1:30:00 PM 8.45 47.21 0.694 7.86 163.5 11.98
11/29/2016 1:45:00 PM 8.52 47.336 0.693 7.87 131.4 11.99
11/29/2016 2:00:00 PM 8.6 47.48 0.693 7.87 130.8 12.07
11/29/2016 2:15:00 PM 8.7 47.66 0.692 7.88 131.7 12.08
11/29/2016 2:30:00 PM 8.79 47.822 0.692 7.89 131.4 12.11
11/29/2016 2:45:00 PM 8.86 47.948 0.691 7.89 138.5 11.93
11/29/2016 3:00:00 PM 8.9 48.02 0.691 7.89 138.8 11.86
11/29/2016 3:15:00 PM 8.91 48.038 0.69 7.9 132.9 11.77
11/29/2016 3:30:00 PM 8.93 48.074 0.689 7.91 130.6 11.66
11/29/2016 3:45:00 PM 8.98 48.164 0.689 7.91 131.6 11.59
11/29/2016 4:00:00 PM 9.03 48.254 0.688 7.91 161.4 11.49
11/29/2016 4:15:00 PM 9.08 48.344 0.688 7.91 136.1 11.4
11/29/2016 4:30:00 PM 9.1 48.38 0.688 7.91 140.9 11.25
11/29/2016 4:45:00 PM 9.08 48.344 0.687 7.91 186.7 11.07
11/29/2016 5:00:00 PM 9.05 48.29 0.687 7.91 134.3 10.91
11/29/2016 5:15:00 PM 9.02 48.236 0.687 7.91 136.6 10.75
11/29/2016 5:30:00 PM 8.99 48.182 0.687 7.9 160.6 10.65
11/29/2016 5:45:00 PM 8.98 48.164 0.686 7.9 219.5 10.56
11/29/2016 6:00:00 PM 8.98 48.164 0.686 7.9 143.5 10.54
11/29/2016 6:15:00 PM 9 48.2 0.686 7.89 191.9 10.38
11/29/2016 6:30:00 PM 9 48.2 0.686 7.88 179.8 10.3
11/29/2016 6:45:00 PM 8.97 48.146 0.686 7.87 139.4 10.21
11/29/2016 7:00:00 PM 8.93 48.074 0.686 7.87 139 9.99
11/29/2016 7:15:00 PM 8.88 47.984 0.686 7.87 440.1 10.14
11/29/2016 7:30:00 PM 8.82 47.876 0.686 7.86 252.7 10.08
11/29/2016 7:45:00 PM 8.78 47.804 0.685 7.86 158.2 10.02
11/29/2016 8:00:00 PM 8.76 47.768 0.685 7.85 147.5 10.16
11/29/2016 8:15:00 PM 8.74 47.732 0.685 7.84 221.6 10.02
11/29/2016 8:30:00 PM 8.72 47.696 0.685 7.84 231.6 10.01
11/29/2016 8:45:00 PM 8.67 47.606 0.685 7.83 225.6 10.02
11/29/2016 9:00:00 PM 8.6 47.48 0.685 7.82 223.1 9.98
11/29/2016 9:15:00 PM 8.53 47.354 0.685 7.82 156.5 10.06
11/29/2016 9:30:00 PM 8.46 47.228 0.685 7.81 171.3 10.01
11/29/2016 9:45:00 PM 8.4 47.12 0.684 7.81 140.3 10.08
11/29/2016 10:00:00 PM 8.34 47.012 0.684 7.81 127.2 10.11
11/29/2016 10:15:00 PM 8.31 46.958 0.684 7.81 130.1 10.01
11/29/2016 10:30:00 PM 8.28 46.904 0.684 7.8 221 10.03
11/29/2016 10:45:00 PM 8.22 46.796 0.684 7.79 157.6 9.99
11/29/2016 11:00:00 PM 8.15 46.67 0.684 7.79 197.9 10.1
11/29/2016 11:15:00 PM 8.07 46.526 0.684 7.79 197.8 10.15
11/29/2016 11:30:00 PM 8 46.4 0.683 7.79 128.2 10.27
11/29/2016 11:45:00 PM 7.93 46.274 0.683 7.79 128.3 10.2
11/30/2016 12:00:00 AM 7.9 46.22 0.683 7.78 208.4 10.28
11/30/2016 12:15:00 AM 7.89 46.202 0.682 7.78 127.5 10.16
11/30/2016 12:30:00 AM 7.87 46.166 0.682 7.77 130.1 10.1
11/30/2016 12:45:00 AM 7.82 46.076 0.682 7.77 128.8 10.19
11/30/2016 1:00:00 AM 7.77 45.986 0.682 7.77 131.3 10.11
11/30/2016 1:15:00 AM 7.72 45.896 0.682 7.77 251.5 10.3
11/30/2016 1:30:00 AM 7.67 45.806 0.681 7.77 166.2 10.4
11/30/2016 1:45:00 AM 7.64 45.752 0.681 7.77 133.9 10.34
11/30/2016 2:00:00 AM 7.62 45.716 0.681 7.76 134.4 10.37
11/30/2016 2:15:00 AM 7.63 45.734 0.68 7.76 201.7 10.32
11/30/2016 2:30:00 AM 7.64 45.752 0.681 7.76 136 10.63
11/30/2016 2:45:00 AM 7.63 45.734 0.681 7.76 152.6 10.65
11/30/2016 3:00:00 AM 7.59 45.662 0.681 7.75 458.4 10.68
11/30/2016 3:15:00 AM 7.53 45.554 0.681 7.76 153.7 10.65
11/30/2016 3:30:00 AM 7.48 45.464 0.681 7.75 170.3 10.83
11/30/2016 3:45:00 AM 7.44 45.392 0.681 7.75 133.3 10.86
11/30/2016 4:00:00 AM 7.42 45.356 0.681 7.75 134 10.75
11/30/2016 4:15:00 AM 7.43 45.374 0.681 7.75 151.7 10.66
11/30/2016 4:30:00 AM 7.43 45.374 0.681 7.74 142.9 10.61
11/30/2016 4:45:00 AM 7.41 45.338 0.681 7.74 193.6 10.64
11/30/2016 5:00:00 AM 7.39 45.302 0.681 7.74 148.6 10.65
11/30/2016 5:15:00 AM 7.36 45.248 0.681 7.74 143.7 10.59
11/30/2016 5:30:00 AM 7.33 45.194 0.681 7.73 147 10.7
11/30/2016 5:45:00 AM 7.31 45.158 0.68 7.73 155.7 10.64
11/30/2016 6:00:00 AM 7.31 45.158 0.68 7.74 159.3 10.69
11/30/2016 6:15:00 AM 7.33 45.194 0.68 7.74 191.8 10.58
11/30/2016 6:30:00 AM 7.35 45.23 0.68 7.74 149.3 10.71
11/30/2016 6:45:00 AM 7.37 45.266 0.68 7.73 144.2 10.66
11/30/2016 7:00:00 AM 7.36 45.248 0.68 7.74 187.9 10.54
11/30/2016 7:15:00 AM 7.34 45.212 0.68 7.73 174.1 10.35
11/30/2016 7:30:00 AM 7.33 45.194 0.679 7.73 234 10.38
11/30/2016 7:45:00 AM 7.32 45.176 0.679 7.74 338.6 10.34
11/30/2016 8:00:00 AM 7.33 45.194 0.678 7.73 175.7 10.38
11/30/2016 8:15:00 AM 7.36 45.248 0.678 7.74 391.3 10.31
11/30/2016 8:30:00 AM 7.38 45.284 0.677 7.73 187.8 10.29
11/30/2016 8:45:00 AM 7.4 45.32 0.677 7.73 198.6 10.32
11/30/2016 9:00:00 AM 7.42 45.356 0.676 7.73 192.1 10.4
11/30/2016 9:15:00 AM 7.43 45.374 0.676 7.74 177.2 10.52
11/30/2016 9:30:00 AM 7.44 45.392 0.675 7.74 179.1 10.52
11/30/2016 9:45:00 AM 7.47 45.446 0.674 7.74 178 10.62
11/30/2016 10:00:00 AM 7.51 45.518 0.673 7.74 178.8 10.51
11/30/2016 10:15:00 AM 7.57 45.626 0.673 7.75 183.4 10.49
11/30/2016 10:30:00 AM 7.61 45.698 0.673 7.75 193.3 10.41
11/30/2016 10:45:00 AM 7.64 45.752 0.672 7.76 173.6 10.48
11/30/2016 11:00:00 AM 7.68 45.824 0.671 7.75 169.6 10.33
11/30/2016 11:15:00 AM 7.74 45.932 0.67 7.75 265.2 10.39
11/30/2016 11:30:00 AM 7.8 46.04 0.669 7.75 193.9 10.47
11/30/2016 11:45:00 AM 7.89 46.202 0.667 7.75 171.9 10.5
11/30/2016 12:00:00 PM 7.98 46.364 0.666 7.75 196.4 10.49
11/30/2016 12:15:00 PM 8.06 46.508 0.664 7.75 197.4 10.51
11/30/2016 12:30:00 PM 8.13 46.634 0.663 7.75 177.5 10.58
11/30/2016 12:45:00 PM 8.19 46.742 0.659 7.75 175.4 10.69
11/30/2016 1:00:00 PM 8.24 46.832 0.654 7.76 192.8 10.99
11/30/2016 1:15:00 PM 8.32 46.976 0.651 7.76 196.1 10.82
11/30/2016 1:30:00 PM 8.46 47.228 0.649 7.75 218 10.78
11/30/2016 1:45:00 PM 8.56 47.408 0.649 7.76 252.3 10.7
11/30/2016 2:00:00 PM 8.61 47.498 0.649 7.75 228.8 10.72
11/30/2016 2:15:00 PM 8.64 47.552 0.648 7.75 264.4 10.76
11/30/2016 2:30:00 PM 8.69 47.642 0.647 7.75 264.2 10.59
11/30/2016 2:45:00 PM 8.76 47.768 0.646 7.74 257 10.56
11/30/2016 3:00:00 PM 8.87 47.966 0.644 7.73 275.7 10.45
11/30/2016 3:15:00 PM 8.94 48.092 0.642 7.73 278.9 10.13
11/30/2016 3:30:00 PM 8.94 48.092 0.639 7.73 278.5 10.06
11/30/2016 3:45:00 PM 8.93 48.074 0.637 7.72 287.5 10.49
11/30/2016 4:00:00 PM 8.93 48.074 0.636 7.72 306 10.44
11/30/2016 4:15:00 PM 8.95 48.11 0.635 7.71 310.9 10.23
11/30/2016 4:30:00 PM 8.98 48.164 0.633 7.7 367.2 10.12
11/30/2016 4:45:00 PM 9.09 48.362 0.628 7.69 401.3 10.21
11/30/2016 5:00:00 PM 9.18 48.524 0.627 7.68 415.3 10.03
11/30/2016 5:15:00 PM 9.17 48.506 0.625 7.66 411.1 9.8
11/30/2016 5:30:00 PM 9.12 48.416 0.622 7.65 437.1 9.81
11/30/2016 5:45:00 PM 9.07 48.326 0.62 7.65 493.4 8.36
11/30/2016 6:00:00 PM 9.04 48.272 0.618 7.65 569.8 8.37
11/30/2016 6:15:00 PM 9.03 48.254 0.615 7.65 507.4 8.58
11/30/2016 6:30:00 PM 9.05 48.29 0.612 7.64 544.7 8.93
11/30/2016 6:45:00 PM 9.12 48.416 0.61 7.63 561.3 8.8
11/30/2016 7:00:00 PM 9.14 48.452 0.608 7.62 570.7 8.44
11/30/2016 7:15:00 PM 9.11 48.398 0.605 7.61 594 8.57
11/30/2016 7:30:00 PM 9.06 48.308 0.602 7.6 595.7 9.42
11/30/2016 7:45:00 PM 9.02 48.236 0.597 7.6 596.3 10.09
11/30/2016 8:00:00 PM 8.98 48.164 0.594 7.6 574.3 10.26
11/30/2016 8:15:00 PM 8.96 48.128 0.59 7.58 544.9 10.33
11/30/2016 8:30:00 PM 8.93 48.074 0.59 7.58 590.7 10.24
11/30/2016 8:45:00 PM 8.94 48.092 0.591 7.57 642.6 9.68
11/30/2016 9:00:00 PM 8.99 48.182 0.591 7.57 482.7 8.92
11/30/2016 9:15:00 PM 9.04 48.272 0.59 7.57 527.3 9.75
11/30/2016 9:30:00 PM 9.04 48.272 0.587 7.56 520.7 9.31
11/30/2016 9:45:00 PM 9.01 48.218 0.584 7.56 546.8 8.24
11/30/2016 10:00:00 PM 9.03 48.254 0.578 7.56 493.4 6.14
11/30/2016 10:15:00 PM 9.04 48.272 0.573 7.55 494 3.96
11/30/2016 10:30:00 PM 9.06 48.308 0.567 7.54 564 4.62
11/30/2016 10:45:00 PM 9.1 48.38 0.562 7.53 490.7 4.14
11/30/2016 11:00:00 PM 9.18 48.524 0.557 7.52 495.8 4.58
11/30/2016 11:15:00 PM 9.21 48.578 0.555 7.52 490 5.8
11/30/2016 11:30:00 PM 9.18 48.524 0.552 7.52 487.7 6.04
11/30/2016 11:45:00 PM 9.14 48.452 0.55 7.52 535.9 5.73
12/1/2016 12:00:00 AM 9.1 48.38 0.549 7.51 509.8 5
12/1/2016 12:15:00 AM 9.07 48.326 0.547 7.5 495.5 4.24
12/1/2016 12:30:00 AM 9.06 48.308 0.546 7.49 509.8 3.94
12/1/2016 12:45:00 AM 9.11 48.398 0.546 7.49 756.5 4.23
12/1/2016 1:00:00 AM 9.12 48.416 0.546 7.48 591.3 4.85
12/1/2016 1:15:00 AM 9.07 48.326 0.546 7.48 670.5 5.11
12/1/2016 1:30:00 AM 9.03 48.254 0.545 7.46 968.4 4.07
12/1/2016 1:45:00 AM 9 48.2 0.542 7.46 1028.3 3.2
12/1/2016 2:00:00 AM 8.99 48.182 0.538 7.45 1040 2.52
12/1/2016 2:15:00 AM 9.02 48.236 0.531 7.45 1040.2 2.04
12/1/2016 2:30:00 AM 9.01 48.218 0.529 7.44 1041.1 1.59
12/1/2016 2:45:00 AM 8.89 48.002 0.526 7.44 1040.2 1.33
12/1/2016 3:00:00 AM 8.78 47.804 0.522 7.43 1039.3 1.06
12/1/2016 3:15:00 AM 8.7 47.66 0.517 7.43 1038.7 0.86
12/1/2016 3:30:00 AM 8.63 47.534 0.508 7.42 1038.1 0.71
12/1/2016 3:45:00 AM 8.59 47.462 0.509 7.42 1037.8 0.59
12/1/2016 4:00:00 AM 8.61 47.498 0.506 7.41 1038 0.52
12/1/2016 4:15:00 AM 8.58 47.444 0.501 7.4 1037.8 0.54
12/1/2016 4:30:00 AM 8.51 47.318 0.499 7.37 1037.2 0.74
12/1/2016 4:45:00 AM 8.4 47.12 0.497 7.35 1036.3 0.69
12/1/2016 5:00:00 AM 8.32 46.976 0.495 7.33 1035.7 0.49
12/1/2016 5:15:00 AM 8.25 46.85 0.493 7.33 1035.1 0.4
12/1/2016 5:30:00 AM 8.19 46.742 0.491 7.33 1034.6 0.37
12/1/2016 5:45:00 AM 8.13 46.634 0.488 7.33 1034.2 0.36
12/1/2016 6:00:00 AM 8.14 46.652 0.485 7.33 1034.3 0.35
12/1/2016 6:15:00 AM 8.16 46.688 0.484 7.33 1034.4 0.35
12/1/2016 6:30:00 AM 8.11 46.598 0.481 7.33 1034.1 0.34
12/1/2016 6:45:00 AM 8.01 46.418 0.478 7.32 1033.2 0.34
12/1/2016 7:00:00 AM 7.94 46.292 0.476 7.33 1032.7 0.33
12/1/2016 7:15:00 AM 7.89 46.202 0.475 7.33 1032.3 0.33
12/1/2016 7:30:00 AM 7.84 46.112 0.472 7.33 1031.9 0.33
12/1/2016 7:45:00 AM 7.8 46.04 0.469 7.32 1031.6 0.33
12/1/2016 8:00:00 AM 7.76 45.968 0.466 7.32 1031.3 0.32
12/1/2016 8:15:00 AM 7.76 45.968 0.463 7.32 1031.3 0.32
12/1/2016 8:30:00 AM 7.79 46.022 0.46 7.32 1031.6 0.32
12/1/2016 8:45:00 AM 7.78 46.004 0.458 7.32 1031.5 0.31
12/1/2016 9:00:00 AM 7.7 45.86 0.457 7.31 1030.9 0.31
12/1/2016 9:15:00 AM 7.62 45.716 0.455 7.32 1030.2 0.31
12/1/2016 9:30:00 AM 7.57 45.626 0.454 7.31 1029.9 0.31
12/1/2016 9:45:00 AM 7.53 45.554 0.452 7.31 1029.6 0.3
12/1/2016 10:00:00 AM 7.5 45.5 0.452 7.31 1029.3 0.3
12/1/2016 10:15:00 AM 7.49 45.482 0.451 7.32 1029.2 0.3
12/1/2016 10:30:00 AM 7.55 45.59 0.45 7.31 1029.7 0.3
12/1/2016 10:45:00 AM 7.54 45.572 0.45 7.32 1029.6 0.29
12/1/2016 11:00:00 AM 7.47 45.446 0.45 7.32 1029.1 0.29
12/1/2016 11:15:00 AM 7.41 45.338 0.449 7.32 1028.6 0.29
12/1/2016 11:30:00 AM 7.38 45.284 0.448 7.32 1028.4 0.3
12/1/2016 11:45:00 AM 7.38 45.284 0.446 7.33 1028.3 0.3
12/1/2016 12:00:00 PM 7.38 45.284 0.446 7.33 1028.3 0.41
12/1/2016 12:15:00 PM 7.36 45.248 0.446 7.33 1028.3 0.46
12/1/2016 12:30:00 PM 7.41 45.338 0.446 7.34 1028.6 0.41
12/1/2016 12:45:00 PM 7.48 45.464 0.446 7.34 1029.2 0.36
12/1/2016 1:00:00 PM 7.47 45.446 0.447 7.35 1029 0.33
12/1/2016 1:15:00 PM 7.42 45.356 0.446 7.35 1028.7 0.3
12/1/2016 1:30:00 PM 7.36 45.248 0.446 7.36 1028.2 0.29
12/1/2016 1:45:00 PM 7.3 45.14 0.446 7.36 1027.8 0.3
12/1/2016 2:00:00 PM 7.26 45.068 0.446 7.37 1027.4 0.34
12/1/2016 2:15:00 PM 7.23 45.014 0.445 7.37 1027.2 1.43
12/1/2016 2:30:00 PM 7.26 45.068 0.445 7.38 1027.4 5.7
12/1/2016 2:45:00 PM 7.31 45.158 0.446 7.38 1027.7 6.99
12/1/2016 3:00:00 PM 7.29 45.122 0.446 7.37 1027.6 7.47
12/1/2016 3:15:00 PM 7.21 44.978 0.446 7.37 1027 7.71
12/1/2016 3:30:00 PM 7.16 44.888 0.445 7.37 1026.5 7.38
12/1/2016 3:45:00 PM 7.12 44.816 0.444 7.37 1026.3 7.93
12/1/2016 4:00:00 PM 7.08 44.744 0.443 7.37 1026.1 8.47
12/1/2016 4:15:00 PM 7.06 44.708 0.443 7.37 1025.8 8.86
12/1/2016 4:30:00 PM 7.05 44.69 0.443 7.37 1025.7 8.85
12/1/2016 4:45:00 PM 7.1 44.78 0.443 7.37 1026.1 8.51
12/1/2016 5:00:00 PM 7.12 44.816 0.444 7.36 1026.2 9.26
12/1/2016 5:15:00 PM 7.05 44.69 0.445 7.37 1025.8 9.53
12/1/2016 5:30:00 PM 6.96 44.528 0.445 7.37 1025 9.71
12/1/2016 5:45:00 PM 6.89 44.402 0.445 7.37 1024.5 9.76
12/1/2016 6:00:00 PM 6.84 44.312 0.445 7.37 1024.1 9.95
12/1/2016 6:15:00 PM 6.8 44.24 0.445 7.37 1023.7 9.83
12/1/2016 6:30:00 PM 6.81 44.258 0.446 7.37 1024 9.85
12/1/2016 6:45:00 PM 6.87 44.366 0.447 7.37 1024.4 9.79
12/1/2016 7:00:00 PM 6.88 44.384 0.448 7.37 1024.5 9.77
12/1/2016 7:15:00 PM 6.81 44.258 0.448 7.37 1023.9 9.81
12/1/2016 7:30:00 PM 6.72 44.096 0.448 7.38 1023.2 9.96
12/1/2016 7:45:00 PM 6.65 43.97 0.448 7.38 1022.7 10.1
12/1/2016 8:00:00 PM 6.59 43.862 0.448 7.38 1022.3 10.14
12/1/2016 8:15:00 PM 6.56 43.808 0.448 7.38 1022 10.27
12/1/2016 8:30:00 PM 6.53 43.754 0.449 7.39 1021.7 10.33
12/1/2016 8:45:00 PM 6.54 43.772 0.449 7.38 1021.9 10.23
12/1/2016 9:00:00 PM 6.59 43.862 0.45 7.38 1022.2 10.1
12/1/2016 9:15:00 PM 6.58 43.844 0.451 7.38 1022.2 9.88
12/1/2016 9:30:00 PM 6.52 43.736 0.452 7.39 1021.7 10.03
12/1/2016 9:45:00 PM 6.45 43.61 0.452 7.39 1021.2 10.19
12/1/2016 10:00:00 PM 6.41 43.538 0.452 7.39 1020.8 10.14
12/1/2016 10:15:00 PM 6.37 43.466 0.452 7.4 1020.5 10.34
12/1/2016 10:30:00 PM 6.35 43.43 0.453 7.39 1020.4 10.58
12/1/2016 10:45:00 PM 6.37 43.466 0.453 7.4 1020.6 10.62
12/1/2016 11:00:00 PM 6.42 43.556 0.455 7.4 1021 10.54
12/1/2016 11:15:00 PM 6.41 43.538 0.456 7.4 1020.9 10.29
12/1/2016 11:30:00 PM 6.35 43.43 0.456 7.4 1020.4 10.39
12/1/2016 11:45:00 PM 6.29 43.322 0.456 7.4 1020 10.4
12/2/2016 12:00:00 AM 6.25 43.25 0.456 7.41 1019.7 10.52
12/2/2016 12:15:00 AM 6.22 43.196 0.457 7.41 1019.2 9.85
12/2/2016 12:30:00 AM 6.2 43.16 0.456 7.41 1019.3 10.27
12/2/2016 12:45:00 AM 6.21 43.178 0.457 7.41 1019.4 10.66
12/2/2016 1:00:00 AM 6.28 43.304 0.457 7.41 1019.9 10.38
12/2/2016 1:15:00 AM 6.31 43.358 0.458 7.41 1020.2 10.31
12/2/2016 1:30:00 AM 6.27 43.286 0.458 7.41 1019.9 9.98
12/2/2016 1:45:00 AM 6.21 43.178 0.458 7.41 1019.4 9.78
12/2/2016 2:00:00 AM 6.16 43.088 0.459 7.41 1019 9.8
12/2/2016 2:15:00 AM 6.13 43.034 0.459 7.41 1018.7 9.92
12/2/2016 2:30:00 AM 6.1 42.98 0.46 7.41 1018.5 9.81
12/2/2016 2:45:00 AM 6.11 42.998 0.46 7.41 1018.6 9.76
12/2/2016 3:00:00 AM 6.18 43.124 0.461 7.42 1019.1 9.85
12/2/2016 3:15:00 AM 6.2 43.16 0.462 7.42 1019.3 9.77
12/2/2016 3:30:00 AM 6.15 43.07 0.463 7.42 1018.9 10
12/2/2016 3:45:00 AM 6.11 42.998 0.463 7.42 1018.6 10.18
12/2/2016 4:00:00 AM 6.08 42.944 0.464 7.43 1018.2 9.56
12/2/2016 4:15:00 AM 6.05 42.89 0.464 7.43 1018.1 9.86
12/2/2016 4:30:00 AM 6.04 42.872 0.465 7.43 1018 10.32
12/2/2016 4:45:00 AM 6.03 42.854 0.465 7.43 1018 10.36
12/2/2016 5:00:00 AM 6.06 42.908 0.466 7.44 1018.3 10.62
12/2/2016 5:15:00 AM 6.12 43.016 0.466 7.44 1018.7 10.47
12/2/2016 5:30:00 AM 6.12 43.016 0.467 7.44 1018.7 10.18
12/2/2016 5:45:00 AM 6.08 42.944 0.468 7.44 1018.4 10.23
12/2/2016 6:00:00 AM 6.04 42.872 0.468 7.45 1018 10.36
12/2/2016 6:15:00 AM 6.01 42.818 0.468 7.44 1017.8 9.71
12/2/2016 6:30:00 AM 5.99 42.782 0.469 7.45 1017.7 9.23
12/2/2016 6:45:00 AM 5.98 42.764 0.469 7.45 1017.6 9.02
12/2/2016 7:00:00 AM 6 42.8 0.47 7.45 1017.8 8.86
12/2/2016 7:15:00 AM 6.04 42.872 0.47 7.45 1018.1 8.73
12/2/2016 7:30:00 AM 6.03 42.854 0.471 7.46 1018 8.68
12/2/2016 7:45:00 AM 5.99 42.782 0.471 7.46 1017.5 8.11
12/2/2016 8:00:00 AM 5.97 42.746 0.472 7.46 1017.5 8.76
12/2/2016 8:15:00 AM 5.96 42.728 0.472 7.46 1017.4 9.24
12/2/2016 8:30:00 AM 5.95 42.71 0.472 7.46 1017.4 9.6
12/2/2016 8:45:00 AM 5.95 42.71 0.473 7.47 1017.4 9.58
12/2/2016 9:00:00 AM 5.96 42.728 0.473 7.46 1017.5 9.69
12/2/2016 9:15:00 AM 6.02 42.836 0.474 7.47 1017.9 9.65
12/2/2016 9:30:00 AM 6.06 42.908 0.474 7.47 1018.2 9.39
12/2/2016 9:45:00 AM 6.05 42.89 0.475 7.47 1018.2 10.32
12/2/2016 10:00:00 AM 6.04 42.872 0.475 7.47 1018.1 9.36
12/2/2016 10:15:00 AM 6.02 42.836 0.475 7.48 1017.9 9.79
12/2/2016 10:30:00 AM 6.02 42.836 0.475 7.48 1017.9 9.6
12/2/2016 10:45:00 AM 6.03 42.854 0.476 7.48 1018 9.89
12/2/2016 11:00:00 AM 6.06 42.908 0.476 7.49 1018.2 10.83
12/2/2016 11:15:00 AM 6.12 43.016 0.476 7.49 1018.7 10.83
12/2/2016 11:30:00 AM 6.15 43.07 0.477 7.5 1018.8 9.58
12/2/2016 11:45:00 AM 6.16 43.088 0.478 7.5 1019 9.64
12/2/2016 12:00:00 PM 6.17 43.106 0.478 7.5 1019.1 9.64
12/2/2016 12:15:00 PM 6.2 43.16 0.478 7.5 1019.3 9.77
12/2/2016 12:30:00 PM 6.24 43.232 0.479 7.51 1019.6 10.06
12/2/2016 12:45:00 PM 6.26 43.268 0.479 7.51 1019.7 10.15
12/2/2016 1:00:00 PM 6.33 43.394 0.479 7.51 1020.3 10.34
12/2/2016 1:15:00 PM 6.43 43.574 0.48 7.52 1021.1 10.19
12/2/2016 1:30:00 PM 6.49 43.682 0.481 7.52 1021.6 10.46
12/2/2016 1:45:00 PM 6.49 43.682 0.481 7.53 1021.5 10.4
12/2/2016 2:00:00 PM 6.45 43.61 0.482 7.53 1021.2 10.26
12/2/2016 2:15:00 PM 6.41 43.538 0.482 7.53 1020.9 11.13
12/2/2016 2:30:00 PM 6.4 43.52 0.482 7.53 1020.8 11.34
12/2/2016 2:45:00 PM 6.39 43.502 0.483 7.53 1020.7 10.8
12/2/2016 3:00:00 PM 6.42 43.556 0.483 7.54 1021 10.85
12/2/2016 3:15:00 PM 6.48 43.664 0.484 7.54 1021.4 10.19
12/2/2016 3:30:00 PM 6.49 43.682 0.485 7.54 1021.5 10.54
12/2/2016 3:45:00 PM 6.45 43.61 0.485 7.54 1021.2 10.56
12/2/2016 4:00:00 PM 6.41 43.538 0.486 7.54 1020.9 9.91
12/2/2016 4:15:00 PM 6.38 43.484 0.486 7.54 1020.7 9.96
12/2/2016 4:30:00 PM 6.37 43.466 0.486 7.55 1020.6 10.2
12/2/2016 4:45:00 PM 6.36 43.448 0.487 7.55 1020.6 10.13
12/2/2016 5:00:00 PM 6.38 43.484 0.487 7.55 1020.7 10.16
12/2/2016 5:15:00 PM 6.43 43.574 0.488 7.55 1021.1 10.17
12/2/2016 5:30:00 PM 6.48 43.664 0.489 7.54 1021.4 9.8
12/2/2016 5:45:00 PM 6.45 43.61 0.489 7.54 1021.2 9.76
12/2/2016 6:00:00 PM 6.4 43.52 0.489 7.54 1020.8 9.96
12/2/2016 6:15:00 PM 6.35 43.43 0.49 7.54 1020.4 10.17
12/2/2016 6:30:00 PM 6.31 43.358 0.49 7.55 1020.1 10.52
12/2/2016 6:45:00 PM 6.28 43.304 0.491 7.55 1019.9 10.89
12/2/2016 7:00:00 PM 6.28 43.304 0.491 7.55 1019.8 9.85
12/2/2016 7:15:00 PM 6.33 43.394 0.491 7.54 1020.3 9.72
12/2/2016 7:30:00 PM 6.33 43.394 0.492 7.54 1020.3 9.92
12/2/2016 7:45:00 PM 6.29 43.322 0.493 7.54 1020 9.97
12/2/2016 8:00:00 PM 6.24 43.232 0.493 7.54 1019.5 10.73
12/2/2016 8:15:00 PM 6.19 43.142 0.493 7.54 1019.2 11.09
12/2/2016 8:30:00 PM 6.16 43.088 0.493 7.55 1018.9 10.94
12/2/2016 8:45:00 PM 6.13 43.034 0.494 7.54 1018.7 10.84
12/2/2016 9:00:00 PM 6.11 42.998 0.494 7.54 1018.6 10.69
12/2/2016 9:15:00 PM 6.14 43.052 0.494 7.54 1018.8 10.53
12/2/2016 9:30:00 PM 6.18 43.124 0.495 7.54 1019.2 10.22
12/2/2016 9:45:00 PM 6.16 43.088 0.495 7.54 1019 10.18
12/2/2016 10:00:00 PM 6.11 42.998 0.496 7.54 1018.6 9.89
12/2/2016 10:15:00 PM 6.07 42.926 0.496 7.53 1018.3 11.04
12/2/2016 10:30:00 PM 6.03 42.854 0.496 7.53 1018 11.33
12/2/2016 10:45:00 PM 6 42.8 0.496 7.53 1017.6 10.05
12/2/2016 11:00:00 PM 6.01 42.818 0.496 7.53 1017.8 9.68
12/2/2016 11:15:00 PM 6.05 42.89 0.497 7.51 1018.1 10.04
12/2/2016 11:30:00 PM 6.07 42.926 0.498 7.51 1018.3 9.2
12/2/2016 11:45:00 PM 6.04 42.872 0.498 7.5 1018 10.08
12/3/2016 12:00:00 AM 5.98 42.764 0.499 7.48 323.9 5.35
12/3/2016 12:15:00 AM 5.92 42.656 0.499 7.47 102 4.05
12/3/2016 12:30:00 AM 5.88 42.584 0.499 7.46 98.1 5.44
12/3/2016 12:45:00 AM 5.86 42.548 0.499 7.45 96.1 7.4
12/3/2016 1:00:00 AM 5.85 42.53 0.499 7.45 120.8 4.64
12/3/2016 1:15:00 AM 5.88 42.584 0.499 7.45 130.5 5.52
12/3/2016 1:30:00 AM 5.93 42.674 0.5 7.45 174.7 6.03
12/3/2016 1:45:00 AM 5.92 42.656 0.501 7.45 161.1 2.89
12/3/2016 2:00:00 AM 5.88 42.584 0.501 7.44 160.5 4.64
12/3/2016 2:15:00 AM 5.82 42.476 0.501 7.44 160.7 5.92
12/3/2016 2:30:00 AM 5.78 42.404 0.501 7.44 159.2 5.36
12/3/2016 2:45:00 AM 5.75 42.35 0.501 7.43 158.7 3.04
12/3/2016 3:00:00 AM 5.74 42.332 0.501 7.43 159.7 4.81
12/3/2016 3:15:00 AM 5.78 42.404 0.502 7.42 158.9 6.26
12/3/2016 3:30:00 AM 5.81 42.458 0.502 7.42 155.3 6.59
12/3/2016 3:45:00 AM 5.79 42.422 0.503 7.42 155.1 7.04
12/3/2016 4:00:00 AM 5.75 42.35 0.503 7.41 155.1 6.77
12/3/2016 4:15:00 AM 5.71 42.278 0.503 7.41 157.2 6.38
12/3/2016 4:30:00 AM 5.68 42.224 0.503 7.41 156.1 6.29
12/3/2016 4:45:00 AM 5.66 42.188 0.503 7.41 158.8 6.4
12/3/2016 5:00:00 AM 5.65 42.17 0.504 7.4 157.9 6.61
12/3/2016 5:15:00 AM 5.66 42.188 0.504 7.41 158.4 6.54
12/3/2016 5:30:00 AM 5.71 42.278 0.504 7.4 157.3 6.77
12/3/2016 5:45:00 AM 5.73 42.314 0.505 7.4 157.3 7.45
12/3/2016 6:00:00 AM 5.7 42.26 0.505 7.39 156.8 7.74
12/3/2016 6:15:00 AM 5.65 42.17 0.505 7.4 157.6 6.64
12/3/2016 6:30:00 AM 5.62 42.116 0.505 7.4 155.8 1.93
12/3/2016 6:45:00 AM 5.59 42.062 0.506 7.39 156.1 1.27
12/3/2016 7:00:00 AM 5.58 42.044 0.506 7.39 155.7 1.69
12/3/2016 7:15:00 AM 5.59 42.062 0.506 7.39 155.6 1.91
12/3/2016 7:30:00 AM 5.62 42.116 0.506 7.39 154.2 2.13
12/3/2016 7:45:00 AM 5.62 42.116 0.507 7.39 154.4 2.48
12/3/2016 8:00:00 AM 5.6 42.08 0.507 7.38 155 2.71
12/3/2016 8:15:00 AM 5.57 42.026 0.507 7.38 157.9 2.89
12/3/2016 8:30:00 AM 5.55 41.99 0.507 7.38 154.5 3.07
12/3/2016 8:45:00 AM 5.55 41.99 0.508 7.38 155.7 3.35
12/3/2016 9:00:00 AM 5.55 41.99 0.508 7.37 155.1 3.25
12/3/2016 9:15:00 AM 5.56 42.008 0.508 7.37 154.7 3.4
12/3/2016 9:30:00 AM 5.6 42.08 0.508 7.38 155.9 3.49
12/3/2016 9:45:00 AM 5.64 42.152 0.508 7.37 155.2 4.54
12/3/2016 10:00:00 AM 5.64 42.152 0.509 7.37 154.9 4.71
12/3/2016 10:15:00 AM 5.64 42.152 0.509 7.37 154.7 1.89
12/3/2016 10:30:00 AM 5.62 42.116 0.51 7.37 160.8 1.39
12/3/2016 10:45:00 AM 5.62 42.116 0.51 7.37 162.5 1.48
12/3/2016 11:00:00 AM 5.62 42.116 0.51 7.37 161.4 1.63
12/3/2016 11:15:00 AM 5.65 42.17 0.51 7.37 161.1 1.68
12/3/2016 11:30:00 AM 5.71 42.278 0.511 7.37 162.3 1.93
12/3/2016 11:45:00 AM 5.77 42.386 0.511 7.37 160.6 2.2
12/3/2016 12:00:00 PM 5.82 42.476 0.511 7.36 160 2.2
12/3/2016 12:15:00 PM 5.86 42.548 0.511 7.36 162.8 2.12
12/3/2016 12:30:00 PM 5.87 42.566 0.512 7.35 162.1 2.21
12/3/2016 12:45:00 PM 5.9 42.62 0.512 7.35 161.5 2.41
12/3/2016 1:00:00 PM 5.93 42.674 0.512 7.35 162.3 2.48
12/3/2016 1:15:00 PM 6 42.8 0.512 7.35 162.7 2.62
12/3/2016 1:30:00 PM 6.1 42.98 0.513 7.34 163 2.85
12/3/2016 1:45:00 PM 6.18 43.124 0.513 7.35 162.2 2.68
12/3/2016 2:00:00 PM 6.2 43.16 0.514 7.36 163.7 1.43
12/3/2016 2:15:00 PM 6.19 43.142 0.514 7.37 163 0.94
12/3/2016 2:30:00 PM 6.17 43.106 0.514 7.37 163.5 0.78
12/3/2016 2:45:00 PM 6.16 43.088 0.514 7.38 162.6 0.77
12/3/2016 3:00:00 PM 6.16 43.088 0.515 7.39 162.9 1.05
12/3/2016 3:15:00 PM 6.21 43.178 0.515 7.39 161.9 1.17
12/3/2016 3:30:00 PM 6.27 43.286 0.515 7.39 162.9 2.2
12/3/2016 3:45:00 PM 6.29 43.322 0.516 7.38 163.1 3.5
12/3/2016 4:00:00 PM 6.27 43.286 0.516 7.37 164.1 4.04
12/3/2016 4:15:00 PM 6.24 43.232 0.517 7.37 164.8 3.7
12/3/2016 4:30:00 PM 6.21 43.178 0.517 7.37 162.7 4.97
12/3/2016 4:45:00 PM 6.2 43.16 0.517 7.38 166 6.36
12/3/2016 5:00:00 PM 6.19 43.142 0.517 7.38 163.1 6.61
12/3/2016 5:15:00 PM 6.21 43.178 0.517 7.38 164.5 6.99
12/3/2016 5:30:00 PM 6.28 43.304 0.518 7.38 165.8 6.61
12/3/2016 5:45:00 PM 6.31 43.358 0.519 7.38 167 7.13
12/3/2016 6:00:00 PM 6.29 43.322 0.52 7.39 165.3 6.7
12/3/2016 6:15:00 PM 6.25 43.25 0.52 7.38 169 6.41
12/3/2016 6:30:00 PM 6.2 43.16 0.52 7.37 167.6 5.4
12/3/2016 6:45:00 PM 6.16 43.088 0.52 7.37 168.3 4.99
12/3/2016 7:00:00 PM 6.14 43.052 0.52 7.37 170 6.69
12/3/2016 7:15:00 PM 6.15 43.07 0.52 7.36 171.8 6.76
12/3/2016 7:30:00 PM 6.19 43.142 0.521 7.36 170.4 6.48
12/3/2016 7:45:00 PM 6.2 43.16 0.522 7.36 176 6.54
12/3/2016 8:00:00 PM 6.16 43.088 0.522 7.36 174.9 7.11
12/3/2016 8:15:00 PM 6.12 43.016 0.522 7.36 174.5 7.28
12/3/2016 8:30:00 PM 6.09 42.962 0.522 7.36 175.2 6.79
12/3/2016 8:45:00 PM 6.06 42.908 0.522 7.35 174.4 5.84
12/3/2016 9:00:00 PM 6.03 42.854 0.522 7.35 179.3 6.27
12/3/2016 9:15:00 PM 6.03 42.854 0.523 7.35 179 6.25
12/3/2016 9:30:00 PM 6.08 42.944 0.523 7.35 179.2 3.68
12/3/2016 9:45:00 PM 6.12 43.016 0.524 7.35 179.4 5.22
12/3/2016 10:00:00 PM 6.11 42.998 0.524 7.35 180.3 5.81
12/3/2016 10:15:00 PM 6.07 42.926 0.525 7.35 181.2 5.94
12/3/2016 10:30:00 PM 6.02 42.836 0.525 7.35 181.5 6.17
12/3/2016 10:45:00 PM 5.99 42.782 0.525 7.35 185.9 6.06
12/3/2016 11:00:00 PM 5.97 42.746 0.525 7.36 183.7 5.77
12/3/2016 11:15:00 PM 5.98 42.764 0.525 7.35 181.8 4.28
12/3/2016 11:30:00 PM 6.03 42.854 0.526 7.36 182.3 3.27
12/3/2016 11:45:00 PM 6.05 42.89 0.527 7.37 182 2.88
12/4/2016 12:00:00 AM 6.02 42.836 0.527 7.37 182.8 2.33
12/4/2016 12:15:00 AM 5.97 42.746 0.527 7.37 182.1 2.16
12/4/2016 12:30:00 AM 5.93 42.674 0.527 7.38 185 2.63
12/4/2016 12:45:00 AM 5.9 42.62 0.527 7.38 184.3 2.71
12/4/2016 1:00:00 AM 5.87 42.566 0.527 7.39 186.8 2.37
12/4/2016 1:15:00 AM 5.87 42.566 0.528 7.38 186.9 1.04
12/4/2016 1:30:00 AM 5.92 42.656 0.528 7.38 187.3 1.59
12/4/2016 1:45:00 AM 5.96 42.728 0.528 7.39 187.5 1.64
12/4/2016 2:00:00 AM 5.95 42.71 0.529 7.39 189.4 1.62
12/4/2016 2:15:00 AM 5.92 42.656 0.529 7.39 186.3 1.61
12/4/2016 2:30:00 AM 5.87 42.566 0.53 7.39 191.4 1.7
12/4/2016 2:45:00 AM 5.83 42.494 0.53 7.39 198.6 1.62
12/4/2016 3:00:00 AM 5.81 42.458 0.53 7.39 194.9 2.5
12/4/2016 3:15:00 AM 5.8 42.44 0.53 7.39 195.7 2.06
12/4/2016 3:30:00 AM 5.84 42.512 0.53 7.38 195.1 1.52
12/4/2016 3:45:00 AM 5.85 42.53 0.531 7.39 196.3 1.25
12/4/2016 4:15:00 AM 5.79 42.422 0.532 7.4 195.6 0.77
12/4/2016 4:30:00 AM 5.76 42.368 0.532 7.4 197.9 0.76
12/4/2016 4:45:00 AM 5.73 42.314 0.532 7.4 198.6 0.89
12/4/2016 5:00:00 AM 5.72 42.296 0.532 7.41 198.5 1.12
12/4/2016 5:15:00 AM 5.7 42.26 0.532 7.41 198.7 0.77
12/4/2016 5:30:00 AM 5.72 42.296 0.533 7.4 199.3 0.71
12/4/2016 5:45:00 AM 5.76 42.368 0.533 7.41 199.4 0.79
12/4/2016 6:00:00 AM 5.77 42.386 0.534 7.41 199 0.9
12/4/2016 6:15:00 AM 5.75 42.35 0.534 7.42 200.1 1.04
12/4/2016 6:30:00 AM 5.72 42.296 0.534 7.42 199.9 1.01
12/4/2016 6:45:00 AM 5.69 42.242 0.534 7.42 201.6 1.02
12/4/2016 7:00:00 AM 5.67 42.206 0.535 7.42 202.4 1.05
12/4/2016 7:15:00 AM 5.66 42.188 0.535 7.42 204 1.14
12/4/2016 7:30:00 AM 5.67 42.206 0.535 7.42 205.3 1.23
12/4/2016 7:45:00 AM 5.7 42.26 0.536 7.42 205.8 1.13
12/4/2016 8:00:00 AM 5.7 42.26 0.536 7.42 205.6 1.08
12/4/2016 8:15:00 AM 5.69 42.242 0.536 7.43 205.7 1.22
12/4/2016 8:30:00 AM 5.67 42.206 0.536 7.42 204.6 1.16
12/4/2016 8:45:00 AM 5.67 42.206 0.536 7.43 205.1 1.07
12/4/2016 9:00:00 AM 5.68 42.224 0.536 7.43 205.2 1.12
12/4/2016 9:15:00 AM 5.7 42.26 0.536 7.43 204.3 1.12
12/4/2016 9:30:00 AM 5.74 42.332 0.536 7.43 200.9 1.2
12/4/2016 9:45:00 AM 5.79 42.422 0.536 7.43 201.9 1.19
12/4/2016 10:00:00 AM 5.84 42.512 0.537 7.43 202.5 1.26
12/4/2016 10:15:00 AM 5.86 42.548 0.537 7.43 204.6 1.04
12/4/2016 10:30:00 AM 5.89 42.602 0.537 7.43 203.4 1.23
12/4/2016 10:45:00 AM 5.91 42.638 0.537 7.43 203.5 1.18
12/4/2016 11:00:00 AM 5.95 42.71 0.537 7.44 204.1 1.07
12/4/2016 11:15:00 AM 5.99 42.782 0.537 7.43 203.8 1.01
12/4/2016 11:30:00 AM 6.04 42.872 0.537 7.43 203.8 1.11
12/4/2016 11:45:00 AM 6.09 42.962 0.538 7.44 203.9 1.04
12/4/2016 12:00:00 PM 6.11 42.998 0.538 7.43 204.4 1.17
12/4/2016 12:15:00 PM 6.11 42.998 0.538 7.43 204.5 1.21
12/4/2016 12:30:00 PM 6.13 43.034 0.538 7.45 204.9 1.43
12/4/2016 12:45:00 PM 6.17 43.106 0.538 7.45 204.3 1.14
12/4/2016 1:00:00 PM 6.2 43.16 0.539 7.44 205.1 1.52
12/4/2016 1:15:00 PM 6.22 43.196 0.539 7.45 205.2 2.01
12/4/2016 1:30:00 PM 6.28 43.304 0.539 7.45 205.5 2.24
12/4/2016 1:45:00 PM 6.38 43.484 0.539 7.45 206.9 2.72
12/4/2016 2:00:00 PM 6.43 43.574 0.54 7.45 207.9 2.3
12/4/2016 2:15:00 PM 6.46 43.628 0.54 7.45 208.4 2.57
12/4/2016 2:30:00 PM 6.46 43.628 0.54 7.45 208.7 2.87
12/4/2016 2:45:00 PM 6.47 43.646 0.54 7.46 208.6 2.55
12/4/2016 3:00:00 PM 6.49 43.682 0.54 7.46 208 2.37
12/4/2016 3:15:00 PM 6.51 43.718 0.54 7.46 208.6 2.34
12/4/2016 3:30:00 PM 6.58 43.844 0.541 7.46 213.9 2.62
12/4/2016 3:45:00 PM 6.64 43.952 0.541 7.46 211.1 2.72
12/4/2016 4:00:00 PM 6.65 43.97 0.542 7.47 211.8 2.51
12/4/2016 4:15:00 PM 6.62 43.916 0.542 7.47 211 2.22
12/4/2016 4:30:00 PM 6.59 43.862 0.543 7.47 214.1 1.06
12/4/2016 4:45:00 PM 6.57 43.826 0.543 7.48 214.8 1.03
12/4/2016 5:00:00 PM 6.54 43.772 0.543 7.47 214.1 1.11
12/4/2016 5:15:00 PM 6.53 43.754 0.543 7.47 214.3 1.48
12/4/2016 5:30:00 PM 6.57 43.826 0.543 7.47 216.5 2.02
12/4/2016 5:45:00 PM 6.63 43.934 0.544 7.45 217.1 1.84
12/4/2016 6:00:00 PM 6.65 43.97 0.544 7.45 218.6 1.58
12/4/2016 6:15:00 PM 6.62 43.916 0.545 7.44 219.7 1.33
12/4/2016 6:30:00 PM 6.58 43.844 0.545 7.44 225.4 1.1
12/4/2016 6:45:00 PM 6.55 43.79 0.545 7.44 222.7 0.98
12/4/2016 7:00:00 PM 6.52 43.736 0.545 7.43 219.6 0.84
12/4/2016 7:15:00 PM 6.52 43.736 0.545 7.43 222.9 0.76
12/4/2016 7:30:00 PM 6.56 43.808 0.545 7.43 222.6 0.84
12/4/2016 7:45:00 PM 6.58 43.844 0.546 7.43 222.6 0.94
12/4/2016 8:00:00 PM 6.57 43.826 0.546 7.43 223.8 0.88
12/4/2016 8:15:00 PM 6.51 43.718 0.546 7.44 227.3 0.5
12/4/2016 8:30:00 PM 6.46 43.628 0.546 7.44 229.4 0.79
12/4/2016 8:45:00 PM 6.41 43.538 0.546 7.44 231.2 1.28
12/4/2016 9:00:00 PM 6.38 43.484 0.546 7.44 229.8 1.47
12/4/2016 9:15:00 PM 6.35 43.43 0.546 7.44 241.5 1.67
12/4/2016 9:30:00 PM 6.36 43.448 0.546 7.44 239.3 1.67
12/4/2016 9:45:00 PM 6.39 43.502 0.547 7.44 241.6 1.67
12/4/2016 10:00:00 PM 6.4 43.52 0.548 7.44 246 1.57
12/4/2016 10:15:00 PM 6.37 43.466 0.548 7.44 248.2 1.57
12/4/2016 10:30:00 PM 6.31 43.358 0.548 7.44 247.2 1.51
12/4/2016 10:45:00 PM 6.26 43.268 0.548 7.44 268.4 1.65
12/4/2016 11:00:00 PM 6.21 43.178 0.548 7.44 271.1 1.27
12/4/2016 11:15:00 PM 6.19 43.142 0.548 7.42 273.4 0.97
12/4/2016 11:30:00 PM 6.21 43.178 0.548 7.41 274 0.62
12/4/2016 11:45:00 PM 6.23 43.214 0.549 7.41 283.2 1.1
12/5/2016 12:00:00 AM 6.21 43.178 0.549 7.4 282.5 1.94
12/5/2016 12:15:00 AM 6.15 43.07 0.55 7.41 291.2 3.31
12/5/2016 12:30:00 AM 6.08 42.944 0.55 7.4 295.3 4.25
12/5/2016 12:45:00 AM 6.02 42.836 0.55 7.4 299.4 4.73
12/5/2016 1:00:00 AM 5.98 42.764 0.55 7.4 298.3 5.62
12/5/2016 1:15:00 AM 5.96 42.728 0.549 7.4 300.3 5.76
12/5/2016 1:30:00 AM 6 42.8 0.55 7.4 293.1 8.29
12/5/2016 1:45:00 AM 6.05 42.89 0.55 7.4 291.3 7.72
12/5/2016 2:00:00 AM 6.06 42.908 0.551 7.39 297.7 7.08
12/5/2016 2:15:00 AM 6.03 42.854 0.551 7.39 298.2 7.49
12/5/2016 2:30:00 AM 5.98 42.764 0.55 7.39 301.4 7.65
12/5/2016 2:45:00 AM 5.95 42.71 0.55 7.4 319.1 6.54
12/5/2016 3:00:00 AM 5.94 42.692 0.55 7.4 316.6 7
12/5/2016 3:15:00 AM 5.98 42.764 0.55 7.4 317 7.22
12/5/2016 3:30:00 AM 6.06 42.908 0.55 7.4 326.7 6.54
12/5/2016 3:45:00 AM 6.09 42.962 0.551 7.4 327.4 6.28
12/5/2016 4:00:00 AM 6.08 42.944 0.551 7.4 327.6 7.42
12/5/2016 4:15:00 AM 6.06 42.908 0.551 7.4 321 6.91
12/5/2016 4:30:00 AM 6.05 42.89 0.551 7.39 326.2 7.31
12/5/2016 4:45:00 AM 6.04 42.872 0.55 7.39 327.9 8.1
12/5/2016 5:00:00 AM 6.04 42.872 0.55 7.39 317.4 8.54
12/5/2016 5:15:00 AM 6.09 42.962 0.551 7.39 317.9 8.32
12/5/2016 5:30:00 AM 6.15 43.07 0.552 7.38 324.3 7.61
12/5/2016 5:45:00 AM 6.17 43.106 0.553 7.39 327.2 7.75
12/5/2016 6:00:00 AM 6.14 43.052 0.554 7.39 337.7 7.76
12/5/2016 6:15:00 AM 6.12 43.016 0.555 7.39 347 8.66
12/5/2016 6:30:00 AM 6.1 42.98 0.557 7.39 342.8 8.68
12/5/2016 6:45:00 AM 6.09 42.962 0.558 7.39 342.9 8.8
12/5/2016 7:00:00 AM 6.11 42.998 0.559 7.39 357.1 9.45
12/5/2016 7:15:00 AM 6.16 43.088 0.56 7.39 362.7 8.36
12/5/2016 7:30:00 AM 6.18 43.124 0.561 7.39 352.6 6.26
12/5/2016 7:45:00 AM 6.16 43.088 0.561 7.39 361.7 8.36
12/5/2016 8:00:00 AM 6.12 43.016 0.562 7.38 364 7.9
12/5/2016 8:15:00 AM 6.1 42.98 0.562 7.39 365.8 8.02
12/5/2016 8:30:00 AM 6.07 42.926 0.563 7.39 366.9 8.17
12/5/2016 8:45:00 AM 6.06 42.908 0.563 7.39 371.7 7.71
12/5/2016 9:00:00 AM 6.08 42.944 0.563 7.39 366.3 7.84
12/5/2016 9:15:00 AM 6.17 43.106 0.564 7.39 365.6 7.97
12/5/2016 9:30:00 AM 6.25 43.25 0.565 7.39 364.5 8.25
12/5/2016 9:45:00 AM 6.26 43.268 0.566 7.38 365.2 7.95
12/5/2016 10:00:00 AM 6.26 43.268 0.566 7.38 360.1 8.21
12/5/2016 10:15:00 AM 6.16 43.088 0.593 7.3 15.1 12.16
12/5/2016 10:30:00 AM 6.15 43.07 0.586 7.32 13.1 12.27
12/5/2016 10:45:00 AM 6.18 43.124 0.579 7.35 13.8 12.3
12/5/2016 11:00:00 AM 6.26 43.268 0.577 7.37 14.3 12.3
12/5/2016 11:15:00 AM 6.31 43.358 0.576 7.38 13.4 12.29
12/5/2016 11:30:00 AM 6.3 43.34 0.571 7.41 13.6 12.29
12/5/2016 11:45:00 AM 6.3 43.34 0.565 7.44 15.4 12.31
12/5/2016 12:00:00 PM 6.3 43.34 0.561 7.47 15.1 12.33
12/5/2016 12:15:00 PM 6.31 43.358 0.558 7.49 17 12.32
12/5/2016 12:30:00 PM 6.33 43.394 0.556 7.51 16.3 12.34
12/5/2016 12:45:00 PM 6.36 43.448 0.554 7.54 16.7 12.34
12/5/2016 1:00:00 PM 6.46 43.628 0.557 7.55 16.7 12.34
12/5/2016 1:15:00 PM 6.55 43.79 0.56 7.56 18.5 12.34
12/5/2016 1:30:00 PM 6.59 43.862 0.557 7.59 15.8 12.36
12/5/2016 1:45:00 PM 6.55 43.79 0.551 7.6 16.1 12.36
12/5/2016 2:00:00 PM 6.53 43.754 0.546 7.63 18.5 12.24
12/5/2016 2:15:00 PM 6.53 43.754 0.543 7.65 15.3 12.35
12/5/2016 2:30:00 PM 6.55 43.79 0.541 7.65 15.1 12.33
12/5/2016 2:45:00 PM 6.57 43.826 0.541 7.65 15.3 12.29
12/5/2016 3:00:00 PM 6.66 43.988 0.546 7.65 14.8 12.25
12/5/2016 3:15:00 PM 6.72 44.096 0.548 7.65 14.3 12.22
12/5/2016 3:30:00 PM 6.7 44.06 0.545 7.64 13.7 12.2
12/5/2016 3:45:00 PM 6.66 43.988 0.54 7.65 14.1 12.16
12/5/2016 4:00:00 PM 6.63 43.934 0.538 7.65 13.2 12.09
12/5/2016 4:15:00 PM 6.61 43.898 0.536 7.64 13.5 12
12/5/2016 4:30:00 PM 6.6 43.88 0.536 7.64 13.8 11.94
12/5/2016 4:45:00 PM 6.58 43.844 0.535 7.63 16.1 11.87
12/5/2016 5:00:00 PM 6.6 43.88 0.538 7.61 13.3 11.77
12/5/2016 5:15:00 PM 6.67 44.006 0.544 7.59 14.2 11.68
12/5/2016 5:30:00 PM 6.68 44.024 0.545 7.58 12.6 11.6
12/5/2016 5:45:00 PM 6.64 43.952 0.541 7.57 13.3 11.52
12/5/2016 6:00:00 PM 6.59 43.862 0.537 7.56 14 11.58
12/5/2016 6:15:00 PM 6.54 43.772 0.535 7.57 15.1 11.57
12/5/2016 6:30:00 PM 6.5 43.7 0.535 7.56 13 11.58
12/5/2016 6:45:00 PM 6.49 43.682 0.535 7.55 12.8 11.56
12/5/2016 7:00:00 PM 6.52 43.736 0.541 7.54 13.8 11.52
12/5/2016 7:15:00 PM 6.56 43.808 0.546 7.53 12.6 11.48
12/5/2016 7:30:00 PM 6.54 43.772 0.546 7.54 12 11.5
12/5/2016 7:45:00 PM 6.47 43.646 0.542 7.54 12.1 11.53
12/5/2016 8:00:00 PM 6.38 43.484 0.539 7.54 12.4 11.56
12/5/2016 8:15:00 PM 6.3 43.34 0.538 7.54 11.9 11.6
12/5/2016 8:30:00 PM 6.24 43.232 0.538 7.55 11.1 11.61
12/5/2016 8:45:00 PM 6.17 43.106 0.538 7.54 11.2 11.63
12/5/2016 9:00:00 PM 6.12 43.016 0.54 7.55 13 11.64
12/5/2016 9:15:00 PM 6.13 43.034 0.545 7.54 12.6 11.62
12/5/2016 9:30:00 PM 6.12 43.016 0.549 7.47 16 11.52
12/5/2016 9:45:00 PM 6.07 42.926 0.548 7.52 12.6 11.62
12/5/2016 10:00:00 PM 5.99 42.782 0.545 7.52 11.4 11.66
12/5/2016 10:15:00 PM 5.9 42.62 0.543 7.52 12.5 11.7
12/5/2016 10:30:00 PM 5.82 42.476 0.541 7.51 11.3 11.73
12/5/2016 10:45:00 PM 5.76 42.368 0.541 7.51 12.7 11.74
12/5/2016 11:00:00 PM 5.72 42.296 0.543 7.51 11.1 11.74
12/5/2016 11:15:00 PM 5.73 42.314 0.548 7.49 10.8 11.71
12/5/2016 11:30:00 PM 5.72 42.296 0.551 7.49 10.5 11.71
12/5/2016 11:45:00 PM 5.65 42.17 0.549 7.49 12.1 11.75
12/6/2016 12:00:00 AM 5.57 42.026 0.547 7.5 11.4 11.79
12/6/2016 12:15:00 AM 5.49 41.882 0.546 7.5 11 11.82
12/6/2016 12:30:00 AM 5.42 41.756 0.546 7.5 11.4 11.84
12/6/2016 12:45:00 AM 5.36 41.648 0.546 7.5 10.5 11.87
12/6/2016 1:00:00 AM 5.31 41.558 0.547 7.5 10.1 11.89
12/6/2016 1:15:00 AM 5.31 41.558 0.552 7.52 12.7 11.8
12/6/2016 1:30:00 AM 5.33 41.594 0.556 7.52 14.8 11.82
12/6/2016 1:45:00 AM 5.29 41.522 0.556 7.53 11.8 11.83
12/6/2016 2:00:00 AM 5.2 41.36 0.553 7.52 10.5 11.88
12/6/2016 2:15:00 AM 5.11 41.198 0.55 7.53 11.4 11.93
12/6/2016 2:30:00 AM 5.03 41.054 0.549 7.54 10.2 11.97
12/6/2016 2:45:00 AM 4.96 40.928 0.549 7.53 10.5 12
12/6/2016 3:00:00 AM 4.91 40.838 0.55 7.54 11.7 12
12/6/2016 3:15:00 AM 4.92 40.856 0.555 7.53 11.4 11.97
12/6/2016 3:30:00 AM 4.92 40.856 0.558 7.52 10.4 11.96
12/6/2016 3:45:00 AM 4.86 40.748 0.558 7.52 11 12
12/6/2016 4:00:00 AM 4.77 40.586 0.556 7.53 11.1 12.04
12/6/2016 4:15:00 AM 4.69 40.442 0.554 7.53 10.7 12.07
12/6/2016 4:30:00 AM 4.63 40.334 0.554 7.52 9.9 12.1
12/6/2016 4:45:00 AM 4.59 40.262 0.554 7.53 10.4 12.12
12/6/2016 5:00:00 AM 4.54 40.172 0.555 7.54 11.3 12.11
12/6/2016 5:15:00 AM 4.55 40.19 0.557 7.55 11.9 12.12
12/6/2016 5:30:00 AM 4.58 40.244 0.561 7.54 12 12.1
12/6/2016 5:45:00 AM 4.59 40.262 0.563 7.54 10.8 12.09
12/6/2016 6:00:00 AM 4.56 40.208 0.562 7.55 10.6 12.12
12/6/2016 6:15:00 AM 4.51 40.118 0.56 7.54 10.7 12.14
12/6/2016 6:30:00 AM 4.47 40.046 0.559 7.54 10 12.16
12/6/2016 6:45:00 AM 4.44 39.992 0.559 7.55 9.8 12.18
12/6/2016 7:00:00 AM 4.42 39.956 0.559 7.55 9.7 12.19
12/6/2016 7:15:00 AM 4.45 40.01 0.561 7.54 10 12.17
12/6/2016 7:30:00 AM 4.49 40.082 0.564 7.54 10.4 12.17
12/6/2016 7:45:00 AM 4.5 40.1 0.565 7.54 9.5 12.15
12/6/2016 8:00:00 AM 4.49 40.082 0.564 7.55 10.9 12.18
12/6/2016 8:15:00 AM 4.47 40.046 0.562 7.56 9.6 12.22
12/6/2016 8:30:00 AM 4.46 40.028 0.562 7.55 9.4 12.27
12/6/2016 8:45:00 AM 4.46 40.028 0.561 7.56 11.5 12.28
12/6/2016 9:00:00 AM 4.48 40.064 0.561 7.57 8.9 12.35
12/6/2016 9:15:00 AM 4.5 40.1 0.562 7.58 8.7 12.43
12/6/2016 9:30:00 AM 4.57 40.226 0.565 7.58 8.4 12.46
12/6/2016 9:45:00 AM 4.63 40.334 0.566 7.59 8 12.5
12/6/2016 10:00:00 AM 4.66 40.388 0.566 7.61 7.6 12.56
12/6/2016 10:15:00 AM 4.67 40.406 0.565 7.62 8.4 12.59
12/6/2016 10:30:00 AM 4.67 40.406 0.564 7.62 7.9 12.6
12/6/2016 10:45:00 AM 4.67 40.406 0.564 7.64 7.7 12.63
12/6/2016 11:00:00 AM 4.69 40.442 0.564 7.65 8.3 12.64
12/6/2016 11:15:00 AM 4.73 40.514 0.565 7.64 8.5 12.64
12/6/2016 11:30:00 AM 4.8 40.64 0.568 7.64 9 12.6
12/6/2016 11:45:00 AM 4.83 40.694 0.569 7.65 8.9 12.58
12/6/2016 12:00:00 PM 4.83 40.694 0.567 7.65 9.2 12.56
12/6/2016 12:15:00 PM 4.81 40.658 0.564 7.66 9.2 12.55
12/6/2016 12:30:00 PM 4.81 40.658 0.563 7.62 11.3 12.57
12/6/2016 12:45:00 PM 4.83 40.694 0.562 7.66 10.4 12.59
12/6/2016 1:00:00 PM 4.85 40.73 0.562 7.67 10.6 12.6
12/6/2016 1:15:00 PM 4.91 40.838 0.564 7.67 10.6 12.6
12/6/2016 1:30:00 PM 5 41 0.569 7.67 10.4 12.53
12/6/2016 1:45:00 PM 5.06 41.108 0.571 7.67 10.9 12.48
12/6/2016 2:00:00 PM 5.07 41.126 0.569 7.68 10.3 12.43
12/6/2016 2:15:00 PM 5.03 41.054 0.565 7.68 10.5 12.4
12/6/2016 2:30:00 PM 5.01 41.018 0.563 7.67 11.6 12.35
12/6/2016 2:45:00 PM 4.99 40.982 0.561 7.66 12.8 12.31
12/6/2016 3:00:00 PM 5.01 41.018 0.561 7.66 11.6 12.25
12/6/2016 3:15:00 PM 5.08 41.144 0.564 7.64 11.8 12.18
12/6/2016 3:30:00 PM 5.13 41.234 0.566 7.64 13.7 12.1
12/6/2016 3:45:00 PM 5.12 41.216 0.563 7.62 12.8 12.06
12/6/2016 4:00:00 PM 5.11 41.198 0.561 7.62 12.8 12.06
12/6/2016 4:15:00 PM 5.09 41.162 0.564 7.58 14.7 12.04
12/6/2016 4:30:00 PM 5.1 41.18 0.573 7.6 13.5 12
12/6/2016 4:45:00 PM 5.12 41.216 0.592 7.6 14.1 11.98
12/6/2016 5:00:00 PM 5.19 41.342 0.619 7.59 15.4 11.9
12/6/2016 5:15:00 PM 5.31 41.558 0.645 7.57 17 11.82
12/6/2016 5:30:00 PM 5.34 41.612 0.653 7.56 18.2 11.81
12/6/2016 5:45:00 PM 5.31 41.558 0.641 7.56 22.2 11.83
12/6/2016 6:00:00 PM 5.29 41.522 0.62 7.55 24.3 11.83
12/6/2016 6:15:00 PM 5.29 41.522 0.601 7.55 29.4 11.81
12/6/2016 6:30:00 PM 5.32 41.576 0.588 7.54 29.2 11.8
12/6/2016 6:45:00 PM 5.43 41.774 0.583 7.52 28 11.74
12/6/2016 7:00:00 PM 5.45 41.81 0.576 7.51 31.7 11.71
12/6/2016 7:15:00 PM 5.38 41.684 0.564 7.5 33.4 11.77
12/6/2016 7:30:00 PM 5.31 41.558 0.553 7.51 35.5 11.79
12/6/2016 7:45:00 PM 5.29 41.522 0.543 7.5 43.2 11.8
12/6/2016 8:00:00 PM 5.28 41.504 0.537 7.5 50.8 11.78
12/6/2016 8:15:00 PM 5.34 41.612 0.534 7.49 45 11.76
12/6/2016 8:30:00 PM 5.47 41.846 0.534 7.48 46.7 11.7
12/6/2016 8:45:00 PM 5.56 42.008 0.53 7.46 45.5 11.67
12/6/2016 9:00:00 PM 5.5 41.9 0.517 7.45 52.2 11.71
12/6/2016 9:15:00 PM 5.42 41.756 0.504 7.46 53 11.75
12/6/2016 9:30:00 PM 5.39 41.702 0.494 7.45 53.3 11.78
12/6/2016 9:45:00 PM 5.38 41.684 0.486 7.44 62.8 11.78
12/6/2016 10:00:00 PM 5.41 41.738 0.483 7.43 54.5 11.76
12/6/2016 10:15:00 PM 5.52 41.936 0.484 7.4 54.1 11.72
12/6/2016 10:30:00 PM 5.56 42.008 0.481 7.4 63.7 11.69
12/6/2016 10:45:00 PM 5.47 41.846 0.471 7.38 61.8 11.78
12/6/2016 11:00:00 PM 5.38 41.684 0.462 7.38 64.8 11.81
12/6/2016 11:15:00 PM 5.32 41.576 0.455 7.38 74.3 11.82
12/6/2016 11:30:00 PM 5.27 41.486 0.45 7.39 107.6 11.86
12/6/2016 11:45:00 PM 5.25 41.45 0.446 7.37 78.2 11.82
12/7/2016 12:00:00 AM 5.25 41.45 0.444 7.39 64.9 11.86
12/7/2016 12:15:00 AM 5.34 41.612 0.445 7.38 64 11.81
12/7/2016 12:30:00 AM 5.41 41.738 0.445 7.37 64.9 11.77
12/7/2016 12:45:00 AM 5.4 41.72 0.44 7.38 60.2 11.77
12/7/2016 1:00:00 AM 5.33 41.594 0.432 7.37 57.3 11.82
12/7/2016 1:15:00 AM 5.28 41.504 0.426 7.37 58.8 11.85
12/7/2016 1:30:00 AM 5.26 41.468 0.423 7.38 53.9 11.85
12/7/2016 1:45:00 AM 5.27 41.486 0.421 7.38 51.8 11.87
12/7/2016 2:00:00 AM 5.3 41.54 0.42 7.37 48.5 11.84
12/7/2016 2:15:00 AM 5.39 41.702 0.423 7.36 48.1 11.81
12/7/2016 2:30:00 AM 5.5 41.9 0.427 7.36 44.7 11.77
12/7/2016 2:45:00 AM 5.51 41.918 0.425 7.36 45 11.77
12/7/2016 3:00:00 AM 5.47 41.846 0.421 7.37 43.1 11.79
12/7/2016 3:15:00 AM 5.45 41.81 0.419 7.37 40 11.8
12/7/2016 3:30:00 AM 5.46 41.828 0.418 7.37 49.8 11.76
12/7/2016 3:45:00 AM 5.48 41.864 0.418 7.37 36.5 11.8
12/7/2016 4:00:00 AM 5.49 41.882 0.418 7.37 34.3 11.8
12/7/2016 4:15:00 AM 5.53 41.954 0.418 7.38 34.3 11.75
12/7/2016 4:30:00 AM 5.64 42.152 0.423 7.37 30.4 11.75
12/7/2016 4:45:00 AM 5.71 42.278 0.426 7.37 31.1 11.71
12/7/2016 5:00:00 AM 5.68 42.224 0.424 7.39 31.7 11.73
12/7/2016 5:15:00 AM 5.63 42.134 0.422 7.39 29.6 11.76
12/7/2016 5:30:00 AM 5.59 42.062 0.421 7.4 27.1 11.79
12/7/2016 5:45:00 AM 5.58 42.044 0.421 7.39 26.5 11.79
12/7/2016 6:00:00 AM 5.58 42.044 0.421 7.39 27 11.78
12/7/2016 6:15:00 AM 5.59 42.062 0.422 7.39 24.7 11.78
12/7/2016 6:30:00 AM 5.66 42.188 0.425 7.4 26.7 11.74
12/7/2016 6:45:00 AM 5.7 42.26 0.427 7.39 23.6 11.74
12/7/2016 7:00:00 AM 5.65 42.17 0.425 7.4 23.6 11.76
12/7/2016 7:15:00 AM 5.61 42.098 0.423 7.39 24 11.72
12/7/2016 7:30:00 AM 5.59 42.062 0.423 7.4 19.7 11.8
12/7/2016 7:45:00 AM 5.58 42.044 0.423 7.4 18.1 11.79
12/7/2016 8:00:00 AM 5.58 42.044 0.423 7.4 20.6 11.8
12/7/2016 8:15:00 AM 5.57 42.026 0.424 7.4 20.1 11.83
12/7/2016 8:30:00 AM 5.61 42.098 0.425 7.39 17.6 11.84
12/7/2016 8:45:00 AM 5.7 42.26 0.429 7.4 17.1 11.82
12/7/2016 9:00:00 AM 5.72 42.296 0.429 7.4 17.8 11.87
12/7/2016 9:15:00 AM 5.67 42.206 0.427 7.4 15 11.92
12/7/2016 9:30:00 AM 5.65 42.17 0.426 7.41 14.1 11.98
12/7/2016 9:45:00 AM 5.65 42.17 0.425 7.42 18.1 12.04
12/7/2016 10:00:00 AM 5.67 42.206 0.425 7.42 15.6 12.1
12/7/2016 10:15:00 AM 5.7 42.26 0.426 7.44 15 12.16
12/7/2016 10:30:00 AM 5.71 42.278 0.429 7.43 13.6 12.13
12/7/2016 10:45:00 AM 5.77 42.386 0.433 7.44 14.8 12.12
12/7/2016 11:00:00 AM 5.79 42.422 0.433 7.45 17.7 12.12
12/7/2016 11:15:00 AM 5.78 42.404 0.432 7.45 15.1 12.2
12/7/2016 11:30:00 AM 5.78 42.404 0.431 7.46 13.4 12.22
12/7/2016 11:45:00 AM 5.77 42.386 0.431 7.46 13.6 12.24
12/7/2016 12:00:00 PM 5.81 42.458 0.431 7.47 13.1 12.23
12/7/2016 12:15:00 PM 5.86 42.548 0.432 7.48 13 12.22
12/7/2016 12:30:00 PM 5.91 42.638 0.434 7.48 12.2 12.21
12/7/2016 12:45:00 PM 6.05 42.89 0.439 7.47 12.8 12.2
12/7/2016 1:00:00 PM 6.13 43.034 0.44 7.48 13 12.22
12/7/2016 1:15:00 PM 6.12 43.016 0.438 7.49 12.1 12.24
12/7/2016 1:30:00 PM 6.11 42.998 0.436 7.49 12.7 12.24
12/7/2016 1:45:00 PM 6.12 43.016 0.436 7.5 11.4 12.21
12/7/2016 2:00:00 PM 6.13 43.034 0.436 7.5 10.7 12.19
12/7/2016 2:15:00 PM 6.14 43.052 0.437 7.5 11.4 12.13
12/7/2016 2:30:00 PM 6.2 43.16 0.439 7.51 11.4 12.09
12/7/2016 2:45:00 PM 6.32 43.376 0.444 7.5 15.4 12.04
12/7/2016 3:00:00 PM 6.34 43.412 0.444 7.49 11 12.08
12/7/2016 3:15:00 PM 6.3 43.34 0.442 7.5 10.8 12.09
12/7/2016 3:30:00 PM 6.27 43.286 0.441 7.51 11.6 12.09
12/7/2016 3:45:00 PM 6.25 43.25 0.441 7.52 11 12.08
12/7/2016 4:00:00 PM 6.24 43.232 0.441 7.52 11 12.04
12/7/2016 4:15:00 PM 6.23 43.214 0.442 7.51 11.1 11.99
12/7/2016 4:30:00 PM 6.25 43.25 0.443 7.5 10.9 11.93
12/7/2016 4:45:00 PM 6.32 43.376 0.448 7.49 10.6 11.83
12/7/2016 5:00:00 PM 6.37 43.466 0.451 7.48 11.2 11.74
12/7/2016 5:15:00 PM 6.33 43.394 0.45 7.47 10.1 11.73
12/7/2016 5:30:00 PM 6.26 43.268 0.448 7.48 9.6 11.73
12/7/2016 5:45:00 PM 6.21 43.178 0.447 7.48 10.6 11.7
12/7/2016 6:00:00 PM 6.16 43.088 0.447 7.47 10.9 11.68
12/7/2016 6:15:00 PM 6.12 43.016 0.447 7.46 12 11.69
12/7/2016 6:30:00 PM 6.11 42.998 0.449 7.46 16.4 11.66
12/7/2016 6:45:00 PM 6.14 43.052 0.453 7.45 11 11.62
12/7/2016 7:00:00 PM 6.14 43.052 0.455 7.45 12 11.62
12/7/2016 7:15:00 PM 6.07 42.926 0.454 7.45 10.3 11.66
12/7/2016 7:30:00 PM 5.98 42.764 0.452 7.46 11.5 11.68
12/7/2016 7:45:00 PM 5.91 42.638 0.452 7.48 11.6 11.7
12/7/2016 8:00:00 PM 5.86 42.548 0.452 7.47 9.2 11.72
12/7/2016 8:15:00 PM 5.8 42.44 0.452 7.47 13.6 11.74
12/7/2016 8:30:00 PM 5.76 42.368 0.452 7.46 10.4 11.74
12/7/2016 8:45:00 PM 5.77 42.386 0.454 7.47 11.6 11.74
12/7/2016 9:00:00 PM 5.81 42.458 0.458 7.45 11.5 11.68
12/7/2016 9:15:00 PM 5.78 42.404 0.459 7.46 11.4 11.71
12/7/2016 9:30:00 PM 5.69 42.242 0.457 7.45 10.9 11.76
12/7/2016 9:45:00 PM 5.62 42.116 0.456 7.46 10 11.79
12/7/2016 10:00:00 PM 5.57 42.026 0.455 7.46 11.3 11.8
12/7/2016 10:15:00 PM 5.53 41.954 0.456 7.45 13.1 11.78
12/7/2016 10:30:00 PM 5.5 41.9 0.456 7.45 10 11.83
12/7/2016 10:45:00 PM 5.53 41.954 0.459 7.43 11.2 11.8
12/7/2016 11:00:00 PM 5.54 41.972 0.462 7.43 10 11.78
12/7/2016 11:15:00 PM 5.47 41.846 0.461 7.44 12.7 11.82
12/7/2016 11:30:00 PM 5.37 41.666 0.46 7.44 10.5 11.86
12/7/2016 11:45:00 PM 5.3 41.54 0.459 7.44 10.4 11.89
12/8/2016 12:00:00 AM 5.23 41.414 0.459 7.45 9.6 11.91
12/8/2016 12:15:00 AM 5.18 41.324 0.458 7.45 10.2 11.93
12/8/2016 12:30:00 AM 5.13 41.234 0.459 7.44 9.9 11.93
12/8/2016 12:45:00 AM 5.14 41.252 0.46 7.44 10 11.92
12/8/2016 1:00:00 AM 5.19 41.342 0.464 7.44 9.3 11.88
12/8/2016 1:15:00 AM 5.17 41.306 0.466 7.43 10.8 11.9
12/8/2016 1:30:00 AM 5.08 41.144 0.465 7.44 9.6 11.94
12/8/2016 1:45:00 AM 4.99 40.982 0.464 7.43 9.4 11.98
12/8/2016 2:00:00 AM 4.92 40.856 0.463 7.41 15.7 11.96
12/8/2016 2:15:00 AM 4.87 40.766 0.464 7.44 10.9 12.03
12/8/2016 2:30:00 AM 4.83 40.694 0.464 7.44 10.9 12.03
12/8/2016 2:45:00 AM 4.86 40.748 0.467 7.43 12.4 12.01
12/8/2016 3:00:00 AM 4.89 40.802 0.47 7.42 9.1 11.99
12/8/2016 3:15:00 AM 4.85 40.73 0.47 7.43 9.7 12.02
12/8/2016 3:30:00 AM 4.77 40.586 0.468 7.42 10.1 12.05
12/8/2016 3:45:00 AM 4.71 40.478 0.467 7.42 10.7 12.09
12/8/2016 4:00:00 AM 4.67 40.406 0.467 7.43 9.4 12.11
12/8/2016 4:15:00 AM 4.65 40.37 0.467 7.45 9.7 12.13
12/8/2016 4:30:00 AM 4.62 40.316 0.467 7.44 10.5 12.12
12/8/2016 4:45:00 AM 4.62 40.316 0.468 7.45 10.2 12.13
12/8/2016 5:00:00 AM 4.67 40.406 0.471 7.45 10.5 12.09
12/8/2016 5:15:00 AM 4.69 40.442 0.473 7.45 11.3 12.07
12/8/2016 5:30:00 AM 4.65 40.37 0.472 7.45 11.4 12.1
12/8/2016 5:45:00 AM 4.56 40.208 0.471 7.44 13.9 12.1
12/8/2016 6:00:00 AM 4.5 40.1 0.471 7.46 9.5 12.15
12/8/2016 6:15:00 AM 4.46 40.028 0.471 7.46 9.7 12.16
12/8/2016 6:30:00 AM 4.43 39.974 0.471 7.45 9.1 12.18
12/8/2016 6:45:00 AM 4.42 39.956 0.471 7.44 9.4 12.17
12/8/2016 7:00:00 AM 4.46 40.028 0.473 7.44 8.8 12.15
12/8/2016 7:15:00 AM 4.46 40.028 0.474 7.44 9.5 12.15
12/8/2016 7:30:00 AM 4.4 39.92 0.474 7.45 9.2 12.18
12/8/2016 7:45:00 AM 4.35 39.83 0.473 7.45 9 12.2
12/8/2016 8:00:00 AM 4.31 39.758 0.473 7.46 8.9 12.23
12/8/2016 8:15:00 AM 4.28 39.704 0.473 7.46 7.9 12.25
12/8/2016 8:30:00 AM 4.25 39.65 0.473 7.46 7.9 12.29
12/8/2016 8:45:00 AM 4.24 39.632 0.473 7.46 8.1 12.31
12/8/2016 9:00:00 AM 4.27 39.686 0.474 7.45 7.9 12.31
12/8/2016 9:15:00 AM 4.32 39.776 0.476 7.45 7.6 12.33
12/8/2016 9:30:00 AM 4.32 39.776 0.476 7.46 10 12.38
12/8/2016 9:45:00 AM 4.31 39.758 0.476 7.47 7.3 12.52
12/8/2016 10:00:00 AM 4.29 39.722 0.475 7.48 7.3 12.58
12/8/2016 10:15:00 AM 4.29 39.722 0.475 7.48 7.5 12.66
12/8/2016 10:30:00 AM 4.31 39.758 0.474 7.5 8.6 12.72
12/8/2016 10:45:00 AM 4.38 39.884 0.475 7.5 8 12.77
12/8/2016 11:00:00 AM 4.48 40.064 0.476 7.5 10.3 12.79
12/8/2016 11:15:00 AM 4.51 40.118 0.477 7.52 8.6 12.82
12/8/2016 11:30:00 AM 4.49 40.082 0.476 7.52 8.9 12.83
12/8/2016 11:45:00 AM 4.46 40.028 0.476 7.53 8.9 12.83
12/8/2016 12:00:00 PM 4.46 40.028 0.476 7.53 9.2 12.84
12/8/2016 12:15:00 PM 4.47 40.046 0.476 7.55 8.6 12.85
12/8/2016 12:30:00 PM 4.48 40.064 0.476 7.54 9.3 12.85
12/8/2016 12:45:00 PM 4.51 40.118 0.477 7.55 9 12.88
12/8/2016 1:00:00 PM 4.58 40.244 0.479 7.55 9.3 12.82
12/8/2016 1:15:00 PM 4.66 40.388 0.482 7.56 12.7 12.79
12/8/2016 1:30:00 PM 4.65 40.37 0.482 7.57 9.3 12.75
12/8/2016 1:45:00 PM 4.6 40.28 0.481 7.57 9.4 12.75
12/8/2016 2:00:00 PM 4.56 40.208 0.48 7.57 9.4 12.74
12/8/2016 2:15:00 PM 4.53 40.154 0.48 7.57 8.3 12.73
12/8/2016 2:30:00 PM 4.54 40.172 0.48 7.56 9.3 12.73
12/8/2016 2:45:00 PM 4.55 40.19 0.481 7.56 8.6 12.71
12/8/2016 3:00:00 PM 4.63 40.334 0.484 7.56 8.9 12.65
12/8/2016 3:15:00 PM 4.64 40.352 0.485 7.55 8.9 12.63
12/8/2016 3:30:00 PM 4.59 40.262 0.485 7.55 8.6 12.62
12/8/2016 3:45:00 PM 4.53 40.154 0.484 7.56 8.4 12.61
12/8/2016 4:00:00 PM 4.49 40.082 0.484 7.55 8.3 12.56
12/8/2016 4:15:00 PM 4.44 39.992 0.483 7.55 8.3 12.51
12/8/2016 4:30:00 PM 4.39 39.902 0.484 7.55 8 12.48
12/8/2016 4:45:00 PM 4.36 39.848 0.484 7.54 7.8 12.44
12/8/2016 5:00:00 PM 4.39 39.902 0.487 7.54 13.2 12.33
12/8/2016 5:15:00 PM 4.44 39.992 0.489 7.53 8.7 12.28
12/8/2016 5:30:00 PM 4.4 39.92 0.49 7.52 8.6 12.27
12/8/2016 5:45:00 PM 4.32 39.776 0.488 7.52 9.2 12.29
12/8/2016 6:00:00 PM 4.24 39.632 0.487 7.51 8.7 12.31
12/8/2016 6:15:00 PM 4.17 39.506 0.487 7.51 9.6 12.32
12/8/2016 6:30:00 PM 4.13 39.434 0.487 7.51 10.7 12.32
12/8/2016 6:45:00 PM 4.1 39.38 0.487 7.51 8.8 12.33
12/8/2016 7:00:00 PM 4.14 39.452 0.489 7.49 9.2 12.28
12/8/2016 7:15:00 PM 4.14 39.452 0.491 7.49 8.9 12.28
12/8/2016 7:30:00 PM 4.07 39.326 0.491 7.48 8.7 12.32
12/8/2016 7:45:00 PM 3.97 39.146 0.49 7.49 8.5 12.37
12/8/2016 8:00:00 PM 3.91 39.038 0.489 7.48 9.4 12.4
12/8/2016 8:15:00 PM 3.84 38.912 0.489 7.48 8.9 12.41
12/8/2016 8:30:00 PM 3.79 38.822 0.489 7.47 10.9 12.44
12/8/2016 8:45:00 PM 3.74 38.732 0.489 7.49 13.6 12.42
12/8/2016 9:00:00 PM 3.75 38.75 0.491 7.49 8.9 12.43
12/8/2016 9:15:00 PM 3.78 38.804 0.494 7.49 8.9 12.4
12/8/2016 9:30:00 PM 3.75 38.75 0.495 7.48 9.2 12.42
12/8/2016 9:45:00 PM 3.66 38.588 0.494 7.49 9 12.47
12/8/2016 10:00:00 PM 3.57 38.426 0.493 7.5 8.1 12.5
12/8/2016 10:15:00 PM 3.51 38.318 0.492 7.49 8.7 12.51
12/8/2016 10:30:00 PM 3.46 38.228 0.492 7.49 8.4 12.54
12/8/2016 10:45:00 PM 3.42 38.156 0.492 7.48 7.9 12.55
12/8/2016 11:00:00 PM 3.44 38.192 0.494 7.48 8.9 12.52
12/8/2016 11:15:00 PM 3.46 38.228 0.496 7.48 15.2 12.5
12/8/2016 11:30:00 PM 3.41 38.138 0.496 7.48 9 12.57
12/8/2016 11:45:00 PM 3.33 37.994 0.495 7.48 8.9 12.58
12/9/2016 12:00:00 AM 3.27 37.886 0.495 7.48 8.5 12.61
12/9/2016 12:15:00 AM 3.21 37.778 0.494 7.48 8.4 12.64
12/9/2016 12:30:00 AM 3.16 37.688 0.494 7.49 11.6 12.63
12/9/2016 12:45:00 AM 3.13 37.634 0.494 7.47 8.6 12.67
12/9/2016 1:00:00 AM 3.17 37.706 0.496 7.47 8.3 12.64
12/9/2016 1:15:00 AM 3.22 37.796 0.499 7.47 9.2 12.58
12/9/2016 1:30:00 AM 3.21 37.778 0.5 7.47 8.6 12.59
12/9/2016 1:45:00 AM 3.13 37.634 0.499 7.46 9.1 12.65
12/9/2016 2:00:00 AM 3.05 37.49 0.498 7.47 9.4 12.71
12/9/2016 2:15:00 AM 2.98 37.364 0.497 7.47 8.8 12.73
12/9/2016 2:30:00 AM 2.93 37.274 0.497 7.48 8.9 12.75
12/9/2016 2:45:00 AM 2.9 37.22 0.498 7.47 8.9 12.77
12/9/2016 3:00:00 AM 2.95 37.31 0.499 7.47 9 12.72
12/9/2016 3:15:00 AM 2.99 37.382 0.502 7.47 10.6 12.7
12/9/2016 3:30:00 AM 2.95 37.31 0.502 7.46 8.6 12.73
12/9/2016 3:45:00 AM 2.88 37.184 0.502 7.47 9.6 12.76
12/9/2016 4:00:00 AM 2.82 37.076 0.501 7.46 9.3 12.79
12/9/2016 4:15:00 AM 2.77 36.986 0.501 7.48 10.2 12.8
12/9/2016 4:30:00 AM 2.75 36.95 0.501 7.48 9.1 12.83
12/9/2016 4:45:00 AM 2.72 36.896 0.501 7.48 9.9 12.85
12/9/2016 5:00:00 AM 2.73 36.914 0.502 7.48 9.5 12.83
12/9/2016 5:15:00 AM 2.8 37.04 0.504 7.46 9.5 12.79
12/9/2016 5:30:00 AM 2.82 37.076 0.505 7.47 9.2 12.78
12/9/2016 5:45:00 AM 2.78 37.004 0.505 7.46 8.9 12.82
12/9/2016 6:00:00 AM 2.72 36.896 0.505 7.48 8.9 12.85
12/9/2016 6:15:00 AM 2.67 36.806 0.505 7.48 8.6 12.87
12/9/2016 6:30:00 AM 2.63 36.734 0.504 7.48 8.4 12.89
12/9/2016 6:45:00 AM 2.61 36.698 0.504 7.48 8.5 12.9
12/9/2016 7:00:00 AM 2.61 36.698 0.505 7.48 8.6 12.89
12/9/2016 7:15:00 AM 2.66 36.788 0.506 7.48 8.5 12.86
12/9/2016 7:30:00 AM 2.66 36.788 0.507 7.48 8.6 12.86
12/9/2016 7:45:00 AM 2.63 36.734 0.507 7.48 8.8 12.88
12/9/2016 8:00:00 AM 2.59 36.662 0.506 7.48 9.9 12.89
12/9/2016 8:15:00 AM 2.55 36.59 0.506 7.47 9.6 12.95
12/9/2016 8:30:00 AM 2.53 36.554 0.506 7.47 8.2 12.97
12/9/2016 8:45:00 AM 2.52 36.536 0.506 7.47 8.3 12.99
12/9/2016 9:00:00 AM 2.52 36.536 0.506 7.47 7.7 13.03
12/9/2016 9:15:00 AM 2.56 36.608 0.507 7.48 8.1 13.05
12/9/2016 9:30:00 AM 2.62 36.716 0.508 7.48 7.7 13.08
12/9/2016 9:45:00 AM 2.63 36.734 0.509 7.48 7.8 13.16
12/9/2016 10:00:00 AM 2.62 36.716 0.508 7.5 9.7 13.24
12/9/2016 10:15:00 AM 2.62